<?xml version="1.0" encoding="UTF-8" standalone="no" ?>
<gpx xmlns="http://www.topografix.com/GPX/1/1" xmlns:xsi="http://www.w3.org/2001/XMLSchema-instance" xsi:schemaLocation="http://www.topografix.com/GPX/1/1 http://www.topografix.com/GPX/1/1/gpx.xsd" version="1.1" creator="VisuGPX - https://www.visugpx.com">
  <metadata>
    <name>Grand Cret et Paccaly</name>
    <desc><![CDATA[bone neige dans les couloirs et manque de neige dans le bas
]]></desc>
  </metadata>
  <trk>
    <name><![CDATA[Grand Cret et paccaly 26/02/2011]]></name>
    <trkseg>
      <trkpt lat="45.92287" lon="6.48386">
        <ele>1437.22265625</ele>
        <time>2011-02-26T06:19:18Z</time>
      </trkpt>
      <trkpt lat="45.92285" lon="6.48384">
        <ele>1437.7734375</ele>
        <time>2011-02-26T06:19:30Z</time>
      </trkpt>
      <trkpt lat="45.92284" lon="6.48387">
        <ele>1437.703125</ele>
        <time>2011-02-26T06:20:08Z</time>
      </trkpt>
      <trkpt lat="45.92284" lon="6.48389">
        <ele>1437.2734375</ele>
        <time>2011-02-26T06:20:20Z</time>
      </trkpt>
      <trkpt lat="45.92283" lon="6.4839">
        <ele>1437.328125</ele>
        <time>2011-02-26T06:23:31Z</time>
      </trkpt>
      <trkpt lat="45.92281" lon="6.4839">
        <ele>1437.65625</ele>
        <time>2011-02-26T06:23:43Z</time>
      </trkpt>
      <trkpt lat="45.92282" lon="6.48391">
        <ele>1437.44140625</ele>
        <time>2011-02-26T06:25:27Z</time>
      </trkpt>
      <trkpt lat="45.92276" lon="6.48395">
        <ele>1437.8515625</ele>
        <time>2011-02-26T06:25:37Z</time>
      </trkpt>
      <trkpt lat="45.9227" lon="6.48403">
        <ele>1437.984375</ele>
        <time>2011-02-26T06:25:47Z</time>
      </trkpt>
      <trkpt lat="45.92265" lon="6.48412">
        <ele>1438.20703125</ele>
        <time>2011-02-26T06:25:57Z</time>
      </trkpt>
      <trkpt lat="45.92256" lon="6.48419">
        <ele>1439</ele>
        <time>2011-02-26T06:26:08Z</time>
      </trkpt>
      <trkpt lat="45.92246" lon="6.48425">
        <ele>1440.55859375</ele>
        <time>2011-02-26T06:26:19Z</time>
      </trkpt>
      <trkpt lat="45.92237" lon="6.48436">
        <ele>1441.94140625</ele>
        <time>2011-02-26T06:26:30Z</time>
      </trkpt>
      <trkpt lat="45.92228" lon="6.48447">
        <ele>1443.4453125</ele>
        <time>2011-02-26T06:26:40Z</time>
      </trkpt>
      <trkpt lat="45.92219" lon="6.48459">
        <ele>1444.515625</ele>
        <time>2011-02-26T06:26:50Z</time>
      </trkpt>
      <trkpt lat="45.92213" lon="6.48468">
        <ele>1445.73046875</ele>
        <time>2011-02-26T06:27:00Z</time>
      </trkpt>
      <trkpt lat="45.92205" lon="6.48481">
        <ele>1447.296875</ele>
        <time>2011-02-26T06:27:10Z</time>
      </trkpt>
      <trkpt lat="45.922" lon="6.48491">
        <ele>1448.83203125</ele>
        <time>2011-02-26T06:27:20Z</time>
      </trkpt>
      <trkpt lat="45.92194" lon="6.485">
        <ele>1450.1328125</ele>
        <time>2011-02-26T06:27:30Z</time>
      </trkpt>
      <trkpt lat="45.92187" lon="6.48513">
        <ele>1451.69140625</ele>
        <time>2011-02-26T06:27:44Z</time>
      </trkpt>
      <trkpt lat="45.92182" lon="6.48526">
        <ele>1453.32421875</ele>
        <time>2011-02-26T06:27:55Z</time>
      </trkpt>
      <trkpt lat="45.92176" lon="6.48538">
        <ele>1454.78125</ele>
        <time>2011-02-26T06:28:06Z</time>
      </trkpt>
      <trkpt lat="45.9217" lon="6.48552">
        <ele>1456.48046875</ele>
        <time>2011-02-26T06:28:18Z</time>
      </trkpt>
      <trkpt lat="45.92164" lon="6.48561">
        <ele>1458.34765625</ele>
        <time>2011-02-26T06:28:29Z</time>
      </trkpt>
      <trkpt lat="45.92159" lon="6.48574">
        <ele>1459.71484375</ele>
        <time>2011-02-26T06:28:40Z</time>
      </trkpt>
      <trkpt lat="45.92153" lon="6.48587">
        <ele>1462.44921875</ele>
        <time>2011-02-26T06:28:51Z</time>
      </trkpt>
      <trkpt lat="45.92147" lon="6.48598">
        <ele>1464.92578125</ele>
        <time>2011-02-26T06:29:01Z</time>
      </trkpt>
      <trkpt lat="45.92141" lon="6.48612">
        <ele>1467.53125</ele>
        <time>2011-02-26T06:29:12Z</time>
      </trkpt>
      <trkpt lat="45.92133" lon="6.48623">
        <ele>1470.5703125</ele>
        <time>2011-02-26T06:29:22Z</time>
      </trkpt>
      <trkpt lat="45.92128" lon="6.48637">
        <ele>1472.8046875</ele>
        <time>2011-02-26T06:29:33Z</time>
      </trkpt>
      <trkpt lat="45.92122" lon="6.48648">
        <ele>1475.40625</ele>
        <time>2011-02-26T06:29:43Z</time>
      </trkpt>
      <trkpt lat="45.92121" lon="6.48652">
        <ele>1475.70703125</ele>
        <time>2011-02-26T06:29:47Z</time>
      </trkpt>
      <trkpt lat="45.92121" lon="6.4866">
        <ele>1475.96875</ele>
        <time>2011-02-26T06:29:52Z</time>
      </trkpt>
      <trkpt lat="45.92133" lon="6.48678">
        <ele>1470.73828125</ele>
        <time>2011-02-26T06:30:03Z</time>
      </trkpt>
      <trkpt lat="45.92145" lon="6.48693">
        <ele>1466.15234375</ele>
        <time>2011-02-26T06:30:15Z</time>
      </trkpt>
      <trkpt lat="45.92154" lon="6.48705">
        <ele>1462.60546875</ele>
        <time>2011-02-26T06:30:25Z</time>
      </trkpt>
      <trkpt lat="45.9216" lon="6.48724">
        <ele>1460.1875</ele>
        <time>2011-02-26T06:30:36Z</time>
      </trkpt>
      <trkpt lat="45.92167" lon="6.48744">
        <ele>1458.39453125</ele>
        <time>2011-02-26T06:30:46Z</time>
      </trkpt>
      <trkpt lat="45.92173" lon="6.48771">
        <ele>1457.1796875</ele>
        <time>2011-02-26T06:30:58Z</time>
      </trkpt>
      <trkpt lat="45.92178" lon="6.48793">
        <ele>1456.08984375</ele>
        <time>2011-02-26T06:31:09Z</time>
      </trkpt>
      <trkpt lat="45.92181" lon="6.48819">
        <ele>1455.625</ele>
        <time>2011-02-26T06:31:21Z</time>
      </trkpt>
      <trkpt lat="45.92171" lon="6.48846">
        <ele>1457.1328125</ele>
        <time>2011-02-26T06:31:32Z</time>
      </trkpt>
      <trkpt lat="45.92163" lon="6.48871">
        <ele>1460.69140625</ele>
        <time>2011-02-26T06:31:45Z</time>
      </trkpt>
      <trkpt lat="45.92165" lon="6.48889">
        <ele>1462.0078125</ele>
        <time>2011-02-26T06:31:56Z</time>
      </trkpt>
      <trkpt lat="45.92165" lon="6.48893">
        <ele>1462.29296875</ele>
        <time>2011-02-26T06:32:53Z</time>
      </trkpt>
      <trkpt lat="45.92165" lon="6.48898">
        <ele>1462.71484375</ele>
        <time>2011-02-26T06:32:56Z</time>
      </trkpt>
      <trkpt lat="45.92164" lon="6.48915">
        <ele>1464.36328125</ele>
        <time>2011-02-26T06:33:07Z</time>
      </trkpt>
      <trkpt lat="45.92165" lon="6.48931">
        <ele>1464.80859375</ele>
        <time>2011-02-26T06:33:19Z</time>
      </trkpt>
      <trkpt lat="45.92166" lon="6.48945">
        <ele>1465.46484375</ele>
        <time>2011-02-26T06:33:30Z</time>
      </trkpt>
      <trkpt lat="45.92168" lon="6.48959">
        <ele>1465.890625</ele>
        <time>2011-02-26T06:33:41Z</time>
      </trkpt>
      <trkpt lat="45.92169" lon="6.48972">
        <ele>1466.6171875</ele>
        <time>2011-02-26T06:33:51Z</time>
      </trkpt>
      <trkpt lat="45.92169" lon="6.48978">
        <ele>1466.98828125</ele>
        <time>2011-02-26T06:33:55Z</time>
      </trkpt>
      <trkpt lat="45.92171" lon="6.48993">
        <ele>1467.52734375</ele>
        <time>2011-02-26T06:34:07Z</time>
      </trkpt>
      <trkpt lat="45.92173" lon="6.49008">
        <ele>1469.375</ele>
        <time>2011-02-26T06:34:19Z</time>
      </trkpt>
      <trkpt lat="45.92173" lon="6.49022">
        <ele>1471.234375</ele>
        <time>2011-02-26T06:34:31Z</time>
      </trkpt>
      <trkpt lat="45.92174" lon="6.49036">
        <ele>1473.05859375</ele>
        <time>2011-02-26T06:34:42Z</time>
      </trkpt>
      <trkpt lat="45.92176" lon="6.49048">
        <ele>1474.703125</ele>
        <time>2011-02-26T06:34:53Z</time>
      </trkpt>
      <trkpt lat="45.92177" lon="6.49052">
        <ele>1475.44140625</ele>
        <time>2011-02-26T06:34:56Z</time>
      </trkpt>
      <trkpt lat="45.92178" lon="6.49062">
        <ele>1477.18359375</ele>
        <time>2011-02-26T06:35:07Z</time>
      </trkpt>
      <trkpt lat="45.92181" lon="6.49074">
        <ele>1479.03515625</ele>
        <time>2011-02-26T06:35:18Z</time>
      </trkpt>
      <trkpt lat="45.92181" lon="6.49079">
        <ele>1480.015625</ele>
        <time>2011-02-26T06:35:30Z</time>
      </trkpt>
      <trkpt lat="45.92181" lon="6.49079">
        <ele>1480.015625</ele>
        <time>2011-02-26T06:35:35Z</time>
      </trkpt>
      <trkpt lat="45.92187" lon="6.49092">
        <ele>1482.3984375</ele>
        <time>2011-02-26T06:35:47Z</time>
      </trkpt>
      <trkpt lat="45.92188" lon="6.49095">
        <ele>1483.00390625</ele>
        <time>2011-02-26T06:35:50Z</time>
      </trkpt>
      <trkpt lat="45.92187" lon="6.49113">
        <ele>1486.9375</ele>
        <time>2011-02-26T06:36:03Z</time>
      </trkpt>
      <trkpt lat="45.92186" lon="6.49116">
        <ele>1487.53125</ele>
        <time>2011-02-26T06:36:05Z</time>
      </trkpt>
      <trkpt lat="45.92186" lon="6.49129">
        <ele>1490.41015625</ele>
        <time>2011-02-26T06:36:17Z</time>
      </trkpt>
      <trkpt lat="45.92183" lon="6.49138">
        <ele>1493.015625</ele>
        <time>2011-02-26T06:36:25Z</time>
      </trkpt>
      <trkpt lat="45.92182" lon="6.4915">
        <ele>1496.296875</ele>
        <time>2011-02-26T06:36:36Z</time>
      </trkpt>
      <trkpt lat="45.92183" lon="6.49164">
        <ele>1499.7734375</ele>
        <time>2011-02-26T06:36:50Z</time>
      </trkpt>
      <trkpt lat="45.92186" lon="6.4917">
        <ele>1500.8203125</ele>
        <time>2011-02-26T06:36:56Z</time>
      </trkpt>
      <trkpt lat="45.92185" lon="6.4918">
        <ele>1503.45703125</ele>
        <time>2011-02-26T06:37:07Z</time>
      </trkpt>
      <trkpt lat="45.92184" lon="6.49181">
        <ele>1503.82421875</ele>
        <time>2011-02-26T06:37:08Z</time>
      </trkpt>
      <trkpt lat="45.92184" lon="6.49191">
        <ele>1506.50390625</ele>
        <time>2011-02-26T06:37:19Z</time>
      </trkpt>
      <trkpt lat="45.92187" lon="6.49195">
        <ele>1506.8125</ele>
        <time>2011-02-26T06:37:24Z</time>
      </trkpt>
      <trkpt lat="45.92187" lon="6.49205">
        <ele>1509.1796875</ele>
        <time>2011-02-26T06:37:35Z</time>
      </trkpt>
      <trkpt lat="45.92187" lon="6.49206">
        <ele>1509.62109375</ele>
        <time>2011-02-26T06:37:36Z</time>
      </trkpt>
      <trkpt lat="45.92188" lon="6.49216">
        <ele>1511.66796875</ele>
        <time>2011-02-26T06:37:47Z</time>
      </trkpt>
      <trkpt lat="45.92193" lon="6.49224">
        <ele>1512.6640625</ele>
        <time>2011-02-26T06:37:56Z</time>
      </trkpt>
      <trkpt lat="45.92195" lon="6.49233">
        <ele>1514.3203125</ele>
        <time>2011-02-26T06:38:07Z</time>
      </trkpt>
      <trkpt lat="45.92188" lon="6.49241">
        <ele>1517.46875</ele>
        <time>2011-02-26T06:38:18Z</time>
      </trkpt>
      <trkpt lat="45.92185" lon="6.49246">
        <ele>1519.453125</ele>
        <time>2011-02-26T06:38:22Z</time>
      </trkpt>
      <trkpt lat="45.92181" lon="6.49256">
        <ele>1522.96484375</ele>
        <time>2011-02-26T06:38:33Z</time>
      </trkpt>
      <trkpt lat="45.92186" lon="6.49262">
        <ele>1523.41015625</ele>
        <time>2011-02-26T06:38:43Z</time>
      </trkpt>
      <trkpt lat="45.92191" lon="6.4927">
        <ele>1524.59375</ele>
        <time>2011-02-26T06:38:54Z</time>
      </trkpt>
      <trkpt lat="45.92192" lon="6.49281">
        <ele>1526.9453125</ele>
        <time>2011-02-26T06:39:05Z</time>
      </trkpt>
      <trkpt lat="45.92193" lon="6.49293">
        <ele>1529.1875</ele>
        <time>2011-02-26T06:39:16Z</time>
      </trkpt>
      <trkpt lat="45.92194" lon="6.49295">
        <ele>1529.4609375</ele>
        <time>2011-02-26T06:39:18Z</time>
      </trkpt>
      <trkpt lat="45.92194" lon="6.49305">
        <ele>1531.65625</ele>
        <time>2011-02-26T06:39:28Z</time>
      </trkpt>
      <trkpt lat="45.92193" lon="6.49315">
        <ele>1534.26171875</ele>
        <time>2011-02-26T06:39:38Z</time>
      </trkpt>
      <trkpt lat="45.92192" lon="6.49319">
        <ele>1535.53125</ele>
        <time>2011-02-26T06:39:42Z</time>
      </trkpt>
      <trkpt lat="45.92188" lon="6.49328">
        <ele>1538.890625</ele>
        <time>2011-02-26T06:39:53Z</time>
      </trkpt>
      <trkpt lat="45.92187" lon="6.4933">
        <ele>1539.66796875</ele>
        <time>2011-02-26T06:40:04Z</time>
      </trkpt>
      <trkpt lat="45.92188" lon="6.49334">
        <ele>1540.1171875</ele>
        <time>2011-02-26T06:40:13Z</time>
      </trkpt>
      <trkpt lat="45.92187" lon="6.49337">
        <ele>1540.8359375</ele>
        <time>2011-02-26T06:40:16Z</time>
      </trkpt>
      <trkpt lat="45.92189" lon="6.49349">
        <ele>1542.58203125</ele>
        <time>2011-02-26T06:40:27Z</time>
      </trkpt>
      <trkpt lat="45.92195" lon="6.49361">
        <ele>1544.12890625</ele>
        <time>2011-02-26T06:40:38Z</time>
      </trkpt>
      <trkpt lat="45.92199" lon="6.49366">
        <ele>1544.7578125</ele>
        <time>2011-02-26T06:40:50Z</time>
      </trkpt>
      <trkpt lat="45.92203" lon="6.49376">
        <ele>1546.6875</ele>
        <time>2011-02-26T06:41:01Z</time>
      </trkpt>
      <trkpt lat="45.92208" lon="6.49385">
        <ele>1548.58984375</ele>
        <time>2011-02-26T06:41:11Z</time>
      </trkpt>
      <trkpt lat="45.92212" lon="6.49392">
        <ele>1550.87890625</ele>
        <time>2011-02-26T06:41:21Z</time>
      </trkpt>
      <trkpt lat="45.92216" lon="6.49399">
        <ele>1553.02734375</ele>
        <time>2011-02-26T06:41:33Z</time>
      </trkpt>
      <trkpt lat="45.92213" lon="6.49405">
        <ele>1556.60546875</ele>
        <time>2011-02-26T06:41:41Z</time>
      </trkpt>
      <trkpt lat="45.92211" lon="6.49409">
        <ele>1558.625</ele>
        <time>2011-02-26T06:41:44Z</time>
      </trkpt>
      <trkpt lat="45.92209" lon="6.49417">
        <ele>1562.41015625</ele>
        <time>2011-02-26T06:41:53Z</time>
      </trkpt>
      <trkpt lat="45.92211" lon="6.49421">
        <ele>1563.359375</ele>
        <time>2011-02-26T06:41:56Z</time>
      </trkpt>
      <trkpt lat="45.9221" lon="6.49425">
        <ele>1565.3515625</ele>
        <time>2011-02-26T06:42:01Z</time>
      </trkpt>
      <trkpt lat="45.92213" lon="6.49435">
        <ele>1568.4765625</ele>
        <time>2011-02-26T06:42:10Z</time>
      </trkpt>
      <trkpt lat="45.92216" lon="6.49449">
        <ele>1572.77734375</ele>
        <time>2011-02-26T06:42:21Z</time>
      </trkpt>
      <trkpt lat="45.92217" lon="6.49451">
        <ele>1573.54296875</ele>
        <time>2011-02-26T06:42:23Z</time>
      </trkpt>
      <trkpt lat="45.92223" lon="6.49457">
        <ele>1573.6171875</ele>
        <time>2011-02-26T06:42:33Z</time>
      </trkpt>
      <trkpt lat="45.92235" lon="6.49455">
        <ele>1569.9375</ele>
        <time>2011-02-26T06:42:45Z</time>
      </trkpt>
      <trkpt lat="45.92244" lon="6.49458">
        <ele>1568.82421875</ele>
        <time>2011-02-26T06:42:57Z</time>
      </trkpt>
      <trkpt lat="45.9225" lon="6.49464">
        <ele>1569.3203125</ele>
        <time>2011-02-26T06:43:08Z</time>
      </trkpt>
      <trkpt lat="45.9225" lon="6.49464">
        <ele>1569.3203125</ele>
        <time>2011-02-26T06:43:26Z</time>
      </trkpt>
      <trkpt lat="45.9225" lon="6.49464">
        <ele>1569.3203125</ele>
        <time>2011-02-26T06:43:40Z</time>
      </trkpt>
      <trkpt lat="45.9225" lon="6.49463">
        <ele>1569.28515625</ele>
        <time>2011-02-26T06:43:57Z</time>
      </trkpt>
      <trkpt lat="45.9225" lon="6.49463">
        <ele>1569.28515625</ele>
        <time>2011-02-26T06:44:13Z</time>
      </trkpt>
      <trkpt lat="45.9225" lon="6.49464">
        <ele>1569.3203125</ele>
        <time>2011-02-26T06:44:29Z</time>
      </trkpt>
      <trkpt lat="45.92251" lon="6.49476">
        <ele>1573.26953125</ele>
        <time>2011-02-26T06:44:40Z</time>
      </trkpt>
      <trkpt lat="45.92244" lon="6.49484">
        <ele>1578.109375</ele>
        <time>2011-02-26T06:44:51Z</time>
      </trkpt>
      <trkpt lat="45.92238" lon="6.49496">
        <ele>1584.125</ele>
        <time>2011-02-26T06:45:03Z</time>
      </trkpt>
      <trkpt lat="45.92241" lon="6.49503">
        <ele>1586.10546875</ele>
        <time>2011-02-26T06:45:15Z</time>
      </trkpt>
      <trkpt lat="45.92249" lon="6.49512">
        <ele>1587.0625</ele>
        <time>2011-02-26T06:45:28Z</time>
      </trkpt>
      <trkpt lat="45.92255" lon="6.49519">
        <ele>1588.29296875</ele>
        <time>2011-02-26T06:45:41Z</time>
      </trkpt>
      <trkpt lat="45.92263" lon="6.49525">
        <ele>1588.640625</ele>
        <time>2011-02-26T06:45:54Z</time>
      </trkpt>
      <trkpt lat="45.92269" lon="6.4953">
        <ele>1588.96484375</ele>
        <time>2011-02-26T06:46:06Z</time>
      </trkpt>
      <trkpt lat="45.92269" lon="6.49531">
        <ele>1589.61328125</ele>
        <time>2011-02-26T06:46:15Z</time>
      </trkpt>
      <trkpt lat="45.92266" lon="6.49534">
        <ele>1591.171875</ele>
        <time>2011-02-26T06:46:18Z</time>
      </trkpt>
      <trkpt lat="45.92258" lon="6.49544">
        <ele>1597.21875</ele>
        <time>2011-02-26T06:46:31Z</time>
      </trkpt>
      <trkpt lat="45.92252" lon="6.49554">
        <ele>1602.58984375</ele>
        <time>2011-02-26T06:46:42Z</time>
      </trkpt>
      <trkpt lat="45.92251" lon="6.49555">
        <ele>1603.13671875</ele>
        <time>2011-02-26T06:46:45Z</time>
      </trkpt>
      <trkpt lat="45.9226" lon="6.4956">
        <ele>1602.76171875</ele>
        <time>2011-02-26T06:47:01Z</time>
      </trkpt>
      <trkpt lat="45.92269" lon="6.49565">
        <ele>1602.4296875</ele>
        <time>2011-02-26T06:47:14Z</time>
      </trkpt>
      <trkpt lat="45.92278" lon="6.49574">
        <ele>1604.5</ele>
        <time>2011-02-26T06:47:26Z</time>
      </trkpt>
      <trkpt lat="45.92284" lon="6.49584">
        <ele>1606.93359375</ele>
        <time>2011-02-26T06:47:39Z</time>
      </trkpt>
      <trkpt lat="45.92282" lon="6.49585">
        <ele>1607.73046875</ele>
        <time>2011-02-26T06:47:46Z</time>
      </trkpt>
      <trkpt lat="45.92271" lon="6.4959">
        <ele>1611.48046875</ele>
        <time>2011-02-26T06:47:59Z</time>
      </trkpt>
      <trkpt lat="45.92263" lon="6.49598">
        <ele>1616.2109375</ele>
        <time>2011-02-26T06:48:11Z</time>
      </trkpt>
      <trkpt lat="45.92255" lon="6.49603">
        <ele>1620.36328125</ele>
        <time>2011-02-26T06:48:22Z</time>
      </trkpt>
      <trkpt lat="45.92248" lon="6.49604">
        <ele>1622.30078125</ele>
        <time>2011-02-26T06:48:34Z</time>
      </trkpt>
      <trkpt lat="45.92244" lon="6.49606">
        <ele>1624.01953125</ele>
        <time>2011-02-26T06:48:45Z</time>
      </trkpt>
      <trkpt lat="45.9224" lon="6.49606">
        <ele>1625.01171875</ele>
        <time>2011-02-26T06:48:52Z</time>
      </trkpt>
      <trkpt lat="45.92233" lon="6.49606">
        <ele>1626.80078125</ele>
        <time>2011-02-26T06:49:07Z</time>
      </trkpt>
      <trkpt lat="45.9223" lon="6.49605">
        <ele>1627.25</ele>
        <time>2011-02-26T06:49:18Z</time>
      </trkpt>
      <trkpt lat="45.92224" lon="6.49603">
        <ele>1628.27734375</ele>
        <time>2011-02-26T06:49:26Z</time>
      </trkpt>
      <trkpt lat="45.92222" lon="6.49603">
        <ele>1628.79296875</ele>
        <time>2011-02-26T06:49:41Z</time>
      </trkpt>
      <trkpt lat="45.92226" lon="6.49615">
        <ele>1631.25390625</ele>
        <time>2011-02-26T06:49:53Z</time>
      </trkpt>
      <trkpt lat="45.92229" lon="6.4962">
        <ele>1632.359375</ele>
        <time>2011-02-26T06:50:04Z</time>
      </trkpt>
      <trkpt lat="45.9223" lon="6.4962">
        <ele>1632.2890625</ele>
        <time>2011-02-26T06:50:16Z</time>
      </trkpt>
      <trkpt lat="45.9223" lon="6.4962">
        <ele>1632.2890625</ele>
        <time>2011-02-26T06:50:18Z</time>
      </trkpt>
      <trkpt lat="45.92237" lon="6.49636">
        <ele>1635.8359375</ele>
        <time>2011-02-26T06:50:33Z</time>
      </trkpt>
      <trkpt lat="45.92238" lon="6.49639">
        <ele>1636.828125</ele>
        <time>2011-02-26T06:50:36Z</time>
      </trkpt>
      <trkpt lat="45.92246" lon="6.4965">
        <ele>1639.6171875</ele>
        <time>2011-02-26T06:50:51Z</time>
      </trkpt>
      <trkpt lat="45.92246" lon="6.49654">
        <ele>1640.796875</ele>
        <time>2011-02-26T06:51:06Z</time>
      </trkpt>
      <trkpt lat="45.92237" lon="6.49656">
        <ele>1643.48828125</ele>
        <time>2011-02-26T06:51:18Z</time>
      </trkpt>
      <trkpt lat="45.92232" lon="6.49658">
        <ele>1645.0078125</ele>
        <time>2011-02-26T06:51:27Z</time>
      </trkpt>
      <trkpt lat="45.92222" lon="6.49658">
        <ele>1646.78515625</ele>
        <time>2011-02-26T06:51:41Z</time>
      </trkpt>
      <trkpt lat="45.92218" lon="6.49656">
        <ele>1646.9140625</ele>
        <time>2011-02-26T06:51:53Z</time>
      </trkpt>
      <trkpt lat="45.9222" lon="6.49664">
        <ele>1649.30078125</ele>
        <time>2011-02-26T06:52:06Z</time>
      </trkpt>
      <trkpt lat="45.92223" lon="6.49672">
        <ele>1651.328125</ele>
        <time>2011-02-26T06:52:18Z</time>
      </trkpt>
      <trkpt lat="45.92223" lon="6.49674">
        <ele>1651.7109375</ele>
        <time>2011-02-26T06:52:30Z</time>
      </trkpt>
      <trkpt lat="45.92219" lon="6.49673">
        <ele>1652.33984375</ele>
        <time>2011-02-26T06:52:36Z</time>
      </trkpt>
      <trkpt lat="45.92209" lon="6.49674">
        <ele>1654.48828125</ele>
        <time>2011-02-26T06:52:49Z</time>
      </trkpt>
      <trkpt lat="45.92199" lon="6.49671">
        <ele>1655.5546875</ele>
        <time>2011-02-26T06:53:00Z</time>
      </trkpt>
      <trkpt lat="45.92191" lon="6.49672">
        <ele>1657.3828125</ele>
        <time>2011-02-26T06:53:12Z</time>
      </trkpt>
      <trkpt lat="45.92184" lon="6.49672">
        <ele>1659.1796875</ele>
        <time>2011-02-26T06:53:23Z</time>
      </trkpt>
      <trkpt lat="45.9218" lon="6.49671">
        <ele>1660</ele>
        <time>2011-02-26T06:53:30Z</time>
      </trkpt>
      <trkpt lat="45.92175" lon="6.49671">
        <ele>1660.94921875</ele>
        <time>2011-02-26T06:53:43Z</time>
      </trkpt>
      <trkpt lat="45.92175" lon="6.49671">
        <ele>1661.0546875</ele>
        <time>2011-02-26T06:53:55Z</time>
      </trkpt>
      <trkpt lat="45.92179" lon="6.49677">
        <ele>1661.92578125</ele>
        <time>2011-02-26T06:54:01Z</time>
      </trkpt>
      <trkpt lat="45.92184" lon="6.49691">
        <ele>1664.8515625</ele>
        <time>2011-02-26T06:54:13Z</time>
      </trkpt>
      <trkpt lat="45.9219" lon="6.49702">
        <ele>1666.6484375</ele>
        <time>2011-02-26T06:54:24Z</time>
      </trkpt>
      <trkpt lat="45.92196" lon="6.49716">
        <ele>1669.234375</ele>
        <time>2011-02-26T06:54:36Z</time>
      </trkpt>
      <trkpt lat="45.92196" lon="6.49724">
        <ele>1671.84375</ele>
        <time>2011-02-26T06:54:48Z</time>
      </trkpt>
      <trkpt lat="45.92194" lon="6.49725">
        <ele>1672.6328125</ele>
        <time>2011-02-26T06:54:55Z</time>
      </trkpt>
      <trkpt lat="45.92183" lon="6.49724">
        <ele>1674.16015625</ele>
        <time>2011-02-26T06:55:09Z</time>
      </trkpt>
      <trkpt lat="45.92173" lon="6.49723">
        <ele>1675.46875</ele>
        <time>2011-02-26T06:55:21Z</time>
      </trkpt>
      <trkpt lat="45.92169" lon="6.49726">
        <ele>1677.51171875</ele>
        <time>2011-02-26T06:55:33Z</time>
      </trkpt>
      <trkpt lat="45.92172" lon="6.49739">
        <ele>1680.421875</ele>
        <time>2011-02-26T06:55:46Z</time>
      </trkpt>
      <trkpt lat="45.92174" lon="6.49749">
        <ele>1682.8125</ele>
        <time>2011-02-26T06:55:59Z</time>
      </trkpt>
      <trkpt lat="45.9217" lon="6.49755">
        <ele>1685.66796875</ele>
        <time>2011-02-26T06:56:11Z</time>
      </trkpt>
      <trkpt lat="45.9216" lon="6.49752">
        <ele>1687.359375</ele>
        <time>2011-02-26T06:56:24Z</time>
      </trkpt>
      <trkpt lat="45.92152" lon="6.49751">
        <ele>1688.6484375</ele>
        <time>2011-02-26T06:56:36Z</time>
      </trkpt>
      <trkpt lat="45.92149" lon="6.49757">
        <ele>1690.93359375</ele>
        <time>2011-02-26T06:56:48Z</time>
      </trkpt>
      <trkpt lat="45.92149" lon="6.49757">
        <ele>1690.93359375</ele>
        <time>2011-02-26T06:57:01Z</time>
      </trkpt>
      <trkpt lat="45.9215" lon="6.49759">
        <ele>1691.3046875</ele>
        <time>2011-02-26T06:57:03Z</time>
      </trkpt>
      <trkpt lat="45.92152" lon="6.49773">
        <ele>1694.71484375</ele>
        <time>2011-02-26T06:57:17Z</time>
      </trkpt>
      <trkpt lat="45.92152" lon="6.49773">
        <ele>1694.71484375</ele>
        <time>2011-02-26T06:57:25Z</time>
      </trkpt>
      <trkpt lat="45.92147" lon="6.4978">
        <ele>1697.09375</ele>
        <time>2011-02-26T06:57:38Z</time>
      </trkpt>
      <trkpt lat="45.92147" lon="6.4978">
        <ele>1697.09375</ele>
        <time>2011-02-26T06:57:50Z</time>
      </trkpt>
      <trkpt lat="45.92147" lon="6.4978">
        <ele>1697.09375</ele>
        <time>2011-02-26T06:58:02Z</time>
      </trkpt>
      <trkpt lat="45.92144" lon="6.49791">
        <ele>1700.5234375</ele>
        <time>2011-02-26T06:58:13Z</time>
      </trkpt>
      <trkpt lat="45.92142" lon="6.49795">
        <ele>1701.890625</ele>
        <time>2011-02-26T06:58:25Z</time>
      </trkpt>
      <trkpt lat="45.92142" lon="6.49795">
        <ele>1701.890625</ele>
        <time>2011-02-26T06:58:37Z</time>
      </trkpt>
      <trkpt lat="45.92142" lon="6.49795">
        <ele>1701.890625</ele>
        <time>2011-02-26T06:58:48Z</time>
      </trkpt>
      <trkpt lat="45.92142" lon="6.49796">
        <ele>1702.25</ele>
        <time>2011-02-26T06:59:01Z</time>
      </trkpt>
      <trkpt lat="45.92142" lon="6.49796">
        <ele>1702.25</ele>
        <time>2011-02-26T06:59:13Z</time>
      </trkpt>
      <trkpt lat="45.9214" lon="6.49797">
        <ele>1702.9140625</ele>
        <time>2011-02-26T06:59:15Z</time>
      </trkpt>
      <trkpt lat="45.92117" lon="6.49806">
        <ele>1711.3125</ele>
        <time>2011-02-26T06:59:29Z</time>
      </trkpt>
      <trkpt lat="45.92102" lon="6.49807">
        <ele>1716.15625</ele>
        <time>2011-02-26T06:59:36Z</time>
      </trkpt>
      <trkpt lat="45.92087" lon="6.49806">
        <ele>1720.4453125</ele>
        <time>2011-02-26T06:59:50Z</time>
      </trkpt>
      <trkpt lat="45.92086" lon="6.49813">
        <ele>1722.546875</ele>
        <time>2011-02-26T07:00:02Z</time>
      </trkpt>
      <trkpt lat="45.92087" lon="6.49818">
        <ele>1723.4296875</ele>
        <time>2011-02-26T07:00:15Z</time>
      </trkpt>
      <trkpt lat="45.92087" lon="6.49818">
        <ele>1723.4296875</ele>
        <time>2011-02-26T07:00:28Z</time>
      </trkpt>
      <trkpt lat="45.92079" lon="6.49829">
        <ele>1729.09375</ele>
        <time>2011-02-26T07:00:40Z</time>
      </trkpt>
      <trkpt lat="45.92077" lon="6.49834">
        <ele>1731.19140625</ele>
        <time>2011-02-26T07:00:42Z</time>
      </trkpt>
      <trkpt lat="45.92067" lon="6.49837">
        <ele>1735.83203125</ele>
        <time>2011-02-26T07:00:55Z</time>
      </trkpt>
      <trkpt lat="45.92061" lon="6.49834">
        <ele>1737.203125</ele>
        <time>2011-02-26T07:01:05Z</time>
      </trkpt>
      <trkpt lat="45.92051" lon="6.49833">
        <ele>1740.6328125</ele>
        <time>2011-02-26T07:01:19Z</time>
      </trkpt>
      <trkpt lat="45.92043" lon="6.49832">
        <ele>1743.30859375</ele>
        <time>2011-02-26T07:01:32Z</time>
      </trkpt>
      <trkpt lat="45.92038" lon="6.49831">
        <ele>1744.9921875</ele>
        <time>2011-02-26T07:01:43Z</time>
      </trkpt>
      <trkpt lat="45.92037" lon="6.49829">
        <ele>1745.01171875</ele>
        <time>2011-02-26T07:01:58Z</time>
      </trkpt>
      <trkpt lat="45.92038" lon="6.49832">
        <ele>1745.0546875</ele>
        <time>2011-02-26T07:01:59Z</time>
      </trkpt>
      <trkpt lat="45.92041" lon="6.4984">
        <ele>1746.05859375</ele>
        <time>2011-02-26T07:02:10Z</time>
      </trkpt>
      <trkpt lat="45.92044" lon="6.4985">
        <ele>1747.38671875</ele>
        <time>2011-02-26T07:02:22Z</time>
      </trkpt>
      <trkpt lat="45.92046" lon="6.49865">
        <ele>1751.0859375</ele>
        <time>2011-02-26T07:02:34Z</time>
      </trkpt>
      <trkpt lat="45.92046" lon="6.49872">
        <ele>1753.65625</ele>
        <time>2011-02-26T07:02:46Z</time>
      </trkpt>
      <trkpt lat="45.92046" lon="6.49878">
        <ele>1755.72265625</ele>
        <time>2011-02-26T07:02:58Z</time>
      </trkpt>
      <trkpt lat="45.92037" lon="6.49872">
        <ele>1756.453125</ele>
        <time>2011-02-26T07:03:11Z</time>
      </trkpt>
      <trkpt lat="45.92028" lon="6.49866">
        <ele>1757.859375</ele>
        <time>2011-02-26T07:03:23Z</time>
      </trkpt>
      <trkpt lat="45.92018" lon="6.49859">
        <ele>1759.8515625</ele>
        <time>2011-02-26T07:03:36Z</time>
      </trkpt>
      <trkpt lat="45.92011" lon="6.49854">
        <ele>1761.359375</ele>
        <time>2011-02-26T07:03:48Z</time>
      </trkpt>
      <trkpt lat="45.92008" lon="6.49855">
        <ele>1763.21484375</ele>
        <time>2011-02-26T07:04:01Z</time>
      </trkpt>
      <trkpt lat="45.92012" lon="6.49868">
        <ele>1764.80859375</ele>
        <time>2011-02-26T07:04:12Z</time>
      </trkpt>
      <trkpt lat="45.92013" lon="6.49875">
        <ele>1766.296875</ele>
        <time>2011-02-26T07:04:19Z</time>
      </trkpt>
      <trkpt lat="45.92013" lon="6.49878">
        <ele>1766.80859375</ele>
        <time>2011-02-26T07:04:21Z</time>
      </trkpt>
      <trkpt lat="45.92018" lon="6.49893">
        <ele>1770.77734375</ele>
        <time>2011-02-26T07:04:33Z</time>
      </trkpt>
      <trkpt lat="45.92021" lon="6.49913">
        <ele>1778.17578125</ele>
        <time>2011-02-26T07:04:45Z</time>
      </trkpt>
      <trkpt lat="45.92017" lon="6.49915">
        <ele>1779.98046875</ele>
        <time>2011-02-26T07:04:52Z</time>
      </trkpt>
      <trkpt lat="45.9202" lon="6.49951">
        <ele>1800.765625</ele>
        <time>2011-02-26T07:05:22Z</time>
      </trkpt>
      <trkpt lat="45.92014" lon="6.49946">
        <ele>1796.61328125</ele>
        <time>2011-02-26T07:07:10Z</time>
      </trkpt>
      <trkpt lat="45.92009" lon="6.49949">
        <ele>1799.22265625</ele>
        <time>2011-02-26T07:07:23Z</time>
      </trkpt>
      <trkpt lat="45.92003" lon="6.49952">
        <ele>1802.9296875</ele>
        <time>2011-02-26T07:07:34Z</time>
      </trkpt>
      <trkpt lat="45.92003" lon="6.49952">
        <ele>1802.9296875</ele>
        <time>2011-02-26T07:07:47Z</time>
      </trkpt>
      <trkpt lat="45.91998" lon="6.49951">
        <ele>1802.4921875</ele>
        <time>2011-02-26T07:07:59Z</time>
      </trkpt>
      <trkpt lat="45.91996" lon="6.49951">
        <ele>1802.8671875</ele>
        <time>2011-02-26T07:08:00Z</time>
      </trkpt>
      <trkpt lat="45.9199" lon="6.49952">
        <ele>1804.78125</ele>
        <time>2011-02-26T07:08:05Z</time>
      </trkpt>
      <trkpt lat="45.91983" lon="6.49943">
        <ele>1800.9609375</ele>
        <time>2011-02-26T07:08:18Z</time>
      </trkpt>
      <trkpt lat="45.91977" lon="6.49935">
        <ele>1799.0078125</ele>
        <time>2011-02-26T07:08:30Z</time>
      </trkpt>
      <trkpt lat="45.9197" lon="6.49933">
        <ele>1801.19921875</ele>
        <time>2011-02-26T07:08:42Z</time>
      </trkpt>
      <trkpt lat="45.91966" lon="6.49932">
        <ele>1802.99609375</ele>
        <time>2011-02-26T07:08:53Z</time>
      </trkpt>
      <trkpt lat="45.91966" lon="6.49932">
        <ele>1802.99609375</ele>
        <time>2011-02-26T07:08:56Z</time>
      </trkpt>
      <trkpt lat="45.91963" lon="6.49934">
        <ele>1804.79296875</ele>
        <time>2011-02-26T07:09:09Z</time>
      </trkpt>
      <trkpt lat="45.91965" lon="6.49947">
        <ele>1809.0625</ele>
        <time>2011-02-26T07:09:25Z</time>
      </trkpt>
      <trkpt lat="45.91964" lon="6.49946">
        <ele>1809.0546875</ele>
        <time>2011-02-26T07:09:37Z</time>
      </trkpt>
      <trkpt lat="45.91957" lon="6.49943">
        <ele>1810.34765625</ele>
        <time>2011-02-26T07:09:52Z</time>
      </trkpt>
      <trkpt lat="45.91949" lon="6.49937">
        <ele>1811.28515625</ele>
        <time>2011-02-26T07:10:02Z</time>
      </trkpt>
      <trkpt lat="45.9195" lon="6.49947">
        <ele>1814.734375</ele>
        <time>2011-02-26T07:10:15Z</time>
      </trkpt>
      <trkpt lat="45.9195" lon="6.49952">
        <ele>1816.75</ele>
        <time>2011-02-26T07:10:19Z</time>
      </trkpt>
      <trkpt lat="45.91949" lon="6.49957">
        <ele>1819.1875</ele>
        <time>2011-02-26T07:10:25Z</time>
      </trkpt>
      <trkpt lat="45.91949" lon="6.4996">
        <ele>1820.18359375</ele>
        <time>2011-02-26T07:10:29Z</time>
      </trkpt>
      <trkpt lat="45.91951" lon="6.49972">
        <ele>1824.5625</ele>
        <time>2011-02-26T07:10:41Z</time>
      </trkpt>
      <trkpt lat="45.91954" lon="6.49978">
        <ele>1826.921875</ele>
        <time>2011-02-26T07:10:52Z</time>
      </trkpt>
      <trkpt lat="45.91954" lon="6.4998">
        <ele>1827.94921875</ele>
        <time>2011-02-26T07:11:07Z</time>
      </trkpt>
      <trkpt lat="45.91952" lon="6.4998">
        <ele>1828.23046875</ele>
        <time>2011-02-26T07:11:19Z</time>
      </trkpt>
      <trkpt lat="45.91944" lon="6.49979">
        <ele>1829.78125</ele>
        <time>2011-02-26T07:11:31Z</time>
      </trkpt>
      <trkpt lat="45.91939" lon="6.49976">
        <ele>1830.12109375</ele>
        <time>2011-02-26T07:11:43Z</time>
      </trkpt>
      <trkpt lat="45.91932" lon="6.49969">
        <ele>1829.65234375</ele>
        <time>2011-02-26T07:11:54Z</time>
      </trkpt>
      <trkpt lat="45.91924" lon="6.49961">
        <ele>1829.921875</ele>
        <time>2011-02-26T07:12:06Z</time>
      </trkpt>
      <trkpt lat="45.91921" lon="6.4996">
        <ele>1830.76171875</ele>
        <time>2011-02-26T07:12:17Z</time>
      </trkpt>
      <trkpt lat="45.91922" lon="6.49962">
        <ele>1830.83203125</ele>
        <time>2011-02-26T07:12:20Z</time>
      </trkpt>
      <trkpt lat="45.91923" lon="6.4998">
        <ele>1836.40625</ele>
        <time>2011-02-26T07:12:32Z</time>
      </trkpt>
      <trkpt lat="45.91925" lon="6.49986">
        <ele>1837.83203125</ele>
        <time>2011-02-26T07:12:42Z</time>
      </trkpt>
      <trkpt lat="45.91928" lon="6.49996">
        <ele>1840.51171875</ele>
        <time>2011-02-26T07:12:55Z</time>
      </trkpt>
      <trkpt lat="45.9193" lon="6.49998">
        <ele>1841.2265625</ele>
        <time>2011-02-26T07:13:08Z</time>
      </trkpt>
      <trkpt lat="45.91927" lon="6.49995">
        <ele>1840.31640625</ele>
        <time>2011-02-26T07:13:22Z</time>
      </trkpt>
      <trkpt lat="45.91919" lon="6.49989">
        <ele>1840.44921875</ele>
        <time>2011-02-26T07:13:34Z</time>
      </trkpt>
      <trkpt lat="45.9191" lon="6.49984">
        <ele>1841.81640625</ele>
        <time>2011-02-26T07:13:45Z</time>
      </trkpt>
      <trkpt lat="45.91902" lon="6.49979">
        <ele>1843.23828125</ele>
        <time>2011-02-26T07:13:57Z</time>
      </trkpt>
      <trkpt lat="45.91899" lon="6.49977">
        <ele>1843.6640625</ele>
        <time>2011-02-26T07:14:09Z</time>
      </trkpt>
      <trkpt lat="45.91899" lon="6.49993">
        <ele>1847.3046875</ele>
        <time>2011-02-26T07:14:20Z</time>
      </trkpt>
      <trkpt lat="45.919" lon="6.49997">
        <ele>1848.45703125</ele>
        <time>2011-02-26T07:14:26Z</time>
      </trkpt>
      <trkpt lat="45.91905" lon="6.5001">
        <ele>1850.91796875</ele>
        <time>2011-02-26T07:14:38Z</time>
      </trkpt>
      <trkpt lat="45.91911" lon="6.50016">
        <ele>1851.94921875</ele>
        <time>2011-02-26T07:14:49Z</time>
      </trkpt>
      <trkpt lat="45.91916" lon="6.50024">
        <ele>1854.1171875</ele>
        <time>2011-02-26T07:15:03Z</time>
      </trkpt>
      <trkpt lat="45.91918" lon="6.50035">
        <ele>1859.13671875</ele>
        <time>2011-02-26T07:15:14Z</time>
      </trkpt>
      <trkpt lat="45.91918" lon="6.50042">
        <ele>1862.4765625</ele>
        <time>2011-02-26T07:15:26Z</time>
      </trkpt>
      <trkpt lat="45.91918" lon="6.50046">
        <ele>1864.07421875</ele>
        <time>2011-02-26T07:15:41Z</time>
      </trkpt>
      <trkpt lat="45.91921" lon="6.50051">
        <ele>1866.41796875</ele>
        <time>2011-02-26T07:15:56Z</time>
      </trkpt>
      <trkpt lat="45.91921" lon="6.50051">
        <ele>1866.41796875</ele>
        <time>2011-02-26T07:16:11Z</time>
      </trkpt>
      <trkpt lat="45.91921" lon="6.50051">
        <ele>1866.41796875</ele>
        <time>2011-02-26T07:16:13Z</time>
      </trkpt>
      <trkpt lat="45.9191" lon="6.50057">
        <ele>1869.8828125</ele>
        <time>2011-02-26T07:16:27Z</time>
      </trkpt>
      <trkpt lat="45.91906" lon="6.50057">
        <ele>1869.42578125</ele>
        <time>2011-02-26T07:16:35Z</time>
      </trkpt>
      <trkpt lat="45.91899" lon="6.50056">
        <ele>1868.89453125</ele>
        <time>2011-02-26T07:16:50Z</time>
      </trkpt>
      <trkpt lat="45.91891" lon="6.50056">
        <ele>1871.53125</ele>
        <time>2011-02-26T07:17:03Z</time>
      </trkpt>
      <trkpt lat="45.91885" lon="6.5007">
        <ele>1879.0546875</ele>
        <time>2011-02-26T07:17:14Z</time>
      </trkpt>
      <trkpt lat="45.91895" lon="6.50073">
        <ele>1876.30078125</ele>
        <time>2011-02-26T07:17:23Z</time>
      </trkpt>
      <trkpt lat="45.91898" lon="6.50081">
        <ele>1879.9296875</ele>
        <time>2011-02-26T07:17:35Z</time>
      </trkpt>
      <trkpt lat="45.91902" lon="6.50085">
        <ele>1882.9453125</ele>
        <time>2011-02-26T07:17:48Z</time>
      </trkpt>
      <trkpt lat="45.91897" lon="6.50083">
        <ele>1881.0390625</ele>
        <time>2011-02-26T07:17:58Z</time>
      </trkpt>
      <trkpt lat="45.91887" lon="6.50076">
        <ele>1880.734375</ele>
        <time>2011-02-26T07:18:10Z</time>
      </trkpt>
      <trkpt lat="45.91886" lon="6.50079">
        <ele>1882.60546875</ele>
        <time>2011-02-26T07:18:19Z</time>
      </trkpt>
      <trkpt lat="45.91891" lon="6.50086">
        <ele>1884.296875</ele>
        <time>2011-02-26T07:18:31Z</time>
      </trkpt>
      <trkpt lat="45.91894" lon="6.50092">
        <ele>1886.578125</ele>
        <time>2011-02-26T07:18:39Z</time>
      </trkpt>
      <trkpt lat="45.91902" lon="6.50109">
        <ele>1897.515625</ele>
        <time>2011-02-26T07:18:52Z</time>
      </trkpt>
      <trkpt lat="45.91903" lon="6.50111">
        <ele>1898.56640625</ele>
        <time>2011-02-26T07:19:09Z</time>
      </trkpt>
      <trkpt lat="45.91903" lon="6.50111">
        <ele>1898.56640625</ele>
        <time>2011-02-26T07:19:23Z</time>
      </trkpt>
      <trkpt lat="45.91901" lon="6.50111">
        <ele>1898.11328125</ele>
        <time>2011-02-26T07:19:34Z</time>
      </trkpt>
      <trkpt lat="45.91887" lon="6.50111">
        <ele>1898.69921875</ele>
        <time>2011-02-26T07:19:48Z</time>
      </trkpt>
      <trkpt lat="45.91871" lon="6.50105">
        <ele>1899.61328125</ele>
        <time>2011-02-26T07:20:00Z</time>
      </trkpt>
      <trkpt lat="45.91867" lon="6.50104">
        <ele>1900.47265625</ele>
        <time>2011-02-26T07:20:03Z</time>
      </trkpt>
      <trkpt lat="45.91854" lon="6.50096">
        <ele>1902.1328125</ele>
        <time>2011-02-26T07:20:17Z</time>
      </trkpt>
      <trkpt lat="45.91851" lon="6.50093">
        <ele>1902.390625</ele>
        <time>2011-02-26T07:20:23Z</time>
      </trkpt>
      <trkpt lat="45.91846" lon="6.50091">
        <ele>1903.0859375</ele>
        <time>2011-02-26T07:20:35Z</time>
      </trkpt>
      <trkpt lat="45.9185" lon="6.50099">
        <ele>1904.96484375</ele>
        <time>2011-02-26T07:20:46Z</time>
      </trkpt>
      <trkpt lat="45.91851" lon="6.50106">
        <ele>1907.203125</ele>
        <time>2011-02-26T07:20:50Z</time>
      </trkpt>
      <trkpt lat="45.91853" lon="6.50123">
        <ele>1913.4296875</ele>
        <time>2011-02-26T07:21:03Z</time>
      </trkpt>
      <trkpt lat="45.91858" lon="6.50131">
        <ele>1914.8203125</ele>
        <time>2011-02-26T07:21:16Z</time>
      </trkpt>
      <trkpt lat="45.91863" lon="6.50136">
        <ele>1915.4453125</ele>
        <time>2011-02-26T07:21:30Z</time>
      </trkpt>
      <trkpt lat="45.91867" lon="6.50142">
        <ele>1917.375</ele>
        <time>2011-02-26T07:21:45Z</time>
      </trkpt>
      <trkpt lat="45.91871" lon="6.50146">
        <ele>1918.45703125</ele>
        <time>2011-02-26T07:22:02Z</time>
      </trkpt>
      <trkpt lat="45.91871" lon="6.50146">
        <ele>1918.45703125</ele>
        <time>2011-02-26T07:22:20Z</time>
      </trkpt>
      <trkpt lat="45.9187" lon="6.50146">
        <ele>1918.7734375</ele>
        <time>2011-02-26T07:22:32Z</time>
      </trkpt>
      <trkpt lat="45.91868" lon="6.50148">
        <ele>1919.96484375</ele>
        <time>2011-02-26T07:22:34Z</time>
      </trkpt>
      <trkpt lat="45.91856" lon="6.50147">
        <ele>1921.953125</ele>
        <time>2011-02-26T07:22:46Z</time>
      </trkpt>
      <trkpt lat="45.91848" lon="6.50148">
        <ele>1923.74609375</ele>
        <time>2011-02-26T07:22:57Z</time>
      </trkpt>
      <trkpt lat="45.91836" lon="6.50145">
        <ele>1926.2421875</ele>
        <time>2011-02-26T07:23:10Z</time>
      </trkpt>
      <trkpt lat="45.91834" lon="6.50144">
        <ele>1926.6796875</ele>
        <time>2011-02-26T07:23:23Z</time>
      </trkpt>
      <trkpt lat="45.91834" lon="6.50144">
        <ele>1926.6796875</ele>
        <time>2011-02-26T07:23:27Z</time>
      </trkpt>
      <trkpt lat="45.91841" lon="6.50155">
        <ele>1927.734375</ele>
        <time>2011-02-26T07:23:41Z</time>
      </trkpt>
      <trkpt lat="45.91844" lon="6.50164">
        <ele>1930.6875</ele>
        <time>2011-02-26T07:23:53Z</time>
      </trkpt>
      <trkpt lat="45.91848" lon="6.50173">
        <ele>1934.42578125</ele>
        <time>2011-02-26T07:24:05Z</time>
      </trkpt>
      <trkpt lat="45.91854" lon="6.50184">
        <ele>1939.23828125</ele>
        <time>2011-02-26T07:24:17Z</time>
      </trkpt>
      <trkpt lat="45.91855" lon="6.50186">
        <ele>1939.83203125</ele>
        <time>2011-02-26T07:24:33Z</time>
      </trkpt>
      <trkpt lat="45.91854" lon="6.50186">
        <ele>1940.05859375</ele>
        <time>2011-02-26T07:24:36Z</time>
      </trkpt>
      <trkpt lat="45.9185" lon="6.50188">
        <ele>1941.01171875</ele>
        <time>2011-02-26T07:24:50Z</time>
      </trkpt>
      <trkpt lat="45.91844" lon="6.50186">
        <ele>1940.453125</ele>
        <time>2011-02-26T07:24:57Z</time>
      </trkpt>
      <trkpt lat="45.91842" lon="6.50185">
        <ele>1940.0234375</ele>
        <time>2011-02-26T07:24:59Z</time>
      </trkpt>
      <trkpt lat="45.91835" lon="6.50179">
        <ele>1939.62890625</ele>
        <time>2011-02-26T07:25:13Z</time>
      </trkpt>
      <trkpt lat="45.91835" lon="6.5018">
        <ele>1939.875</ele>
        <time>2011-02-26T07:25:21Z</time>
      </trkpt>
      <trkpt lat="45.91839" lon="6.50187">
        <ele>1941.5625</ele>
        <time>2011-02-26T07:25:28Z</time>
      </trkpt>
      <trkpt lat="45.91841" lon="6.50191">
        <ele>1942.78125</ele>
        <time>2011-02-26T07:25:30Z</time>
      </trkpt>
      <trkpt lat="45.91847" lon="6.50201">
        <ele>1948.01171875</ele>
        <time>2011-02-26T07:25:43Z</time>
      </trkpt>
      <trkpt lat="45.91856" lon="6.50211">
        <ele>1954.1640625</ele>
        <time>2011-02-26T07:25:56Z</time>
      </trkpt>
      <trkpt lat="45.91859" lon="6.50213">
        <ele>1955.515625</ele>
        <time>2011-02-26T07:26:08Z</time>
      </trkpt>
      <trkpt lat="45.91859" lon="6.50213">
        <ele>1955.515625</ele>
        <time>2011-02-26T07:26:20Z</time>
      </trkpt>
      <trkpt lat="45.91855" lon="6.50214">
        <ele>1956.234375</ele>
        <time>2011-02-26T07:26:26Z</time>
      </trkpt>
      <trkpt lat="45.91844" lon="6.50211">
        <ele>1953.07421875</ele>
        <time>2011-02-26T07:26:40Z</time>
      </trkpt>
      <trkpt lat="45.91832" lon="6.50204">
        <ele>1951.2109375</ele>
        <time>2011-02-26T07:26:52Z</time>
      </trkpt>
      <trkpt lat="45.91824" lon="6.502">
        <ele>1951.3984375</ele>
        <time>2011-02-26T07:27:02Z</time>
      </trkpt>
      <trkpt lat="45.91817" lon="6.50198">
        <ele>1952.234375</ele>
        <time>2011-02-26T07:27:14Z</time>
      </trkpt>
      <trkpt lat="45.91811" lon="6.50195">
        <ele>1952.71484375</ele>
        <time>2011-02-26T07:27:24Z</time>
      </trkpt>
      <trkpt lat="45.91806" lon="6.50193">
        <ele>1954.15234375</ele>
        <time>2011-02-26T07:27:37Z</time>
      </trkpt>
      <trkpt lat="45.91799" lon="6.50189">
        <ele>1955.74609375</ele>
        <time>2011-02-26T07:27:50Z</time>
      </trkpt>
      <trkpt lat="45.91802" lon="6.50193">
        <ele>1956.0390625</ele>
        <time>2011-02-26T07:28:04Z</time>
      </trkpt>
      <trkpt lat="45.9181" lon="6.50211">
        <ele>1958.98828125</ele>
        <time>2011-02-26T07:28:16Z</time>
      </trkpt>
      <trkpt lat="45.91816" lon="6.50224">
        <ele>1962.640625</ele>
        <time>2011-02-26T07:28:30Z</time>
      </trkpt>
      <trkpt lat="45.91821" lon="6.5023">
        <ele>1964.8203125</ele>
        <time>2011-02-26T07:28:43Z</time>
      </trkpt>
      <trkpt lat="45.91821" lon="6.50231">
        <ele>1965.33984375</ele>
        <time>2011-02-26T07:28:44Z</time>
      </trkpt>
      <trkpt lat="45.91825" lon="6.50235">
        <ele>1967.06640625</ele>
        <time>2011-02-26T07:28:49Z</time>
      </trkpt>
      <trkpt lat="45.91833" lon="6.50248">
        <ele>1973.23828125</ele>
        <time>2011-02-26T07:29:03Z</time>
      </trkpt>
      <trkpt lat="45.91835" lon="6.50252">
        <ele>1975.41015625</ele>
        <time>2011-02-26T07:29:16Z</time>
      </trkpt>
      <trkpt lat="45.91835" lon="6.50252">
        <ele>1975.41015625</ele>
        <time>2011-02-26T07:29:32Z</time>
      </trkpt>
      <trkpt lat="45.91832" lon="6.5025">
        <ele>1974.54296875</ele>
        <time>2011-02-26T07:29:41Z</time>
      </trkpt>
      <trkpt lat="45.91816" lon="6.50242">
        <ele>1970.6875</ele>
        <time>2011-02-26T07:29:53Z</time>
      </trkpt>
      <trkpt lat="45.91811" lon="6.50243">
        <ele>1971.76171875</ele>
        <time>2011-02-26T07:30:02Z</time>
      </trkpt>
      <trkpt lat="45.91803" lon="6.50242">
        <ele>1974.51953125</ele>
        <time>2011-02-26T07:30:14Z</time>
      </trkpt>
      <trkpt lat="45.91794" lon="6.50244">
        <ele>1978.62109375</ele>
        <time>2011-02-26T07:30:27Z</time>
      </trkpt>
      <trkpt lat="45.91786" lon="6.50244">
        <ele>1981.34375</ele>
        <time>2011-02-26T07:30:39Z</time>
      </trkpt>
      <trkpt lat="45.91778" lon="6.50242">
        <ele>1983.9609375</ele>
        <time>2011-02-26T07:30:52Z</time>
      </trkpt>
      <trkpt lat="45.91771" lon="6.50236">
        <ele>1984.49609375</ele>
        <time>2011-02-26T07:31:04Z</time>
      </trkpt>
      <trkpt lat="45.91766" lon="6.5023">
        <ele>1984.7890625</ele>
        <time>2011-02-26T07:31:15Z</time>
      </trkpt>
      <trkpt lat="45.9176" lon="6.50224">
        <ele>1985.4296875</ele>
        <time>2011-02-26T07:31:27Z</time>
      </trkpt>
      <trkpt lat="45.91751" lon="6.50218">
        <ele>1987.1796875</ele>
        <time>2011-02-26T07:31:39Z</time>
      </trkpt>
      <trkpt lat="45.91745" lon="6.50215">
        <ele>1989.06640625</ele>
        <time>2011-02-26T07:31:54Z</time>
      </trkpt>
      <trkpt lat="45.91741" lon="6.50213">
        <ele>1990.37890625</ele>
        <time>2011-02-26T07:32:12Z</time>
      </trkpt>
      <trkpt lat="45.91738" lon="6.50211">
        <ele>1991.25</ele>
        <time>2011-02-26T07:32:24Z</time>
      </trkpt>
      <trkpt lat="45.91732" lon="6.50209">
        <ele>1992.85546875</ele>
        <time>2011-02-26T07:32:42Z</time>
      </trkpt>
      <trkpt lat="45.91728" lon="6.50207">
        <ele>1994.23828125</ele>
        <time>2011-02-26T07:32:55Z</time>
      </trkpt>
      <trkpt lat="45.91728" lon="6.50207">
        <ele>1994.23828125</ele>
        <time>2011-02-26T07:33:07Z</time>
      </trkpt>
      <trkpt lat="45.9173" lon="6.50209">
        <ele>1994.09375</ele>
        <time>2011-02-26T07:33:08Z</time>
      </trkpt>
      <trkpt lat="45.91739" lon="6.50226">
        <ele>1995.8046875</ele>
        <time>2011-02-26T07:33:23Z</time>
      </trkpt>
      <trkpt lat="45.91743" lon="6.50236">
        <ele>1997.6640625</ele>
        <time>2011-02-26T07:33:32Z</time>
      </trkpt>
      <trkpt lat="45.91747" lon="6.5025">
        <ele>2001.20703125</ele>
        <time>2011-02-26T07:33:45Z</time>
      </trkpt>
      <trkpt lat="45.91748" lon="6.50259">
        <ele>2004.06640625</ele>
        <time>2011-02-26T07:33:56Z</time>
      </trkpt>
      <trkpt lat="45.91749" lon="6.50266">
        <ele>2005.859375</ele>
        <time>2011-02-26T07:34:08Z</time>
      </trkpt>
      <trkpt lat="45.91751" lon="6.50271">
        <ele>2007.1328125</ele>
        <time>2011-02-26T07:34:22Z</time>
      </trkpt>
      <trkpt lat="45.91751" lon="6.50278">
        <ele>2009.42578125</ele>
        <time>2011-02-26T07:34:36Z</time>
      </trkpt>
      <trkpt lat="45.91751" lon="6.50278">
        <ele>2009.4609375</ele>
        <time>2011-02-26T07:34:50Z</time>
      </trkpt>
      <trkpt lat="45.91751" lon="6.50278">
        <ele>2009.4609375</ele>
        <time>2011-02-26T07:35:02Z</time>
      </trkpt>
      <trkpt lat="45.91747" lon="6.50276">
        <ele>2010.50390625</ele>
        <time>2011-02-26T07:35:08Z</time>
      </trkpt>
      <trkpt lat="45.91734" lon="6.50265">
        <ele>2012.359375</ele>
        <time>2011-02-26T07:35:24Z</time>
      </trkpt>
      <trkpt lat="45.91725" lon="6.50257">
        <ele>2012.90234375</ele>
        <time>2011-02-26T07:35:35Z</time>
      </trkpt>
      <trkpt lat="45.91715" lon="6.5025">
        <ele>2015.0546875</ele>
        <time>2011-02-26T07:35:48Z</time>
      </trkpt>
      <trkpt lat="45.91704" lon="6.50245">
        <ele>2018.03515625</ele>
        <time>2011-02-26T07:36:02Z</time>
      </trkpt>
      <trkpt lat="45.91697" lon="6.5024">
        <ele>2019.65625</ele>
        <time>2011-02-26T07:36:13Z</time>
      </trkpt>
      <trkpt lat="45.91697" lon="6.5024">
        <ele>2019.6875</ele>
        <time>2011-02-26T07:36:24Z</time>
      </trkpt>
      <trkpt lat="45.91704" lon="6.50252">
        <ele>2020.51953125</ele>
        <time>2011-02-26T07:36:35Z</time>
      </trkpt>
      <trkpt lat="45.91705" lon="6.50257">
        <ele>2021.3359375</ele>
        <time>2011-02-26T07:36:46Z</time>
      </trkpt>
      <trkpt lat="45.91711" lon="6.50272">
        <ele>2024.02734375</ele>
        <time>2011-02-26T07:36:59Z</time>
      </trkpt>
      <trkpt lat="45.91717" lon="6.50285">
        <ele>2025.94921875</ele>
        <time>2011-02-26T07:37:11Z</time>
      </trkpt>
      <trkpt lat="45.9172" lon="6.50296">
        <ele>2028.3203125</ele>
        <time>2011-02-26T07:37:23Z</time>
      </trkpt>
      <trkpt lat="45.91725" lon="6.50307">
        <ele>2029.9921875</ele>
        <time>2011-02-26T07:37:36Z</time>
      </trkpt>
      <trkpt lat="45.91726" lon="6.50308">
        <ele>2030.09375</ele>
        <time>2011-02-26T07:37:47Z</time>
      </trkpt>
      <trkpt lat="45.91724" lon="6.50307">
        <ele>2030.54296875</ele>
        <time>2011-02-26T07:37:57Z</time>
      </trkpt>
      <trkpt lat="45.91716" lon="6.50302">
        <ele>2031.86328125</ele>
        <time>2011-02-26T07:38:10Z</time>
      </trkpt>
      <trkpt lat="45.91716" lon="6.50302">
        <ele>2031.86328125</ele>
        <time>2011-02-26T07:38:24Z</time>
      </trkpt>
      <trkpt lat="45.91721" lon="6.50314">
        <ele>2033.90625</ele>
        <time>2011-02-26T07:38:36Z</time>
      </trkpt>
      <trkpt lat="45.91726" lon="6.50323">
        <ele>2035.453125</ele>
        <time>2011-02-26T07:38:49Z</time>
      </trkpt>
      <trkpt lat="45.91728" lon="6.50332">
        <ele>2037.2109375</ele>
        <time>2011-02-26T07:39:01Z</time>
      </trkpt>
      <trkpt lat="45.9173" lon="6.50337">
        <ele>2038.13671875</ele>
        <time>2011-02-26T07:39:13Z</time>
      </trkpt>
      <trkpt lat="45.91722" lon="6.50334">
        <ele>2039.6875</ele>
        <time>2011-02-26T07:39:26Z</time>
      </trkpt>
      <trkpt lat="45.91714" lon="6.50329">
        <ele>2041.06640625</ele>
        <time>2011-02-26T07:39:37Z</time>
      </trkpt>
      <trkpt lat="45.91706" lon="6.5033">
        <ele>2043.67578125</ele>
        <time>2011-02-26T07:39:49Z</time>
      </trkpt>
      <trkpt lat="45.91699" lon="6.50331">
        <ele>2046.23046875</ele>
        <time>2011-02-26T07:40:02Z</time>
      </trkpt>
      <trkpt lat="45.91697" lon="6.50329">
        <ele>2046.23046875</ele>
        <time>2011-02-26T07:40:06Z</time>
      </trkpt>
      <trkpt lat="45.91687" lon="6.50325">
        <ele>2048.2265625</ele>
        <time>2011-02-26T07:40:19Z</time>
      </trkpt>
      <trkpt lat="45.91681" lon="6.5032">
        <ele>2048.703125</ele>
        <time>2011-02-26T07:40:30Z</time>
      </trkpt>
      <trkpt lat="45.91682" lon="6.50325">
        <ele>2049.68359375</ele>
        <time>2011-02-26T07:40:49Z</time>
      </trkpt>
      <trkpt lat="45.91682" lon="6.50337">
        <ele>2052.12890625</ele>
        <time>2011-02-26T07:41:00Z</time>
      </trkpt>
      <trkpt lat="45.91682" lon="6.50341">
        <ele>2052.921875</ele>
        <time>2011-02-26T07:41:04Z</time>
      </trkpt>
      <trkpt lat="45.91685" lon="6.50354">
        <ele>2054.69140625</ele>
        <time>2011-02-26T07:41:16Z</time>
      </trkpt>
      <trkpt lat="45.91688" lon="6.5036">
        <ele>2055.5703125</ele>
        <time>2011-02-26T07:41:23Z</time>
      </trkpt>
      <trkpt lat="45.91693" lon="6.50371">
        <ele>2057.08984375</ele>
        <time>2011-02-26T07:41:35Z</time>
      </trkpt>
      <trkpt lat="45.91699" lon="6.5038">
        <ele>2058.2109375</ele>
        <time>2011-02-26T07:41:46Z</time>
      </trkpt>
      <trkpt lat="45.91704" lon="6.5039">
        <ele>2059.6640625</ele>
        <time>2011-02-26T07:41:59Z</time>
      </trkpt>
      <trkpt lat="45.91711" lon="6.50399">
        <ele>2060.56640625</ele>
        <time>2011-02-26T07:42:12Z</time>
      </trkpt>
      <trkpt lat="45.91718" lon="6.50408">
        <ele>2061.34765625</ele>
        <time>2011-02-26T07:42:24Z</time>
      </trkpt>
      <trkpt lat="45.91725" lon="6.50416">
        <ele>2062.07421875</ele>
        <time>2011-02-26T07:42:36Z</time>
      </trkpt>
      <trkpt lat="45.91729" lon="6.50422">
        <ele>2063.31640625</ele>
        <time>2011-02-26T07:42:48Z</time>
      </trkpt>
      <trkpt lat="45.91734" lon="6.5043">
        <ele>2065.0546875</ele>
        <time>2011-02-26T07:42:59Z</time>
      </trkpt>
      <trkpt lat="45.9174" lon="6.50429">
        <ele>2063.6953125</ele>
        <time>2011-02-26T07:43:13Z</time>
      </trkpt>
      <trkpt lat="45.91745" lon="6.50432">
        <ele>2063.6484375</ele>
        <time>2011-02-26T07:43:25Z</time>
      </trkpt>
      <trkpt lat="45.91744" lon="6.50451">
        <ele>2070.16015625</ele>
        <time>2011-02-26T07:43:48Z</time>
      </trkpt>
      <trkpt lat="45.91744" lon="6.50455">
        <ele>2071.1328125</ele>
        <time>2011-02-26T07:43:59Z</time>
      </trkpt>
      <trkpt lat="45.91745" lon="6.50453">
        <ele>2070.62890625</ele>
        <time>2011-02-26T07:49:17Z</time>
      </trkpt>
      <trkpt lat="45.91747" lon="6.50485">
        <ele>2081.28125</ele>
        <time>2011-02-26T07:49:41Z</time>
      </trkpt>
      <trkpt lat="45.91751" lon="6.50494">
        <ele>2084.2265625</ele>
        <time>2011-02-26T07:49:53Z</time>
      </trkpt>
      <trkpt lat="45.91758" lon="6.50502">
        <ele>2087.484375</ele>
        <time>2011-02-26T07:50:10Z</time>
      </trkpt>
      <trkpt lat="45.91759" lon="6.50502">
        <ele>2087.54296875</ele>
        <time>2011-02-26T07:50:27Z</time>
      </trkpt>
      <trkpt lat="45.9176" lon="6.50503">
        <ele>2088.24609375</ele>
        <time>2011-02-26T07:50:44Z</time>
      </trkpt>
      <trkpt lat="45.91769" lon="6.50511">
        <ele>2092.5703125</ele>
        <time>2011-02-26T07:50:58Z</time>
      </trkpt>
      <trkpt lat="45.91776" lon="6.50515">
        <ele>2095.29296875</ele>
        <time>2011-02-26T07:51:12Z</time>
      </trkpt>
      <trkpt lat="45.91777" lon="6.50515">
        <ele>2095.27734375</ele>
        <time>2011-02-26T07:51:23Z</time>
      </trkpt>
      <trkpt lat="45.91773" lon="6.50526">
        <ele>2100.70703125</ele>
        <time>2011-02-26T07:51:33Z</time>
      </trkpt>
      <trkpt lat="45.91769" lon="6.50532">
        <ele>2103.7734375</ele>
        <time>2011-02-26T07:51:40Z</time>
      </trkpt>
      <trkpt lat="45.91762" lon="6.5054">
        <ele>2107.64453125</ele>
        <time>2011-02-26T07:51:55Z</time>
      </trkpt>
      <trkpt lat="45.91758" lon="6.50543">
        <ele>2109.0703125</ele>
        <time>2011-02-26T07:52:07Z</time>
      </trkpt>
      <trkpt lat="45.91753" lon="6.50547">
        <ele>2111.265625</ele>
        <time>2011-02-26T07:52:19Z</time>
      </trkpt>
      <trkpt lat="45.91748" lon="6.5055">
        <ele>2112.73046875</ele>
        <time>2011-02-26T07:52:33Z</time>
      </trkpt>
      <trkpt lat="45.91751" lon="6.50551">
        <ele>2113.0859375</ele>
        <time>2011-02-26T07:52:50Z</time>
      </trkpt>
      <trkpt lat="45.91754" lon="6.50555">
        <ele>2115.43359375</ele>
        <time>2011-02-26T07:53:02Z</time>
      </trkpt>
      <trkpt lat="45.9176" lon="6.50557">
        <ele>2116.77734375</ele>
        <time>2011-02-26T07:53:10Z</time>
      </trkpt>
      <trkpt lat="45.91764" lon="6.50558">
        <ele>2117.87109375</ele>
        <time>2011-02-26T07:53:22Z</time>
      </trkpt>
      <trkpt lat="45.91769" lon="6.50558">
        <ele>2118.6328125</ele>
        <time>2011-02-26T07:53:34Z</time>
      </trkpt>
      <trkpt lat="45.91771" lon="6.50557">
        <ele>2118.01171875</ele>
        <time>2011-02-26T07:53:41Z</time>
      </trkpt>
      <trkpt lat="45.91774" lon="6.50554">
        <ele>2117.125</ele>
        <time>2011-02-26T07:53:55Z</time>
      </trkpt>
      <trkpt lat="45.91773" lon="6.50557">
        <ele>2118.4296875</ele>
        <time>2011-02-26T07:54:43Z</time>
      </trkpt>
      <trkpt lat="45.91773" lon="6.50566">
        <ele>2123.1640625</ele>
        <time>2011-02-26T07:54:50Z</time>
      </trkpt>
      <trkpt lat="45.91771" lon="6.50577">
        <ele>2129.0234375</ele>
        <time>2011-02-26T07:55:02Z</time>
      </trkpt>
      <trkpt lat="45.91766" lon="6.50584">
        <ele>2132.10546875</ele>
        <time>2011-02-26T07:55:15Z</time>
      </trkpt>
      <trkpt lat="45.91761" lon="6.50587">
        <ele>2133.59765625</ele>
        <time>2011-02-26T07:55:28Z</time>
      </trkpt>
      <trkpt lat="45.91764" lon="6.50589">
        <ele>2134.48828125</ele>
        <time>2011-02-26T07:55:42Z</time>
      </trkpt>
      <trkpt lat="45.91767" lon="6.5059">
        <ele>2135.44921875</ele>
        <time>2011-02-26T07:55:46Z</time>
      </trkpt>
      <trkpt lat="45.91774" lon="6.50588">
        <ele>2135.12109375</ele>
        <time>2011-02-26T07:55:57Z</time>
      </trkpt>
      <trkpt lat="45.91776" lon="6.50587">
        <ele>2134.4296875</ele>
        <time>2011-02-26T07:55:59Z</time>
      </trkpt>
      <trkpt lat="45.91785" lon="6.50584">
        <ele>2134.0625</ele>
        <time>2011-02-26T07:56:12Z</time>
      </trkpt>
      <trkpt lat="45.91786" lon="6.50584">
        <ele>2134.2890625</ele>
        <time>2011-02-26T07:56:13Z</time>
      </trkpt>
      <trkpt lat="45.9179" lon="6.50583">
        <ele>2134.6171875</ele>
        <time>2011-02-26T07:56:27Z</time>
      </trkpt>
      <trkpt lat="45.9179" lon="6.50583">
        <ele>2134.6171875</ele>
        <time>2011-02-26T07:56:39Z</time>
      </trkpt>
      <trkpt lat="45.91785" lon="6.50594">
        <ele>2139.1484375</ele>
        <time>2011-02-26T07:56:52Z</time>
      </trkpt>
      <trkpt lat="45.91782" lon="6.50604">
        <ele>2143.76953125</ele>
        <time>2011-02-26T07:57:03Z</time>
      </trkpt>
      <trkpt lat="45.91776" lon="6.50611">
        <ele>2147.03125</ele>
        <time>2011-02-26T07:57:15Z</time>
      </trkpt>
      <trkpt lat="45.91772" lon="6.50615">
        <ele>2148.78125</ele>
        <time>2011-02-26T07:57:26Z</time>
      </trkpt>
      <trkpt lat="45.91776" lon="6.50614">
        <ele>2148.84765625</ele>
        <time>2011-02-26T07:57:40Z</time>
      </trkpt>
      <trkpt lat="45.91783" lon="6.50612">
        <ele>2148.09375</ele>
        <time>2011-02-26T07:57:50Z</time>
      </trkpt>
      <trkpt lat="45.91787" lon="6.50613">
        <ele>2149.2421875</ele>
        <time>2011-02-26T07:57:56Z</time>
      </trkpt>
      <trkpt lat="45.91789" lon="6.50611">
        <ele>2148.7265625</ele>
        <time>2011-02-26T07:58:00Z</time>
      </trkpt>
      <trkpt lat="45.91788" lon="6.50615">
        <ele>2150.6875</ele>
        <time>2011-02-26T07:58:08Z</time>
      </trkpt>
      <trkpt lat="45.91787" lon="6.50617">
        <ele>2151.94140625</ele>
        <time>2011-02-26T07:58:10Z</time>
      </trkpt>
      <trkpt lat="45.91782" lon="6.50626">
        <ele>2155.73046875</ele>
        <time>2011-02-26T07:58:21Z</time>
      </trkpt>
      <trkpt lat="45.91775" lon="6.50631">
        <ele>2157.4765625</ele>
        <time>2011-02-26T07:58:33Z</time>
      </trkpt>
      <trkpt lat="45.91769" lon="6.50634">
        <ele>2158.47265625</ele>
        <time>2011-02-26T07:58:44Z</time>
      </trkpt>
      <trkpt lat="45.91767" lon="6.50634">
        <ele>2158.37890625</ele>
        <time>2011-02-26T07:59:02Z</time>
      </trkpt>
      <trkpt lat="45.91767" lon="6.50634">
        <ele>2158.37890625</ele>
        <time>2011-02-26T07:59:16Z</time>
      </trkpt>
      <trkpt lat="45.91772" lon="6.50635">
        <ele>2159.51171875</ele>
        <time>2011-02-26T07:59:21Z</time>
      </trkpt>
      <trkpt lat="45.91779" lon="6.50635">
        <ele>2160.5078125</ele>
        <time>2011-02-26T07:59:32Z</time>
      </trkpt>
      <trkpt lat="45.91786" lon="6.50637">
        <ele>2162.15625</ele>
        <time>2011-02-26T07:59:44Z</time>
      </trkpt>
      <trkpt lat="45.91779" lon="6.50648">
        <ele>2167.109375</ele>
        <time>2011-02-26T07:59:58Z</time>
      </trkpt>
      <trkpt lat="45.91773" lon="6.50653">
        <ele>2169.3046875</ele>
        <time>2011-02-26T08:00:09Z</time>
      </trkpt>
      <trkpt lat="45.91768" lon="6.50655">
        <ele>2169.91796875</ele>
        <time>2011-02-26T08:00:19Z</time>
      </trkpt>
      <trkpt lat="45.91771" lon="6.50655">
        <ele>2170.078125</ele>
        <time>2011-02-26T08:00:34Z</time>
      </trkpt>
      <trkpt lat="45.91771" lon="6.50655">
        <ele>2170.078125</ele>
        <time>2011-02-26T08:00:36Z</time>
      </trkpt>
      <trkpt lat="45.91771" lon="6.50657">
        <ele>2171.18359375</ele>
        <time>2011-02-26T08:00:52Z</time>
      </trkpt>
      <trkpt lat="45.91766" lon="6.50662">
        <ele>2173.6484375</ele>
        <time>2011-02-26T08:01:04Z</time>
      </trkpt>
      <trkpt lat="45.91763" lon="6.50663">
        <ele>2173.7890625</ele>
        <time>2011-02-26T08:01:18Z</time>
      </trkpt>
      <trkpt lat="45.91766" lon="6.50666">
        <ele>2175.41015625</ele>
        <time>2011-02-26T08:01:28Z</time>
      </trkpt>
      <trkpt lat="45.91772" lon="6.5067">
        <ele>2178.73828125</ele>
        <time>2011-02-26T08:01:44Z</time>
      </trkpt>
      <trkpt lat="45.91772" lon="6.5067">
        <ele>2178.73828125</ele>
        <time>2011-02-26T08:01:57Z</time>
      </trkpt>
      <trkpt lat="45.91773" lon="6.5067">
        <ele>2178.8828125</ele>
        <time>2011-02-26T08:02:04Z</time>
      </trkpt>
      <trkpt lat="45.91779" lon="6.50667">
        <ele>2178.08203125</ele>
        <time>2011-02-26T08:02:20Z</time>
      </trkpt>
      <trkpt lat="45.91783" lon="6.50673">
        <ele>2181.421875</ele>
        <time>2011-02-26T08:02:40Z</time>
      </trkpt>
      <trkpt lat="45.91788" lon="6.50687">
        <ele>2190.296875</ele>
        <time>2011-02-26T08:02:50Z</time>
      </trkpt>
      <trkpt lat="45.91788" lon="6.50689">
        <ele>2191.56640625</ele>
        <time>2011-02-26T08:02:51Z</time>
      </trkpt>
      <trkpt lat="45.91783" lon="6.50694">
        <ele>2193.49609375</ele>
        <time>2011-02-26T08:03:03Z</time>
      </trkpt>
      <trkpt lat="45.91783" lon="6.50694">
        <ele>2193.49609375</ele>
        <time>2011-02-26T08:03:14Z</time>
      </trkpt>
      <trkpt lat="45.91787" lon="6.50697">
        <ele>2195.96484375</ele>
        <time>2011-02-26T08:03:23Z</time>
      </trkpt>
      <trkpt lat="45.91787" lon="6.50698">
        <ele>2196.59765625</ele>
        <time>2011-02-26T08:03:35Z</time>
      </trkpt>
      <trkpt lat="45.91783" lon="6.50705">
        <ele>2200.30859375</ele>
        <time>2011-02-26T08:03:48Z</time>
      </trkpt>
      <trkpt lat="45.91776" lon="6.50712">
        <ele>2203.4453125</ele>
        <time>2011-02-26T08:04:02Z</time>
      </trkpt>
      <trkpt lat="45.91771" lon="6.50713">
        <ele>2203.6015625</ele>
        <time>2011-02-26T08:04:14Z</time>
      </trkpt>
      <trkpt lat="45.91771" lon="6.50713">
        <ele>2203.5859375</ele>
        <time>2011-02-26T08:04:35Z</time>
      </trkpt>
      <trkpt lat="45.91772" lon="6.50718">
        <ele>2206.59765625</ele>
        <time>2011-02-26T08:04:49Z</time>
      </trkpt>
      <trkpt lat="45.91773" lon="6.50719">
        <ele>2207.5</ele>
        <time>2011-02-26T08:05:01Z</time>
      </trkpt>
      <trkpt lat="45.91775" lon="6.5072">
        <ele>2208.2265625</ele>
        <time>2011-02-26T08:05:13Z</time>
      </trkpt>
      <trkpt lat="45.91779" lon="6.50718">
        <ele>2207.0390625</ele>
        <time>2011-02-26T08:05:24Z</time>
      </trkpt>
      <trkpt lat="45.91782" lon="6.5072">
        <ele>2208.59375</ele>
        <time>2011-02-26T08:05:38Z</time>
      </trkpt>
      <trkpt lat="45.91783" lon="6.50728">
        <ele>2213.22265625</ele>
        <time>2011-02-26T08:05:45Z</time>
      </trkpt>
      <trkpt lat="45.91782" lon="6.50738">
        <ele>2219.15234375</ele>
        <time>2011-02-26T08:05:58Z</time>
      </trkpt>
      <trkpt lat="45.91776" lon="6.50744">
        <ele>2222.1875</ele>
        <time>2011-02-26T08:06:11Z</time>
      </trkpt>
      <trkpt lat="45.91773" lon="6.50744">
        <ele>2222.08203125</ele>
        <time>2011-02-26T08:06:25Z</time>
      </trkpt>
      <trkpt lat="45.91773" lon="6.50744">
        <ele>2222.08203125</ele>
        <time>2011-02-26T08:06:48Z</time>
      </trkpt>
      <trkpt lat="45.91776" lon="6.5075">
        <ele>2225.75390625</ele>
        <time>2011-02-26T08:07:01Z</time>
      </trkpt>
      <trkpt lat="45.9178" lon="6.50755">
        <ele>2228.47265625</ele>
        <time>2011-02-26T08:07:13Z</time>
      </trkpt>
      <trkpt lat="45.91782" lon="6.50755">
        <ele>2228.859375</ele>
        <time>2011-02-26T08:07:28Z</time>
      </trkpt>
      <trkpt lat="45.91782" lon="6.50755">
        <ele>2228.859375</ele>
        <time>2011-02-26T08:07:41Z</time>
      </trkpt>
      <trkpt lat="45.9178" lon="6.5076">
        <ele>2231.1484375</ele>
        <time>2011-02-26T08:07:54Z</time>
      </trkpt>
      <trkpt lat="45.91782" lon="6.50766">
        <ele>2234.80859375</ele>
        <time>2011-02-26T08:08:12Z</time>
      </trkpt>
      <trkpt lat="45.91782" lon="6.50769">
        <ele>2236.19921875</ele>
        <time>2011-02-26T08:08:14Z</time>
      </trkpt>
      <trkpt lat="45.91786" lon="6.50773">
        <ele>2238.578125</ele>
        <time>2011-02-26T08:08:25Z</time>
      </trkpt>
      <trkpt lat="45.91791" lon="6.50775">
        <ele>2240.81640625</ele>
        <time>2011-02-26T08:08:37Z</time>
      </trkpt>
      <trkpt lat="45.91793" lon="6.50776">
        <ele>2241.5859375</ele>
        <time>2011-02-26T08:08:53Z</time>
      </trkpt>
      <trkpt lat="45.9179" lon="6.50785">
        <ele>2245.7265625</ele>
        <time>2011-02-26T08:09:06Z</time>
      </trkpt>
      <trkpt lat="45.91785" lon="6.50792">
        <ele>2248.87109375</ele>
        <time>2011-02-26T08:09:19Z</time>
      </trkpt>
      <trkpt lat="45.91782" lon="6.50791">
        <ele>2248.55078125</ele>
        <time>2011-02-26T08:09:31Z</time>
      </trkpt>
      <trkpt lat="45.91782" lon="6.50791">
        <ele>2248.55078125</ele>
        <time>2011-02-26T08:09:47Z</time>
      </trkpt>
      <trkpt lat="45.91782" lon="6.50792">
        <ele>2249.04296875</ele>
        <time>2011-02-26T08:09:57Z</time>
      </trkpt>
      <trkpt lat="45.91782" lon="6.50792">
        <ele>2249.04296875</ele>
        <time>2011-02-26T08:10:13Z</time>
      </trkpt>
      <trkpt lat="45.91782" lon="6.50792">
        <ele>2249.04296875</ele>
        <time>2011-02-26T08:10:31Z</time>
      </trkpt>
      <trkpt lat="45.91782" lon="6.50792">
        <ele>2249.03515625</ele>
        <time>2011-02-26T08:10:36Z</time>
      </trkpt>
      <trkpt lat="45.9178" lon="6.50805">
        <ele>2256.1484375</ele>
        <time>2011-02-26T08:10:51Z</time>
      </trkpt>
      <trkpt lat="45.91777" lon="6.50806">
        <ele>2256.54296875</ele>
        <time>2011-02-26T08:11:03Z</time>
      </trkpt>
      <trkpt lat="45.91779" lon="6.50808">
        <ele>2257.79296875</ele>
        <time>2011-02-26T08:11:18Z</time>
      </trkpt>
      <trkpt lat="45.91787" lon="6.50813">
        <ele>2260.35546875</ele>
        <time>2011-02-26T08:11:30Z</time>
      </trkpt>
      <trkpt lat="45.91792" lon="6.50815">
        <ele>2262.09375</ele>
        <time>2011-02-26T08:11:42Z</time>
      </trkpt>
      <trkpt lat="45.91792" lon="6.50815">
        <ele>2262.09375</ele>
        <time>2011-02-26T08:12:04Z</time>
      </trkpt>
      <trkpt lat="45.91787" lon="6.50827">
        <ele>2267.92578125</ele>
        <time>2011-02-26T08:12:17Z</time>
      </trkpt>
      <trkpt lat="45.91781" lon="6.50829">
        <ele>2269.38671875</ele>
        <time>2011-02-26T08:12:28Z</time>
      </trkpt>
      <trkpt lat="45.91779" lon="6.5083">
        <ele>2270.19140625</ele>
        <time>2011-02-26T08:12:43Z</time>
      </trkpt>
      <trkpt lat="45.91778" lon="6.5083">
        <ele>2270.1953125</ele>
        <time>2011-02-26T08:13:00Z</time>
      </trkpt>
      <trkpt lat="45.91778" lon="6.5083">
        <ele>2270.2578125</ele>
        <time>2011-02-26T08:13:16Z</time>
      </trkpt>
      <trkpt lat="45.91778" lon="6.50831">
        <ele>2270.5234375</ele>
        <time>2011-02-26T08:13:32Z</time>
      </trkpt>
      <trkpt lat="45.91785" lon="6.50836">
        <ele>2272.890625</ele>
        <time>2011-02-26T08:13:44Z</time>
      </trkpt>
      <trkpt lat="45.91791" lon="6.50838">
        <ele>2274.203125</ele>
        <time>2011-02-26T08:13:52Z</time>
      </trkpt>
      <trkpt lat="45.91814" lon="6.5084">
        <ele>2275.484375</ele>
        <time>2011-02-26T08:14:11Z</time>
      </trkpt>
      <trkpt lat="45.91802" lon="6.50844">
        <ele>2277.29296875</ele>
        <time>2011-02-26T08:14:32Z</time>
      </trkpt>
      <trkpt lat="45.91793" lon="6.50852">
        <ele>2281.84765625</ele>
        <time>2011-02-26T08:14:43Z</time>
      </trkpt>
      <trkpt lat="45.91788" lon="6.50859">
        <ele>2285.76953125</ele>
        <time>2011-02-26T08:14:55Z</time>
      </trkpt>
      <trkpt lat="45.91787" lon="6.50862">
        <ele>2287.62109375</ele>
        <time>2011-02-26T08:15:09Z</time>
      </trkpt>
      <trkpt lat="45.91794" lon="6.50861">
        <ele>2286.55859375</ele>
        <time>2011-02-26T08:15:22Z</time>
      </trkpt>
      <trkpt lat="45.91796" lon="6.50861">
        <ele>2286.08984375</ele>
        <time>2011-02-26T08:15:25Z</time>
      </trkpt>
      <trkpt lat="45.91804" lon="6.50861">
        <ele>2285.0625</ele>
        <time>2011-02-26T08:15:36Z</time>
      </trkpt>
      <trkpt lat="45.91811" lon="6.50861">
        <ele>2284.7109375</ele>
        <time>2011-02-26T08:15:50Z</time>
      </trkpt>
      <trkpt lat="45.91811" lon="6.50862">
        <ele>2284.97265625</ele>
        <time>2011-02-26T08:16:08Z</time>
      </trkpt>
      <trkpt lat="45.91798" lon="6.50876">
        <ele>2293.70703125</ele>
        <time>2011-02-26T08:16:19Z</time>
      </trkpt>
      <trkpt lat="45.91801" lon="6.50877">
        <ele>2293.6171875</ele>
        <time>2011-02-26T08:16:29Z</time>
      </trkpt>
      <trkpt lat="45.91804" lon="6.50875">
        <ele>2291.97265625</ele>
        <time>2011-02-26T08:16:41Z</time>
      </trkpt>
      <trkpt lat="45.91814" lon="6.50875">
        <ele>2290.31640625</ele>
        <time>2011-02-26T08:16:55Z</time>
      </trkpt>
      <trkpt lat="45.91814" lon="6.5088">
        <ele>2292.5390625</ele>
        <time>2011-02-26T08:17:24Z</time>
      </trkpt>
      <trkpt lat="45.91817" lon="6.50879">
        <ele>2292.30078125</ele>
        <time>2011-02-26T08:17:51Z</time>
      </trkpt>
      <trkpt lat="45.9182" lon="6.50881">
        <ele>2293.04296875</ele>
        <time>2011-02-26T08:18:04Z</time>
      </trkpt>
      <trkpt lat="45.91817" lon="6.50889">
        <ele>2296.44140625</ele>
        <time>2011-02-26T08:18:20Z</time>
      </trkpt>
      <trkpt lat="45.91814" lon="6.50894">
        <ele>2298.796875</ele>
        <time>2011-02-26T08:18:31Z</time>
      </trkpt>
      <trkpt lat="45.91805" lon="6.50899">
        <ele>2303.2578125</ele>
        <time>2011-02-26T08:18:44Z</time>
      </trkpt>
      <trkpt lat="45.918" lon="6.50907">
        <ele>2308.29296875</ele>
        <time>2011-02-26T08:18:55Z</time>
      </trkpt>
      <trkpt lat="45.91794" lon="6.50912">
        <ele>2312.55859375</ele>
        <time>2011-02-26T08:19:07Z</time>
      </trkpt>
      <trkpt lat="45.91789" lon="6.50922">
        <ele>2319.05078125</ele>
        <time>2011-02-26T08:19:21Z</time>
      </trkpt>
      <trkpt lat="45.91792" lon="6.50922">
        <ele>2318.25</ele>
        <time>2011-02-26T08:19:51Z</time>
      </trkpt>
      <trkpt lat="45.91799" lon="6.50923">
        <ele>2316.625</ele>
        <time>2011-02-26T08:20:00Z</time>
      </trkpt>
      <trkpt lat="45.91802" lon="6.50924">
        <ele>2316.64453125</ele>
        <time>2011-02-26T08:20:16Z</time>
      </trkpt>
      <trkpt lat="45.91797" lon="6.50933">
        <ele>2322.43359375</ele>
        <time>2011-02-26T08:20:26Z</time>
      </trkpt>
      <trkpt lat="45.91794" lon="6.50938">
        <ele>2325.94921875</ele>
        <time>2011-02-26T08:20:36Z</time>
      </trkpt>
      <trkpt lat="45.91795" lon="6.50937">
        <ele>2325.14453125</ele>
        <time>2011-02-26T08:20:53Z</time>
      </trkpt>
      <trkpt lat="45.91804" lon="6.50936">
        <ele>2321.7109375</ele>
        <time>2011-02-26T08:21:05Z</time>
      </trkpt>
      <trkpt lat="45.91802" lon="6.50943">
        <ele>2325.63671875</ele>
        <time>2011-02-26T08:21:26Z</time>
      </trkpt>
      <trkpt lat="45.918" lon="6.50947">
        <ele>2328.34375</ele>
        <time>2011-02-26T08:21:45Z</time>
      </trkpt>
      <trkpt lat="45.918" lon="6.50948">
        <ele>2328.78515625</ele>
        <time>2011-02-26T08:22:00Z</time>
      </trkpt>
      <trkpt lat="45.91804" lon="6.50946">
        <ele>2326.4296875</ele>
        <time>2011-02-26T08:22:13Z</time>
      </trkpt>
      <trkpt lat="45.91803" lon="6.50956">
        <ele>2331.80078125</ele>
        <time>2011-02-26T08:25:16Z</time>
      </trkpt>
      <trkpt lat="45.91814" lon="6.50963">
        <ele>2330.9453125</ele>
        <time>2011-02-26T08:29:43Z</time>
      </trkpt>
      <trkpt lat="45.91828" lon="6.50953">
        <ele>2319.94140625</ele>
        <time>2011-02-26T08:30:11Z</time>
      </trkpt>
      <trkpt lat="45.9183" lon="6.50951">
        <ele>2317.5625</ele>
        <time>2011-02-26T08:30:35Z</time>
      </trkpt>
      <trkpt lat="45.9185" lon="6.50947">
        <ele>2304.4453125</ele>
        <time>2011-02-26T08:30:45Z</time>
      </trkpt>
      <trkpt lat="45.91854" lon="6.50942">
        <ele>2300.2578125</ele>
        <time>2011-02-26T08:30:59Z</time>
      </trkpt>
      <trkpt lat="45.91861" lon="6.50943">
        <ele>2295.6015625</ele>
        <time>2011-02-26T08:31:03Z</time>
      </trkpt>
      <trkpt lat="45.91863" lon="6.50941">
        <ele>2293.796875</ele>
        <time>2011-02-26T08:31:06Z</time>
      </trkpt>
      <trkpt lat="45.91867" lon="6.50941">
        <ele>2290.88671875</ele>
        <time>2011-02-26T08:31:09Z</time>
      </trkpt>
      <trkpt lat="45.91885" lon="6.50945">
        <ele>2274.54296875</ele>
        <time>2011-02-26T08:31:21Z</time>
      </trkpt>
      <trkpt lat="45.91888" lon="6.50932">
        <ele>2271.88671875</ele>
        <time>2011-02-26T08:31:34Z</time>
      </trkpt>
      <trkpt lat="45.91892" lon="6.50931">
        <ele>2268.78515625</ele>
        <time>2011-02-26T08:31:36Z</time>
      </trkpt>
      <trkpt lat="45.91902" lon="6.50929">
        <ele>2258.65625</ele>
        <time>2011-02-26T08:31:41Z</time>
      </trkpt>
      <trkpt lat="45.91907" lon="6.50928">
        <ele>2252.41015625</ele>
        <time>2011-02-26T08:32:40Z</time>
      </trkpt>
      <trkpt lat="45.91906" lon="6.50926">
        <ele>2253.328125</ele>
        <time>2011-02-26T08:32:42Z</time>
      </trkpt>
      <trkpt lat="45.91908" lon="6.50923">
        <ele>2251.83984375</ele>
        <time>2011-02-26T08:32:44Z</time>
      </trkpt>
      <trkpt lat="45.91924" lon="6.50923">
        <ele>2231.87890625</ele>
        <time>2011-02-26T08:32:57Z</time>
      </trkpt>
      <trkpt lat="45.91928" lon="6.50922">
        <ele>2226.43359375</ele>
        <time>2011-02-26T08:33:02Z</time>
      </trkpt>
      <trkpt lat="45.91934" lon="6.50917">
        <ele>2221.5</ele>
        <time>2011-02-26T08:33:08Z</time>
      </trkpt>
      <trkpt lat="45.91941" lon="6.50915">
        <ele>2213.0859375</ele>
        <time>2011-02-26T08:33:13Z</time>
      </trkpt>
      <trkpt lat="45.91948" lon="6.50906">
        <ele>2208.4609375</ele>
        <time>2011-02-26T08:33:18Z</time>
      </trkpt>
      <trkpt lat="45.91953" lon="6.50901">
        <ele>2204.4140625</ele>
        <time>2011-02-26T08:33:33Z</time>
      </trkpt>
      <trkpt lat="45.91961" lon="6.50889">
        <ele>2199.5546875</ele>
        <time>2011-02-26T08:33:46Z</time>
      </trkpt>
      <trkpt lat="45.91964" lon="6.50893">
        <ele>2193.84375</ele>
        <time>2011-02-26T08:34:01Z</time>
      </trkpt>
      <trkpt lat="45.91972" lon="6.50885">
        <ele>2185.84375</ele>
        <time>2011-02-26T08:34:15Z</time>
      </trkpt>
      <trkpt lat="45.91973" lon="6.50885">
        <ele>2185.0078125</ele>
        <time>2011-02-26T08:34:30Z</time>
      </trkpt>
      <trkpt lat="45.91973" lon="6.50885">
        <ele>2185.0078125</ele>
        <time>2011-02-26T08:34:53Z</time>
      </trkpt>
      <trkpt lat="45.91973" lon="6.50885">
        <ele>2185.12890625</ele>
        <time>2011-02-26T08:34:59Z</time>
      </trkpt>
      <trkpt lat="45.91975" lon="6.50883">
        <ele>2183.96484375</ele>
        <time>2011-02-26T08:35:21Z</time>
      </trkpt>
      <trkpt lat="45.91978" lon="6.5088">
        <ele>2180.6953125</ele>
        <time>2011-02-26T08:35:53Z</time>
      </trkpt>
      <trkpt lat="45.91978" lon="6.50876">
        <ele>2182.32421875</ele>
        <time>2011-02-26T08:36:03Z</time>
      </trkpt>
      <trkpt lat="45.91989" lon="6.50871">
        <ele>2172.6796875</ele>
        <time>2011-02-26T08:36:16Z</time>
      </trkpt>
      <trkpt lat="45.9199" lon="6.50876">
        <ele>2168.5078125</ele>
        <time>2011-02-26T08:36:21Z</time>
      </trkpt>
      <trkpt lat="45.91995" lon="6.5088">
        <ele>2160.328125</ele>
        <time>2011-02-26T08:36:45Z</time>
      </trkpt>
      <trkpt lat="45.91997" lon="6.5088">
        <ele>2158.2578125</ele>
        <time>2011-02-26T08:36:47Z</time>
      </trkpt>
      <trkpt lat="45.92" lon="6.50879">
        <ele>2156.171875</ele>
        <time>2011-02-26T08:36:49Z</time>
      </trkpt>
      <trkpt lat="45.92002" lon="6.50876">
        <ele>2155.19140625</ele>
        <time>2011-02-26T08:37:18Z</time>
      </trkpt>
      <trkpt lat="45.92004" lon="6.5087">
        <ele>2155.9453125</ele>
        <time>2011-02-26T08:37:53Z</time>
      </trkpt>
      <trkpt lat="45.92003" lon="6.50879">
        <ele>2151.82421875</ele>
        <time>2011-02-26T08:37:57Z</time>
      </trkpt>
      <trkpt lat="45.92001" lon="6.50914">
        <ele>2145.0390625</ele>
        <time>2011-02-26T08:38:05Z</time>
      </trkpt>
      <trkpt lat="45.91996" lon="6.50956">
        <ele>2141.203125</ele>
        <time>2011-02-26T08:38:18Z</time>
      </trkpt>
      <trkpt lat="45.91996" lon="6.50956">
        <ele>2141.203125</ele>
        <time>2011-02-26T08:38:46Z</time>
      </trkpt>
      <trkpt lat="45.91997" lon="6.50963">
        <ele>2139.484375</ele>
        <time>2011-02-26T08:39:03Z</time>
      </trkpt>
      <trkpt lat="45.91999" lon="6.50998">
        <ele>2137.01171875</ele>
        <time>2011-02-26T08:39:14Z</time>
      </trkpt>
      <trkpt lat="45.92011" lon="6.51023">
        <ele>2130.4375</ele>
        <time>2011-02-26T08:39:24Z</time>
      </trkpt>
      <trkpt lat="45.92018" lon="6.5103">
        <ele>2127.6171875</ele>
        <time>2011-02-26T08:39:46Z</time>
      </trkpt>
      <trkpt lat="45.9203" lon="6.51043">
        <ele>2123.015625</ele>
        <time>2011-02-26T08:39:58Z</time>
      </trkpt>
      <trkpt lat="45.92031" lon="6.51044">
        <ele>2122.63671875</ele>
        <time>2011-02-26T08:40:08Z</time>
      </trkpt>
      <trkpt lat="45.92037" lon="6.51044">
        <ele>2119.35546875</ele>
        <time>2011-02-26T08:40:25Z</time>
      </trkpt>
      <trkpt lat="45.92039" lon="6.51045">
        <ele>2118.65625</ele>
        <time>2011-02-26T08:40:27Z</time>
      </trkpt>
      <trkpt lat="45.92046" lon="6.51054">
        <ele>2117.81640625</ele>
        <time>2011-02-26T08:40:31Z</time>
      </trkpt>
      <trkpt lat="45.9207" lon="6.51077">
        <ele>2113.57421875</ele>
        <time>2011-02-26T08:40:42Z</time>
      </trkpt>
      <trkpt lat="45.92093" lon="6.51094">
        <ele>2109.08203125</ele>
        <time>2011-02-26T08:40:52Z</time>
      </trkpt>
      <trkpt lat="45.92108" lon="6.5112">
        <ele>2110.98828125</ele>
        <time>2011-02-26T08:41:04Z</time>
      </trkpt>
      <trkpt lat="45.92137" lon="6.51151">
        <ele>2110.5859375</ele>
        <time>2011-02-26T08:41:16Z</time>
      </trkpt>
      <trkpt lat="45.92136" lon="6.51163">
        <ele>2115.83984375</ele>
        <time>2011-02-26T08:41:26Z</time>
      </trkpt>
      <trkpt lat="45.92173" lon="6.51149">
        <ele>2097.46875</ele>
        <time>2011-02-26T08:41:40Z</time>
      </trkpt>
      <trkpt lat="45.92207" lon="6.51118">
        <ele>2079.375</ele>
        <time>2011-02-26T08:41:49Z</time>
      </trkpt>
      <trkpt lat="45.92235" lon="6.51099">
        <ele>2067.5703125</ele>
        <time>2011-02-26T08:41:58Z</time>
      </trkpt>
      <trkpt lat="45.92262" lon="6.51097">
        <ele>2062.59375</ele>
        <time>2011-02-26T08:42:08Z</time>
      </trkpt>
      <trkpt lat="45.92295" lon="6.51086">
        <ele>2051.30078125</ele>
        <time>2011-02-26T08:42:19Z</time>
      </trkpt>
      <trkpt lat="45.92284" lon="6.51076">
        <ele>2050.62109375</ele>
        <time>2011-02-26T08:43:05Z</time>
      </trkpt>
      <trkpt lat="45.92284" lon="6.51075">
        <ele>2050.0625</ele>
        <time>2011-02-26T08:43:09Z</time>
      </trkpt>
      <trkpt lat="45.92288" lon="6.51071">
        <ele>2047.484375</ele>
        <time>2011-02-26T08:43:14Z</time>
      </trkpt>
      <trkpt lat="45.92315" lon="6.51051">
        <ele>2032.125</ele>
        <time>2011-02-26T08:43:55Z</time>
      </trkpt>
      <trkpt lat="45.92346" lon="6.5104">
        <ele>2019.609375</ele>
        <time>2011-02-26T08:44:04Z</time>
      </trkpt>
      <trkpt lat="45.92352" lon="6.51043">
        <ele>2019.9609375</ele>
        <time>2011-02-26T08:44:07Z</time>
      </trkpt>
      <trkpt lat="45.9239" lon="6.51041">
        <ele>2014.8359375</ele>
        <time>2011-02-26T08:44:18Z</time>
      </trkpt>
      <trkpt lat="45.92407" lon="6.51028">
        <ele>2008.734375</ele>
        <time>2011-02-26T08:46:00Z</time>
      </trkpt>
      <trkpt lat="45.92403" lon="6.51044">
        <ele>2016.6328125</ele>
        <time>2011-02-26T08:51:03Z</time>
      </trkpt>
      <trkpt lat="45.92404" lon="6.51049">
        <ele>2019.16015625</ele>
        <time>2011-02-26T08:51:18Z</time>
      </trkpt>
      <trkpt lat="45.9241" lon="6.51056">
        <ele>2023.0078125</ele>
        <time>2011-02-26T08:51:32Z</time>
      </trkpt>
      <trkpt lat="45.92419" lon="6.51075">
        <ele>2033.22265625</ele>
        <time>2011-02-26T08:51:42Z</time>
      </trkpt>
      <trkpt lat="45.92427" lon="6.51083">
        <ele>2039.265625</ele>
        <time>2011-02-26T08:51:53Z</time>
      </trkpt>
      <trkpt lat="45.92433" lon="6.51085">
        <ele>2043.6796875</ele>
        <time>2011-02-26T08:52:05Z</time>
      </trkpt>
      <trkpt lat="45.92438" lon="6.51085">
        <ele>2046.70703125</ele>
        <time>2011-02-26T08:52:19Z</time>
      </trkpt>
      <trkpt lat="45.92438" lon="6.51085">
        <ele>2046.70703125</ele>
        <time>2011-02-26T08:52:33Z</time>
      </trkpt>
      <trkpt lat="45.92432" lon="6.51092">
        <ele>2046.68359375</ele>
        <time>2011-02-26T08:52:45Z</time>
      </trkpt>
      <trkpt lat="45.92421" lon="6.51112">
        <ele>2053.578125</ele>
        <time>2011-02-26T08:52:59Z</time>
      </trkpt>
      <trkpt lat="45.92421" lon="6.51113">
        <ele>2054.453125</ele>
        <time>2011-02-26T08:53:00Z</time>
      </trkpt>
      <trkpt lat="45.92419" lon="6.5112">
        <ele>2059.3125</ele>
        <time>2011-02-26T08:53:12Z</time>
      </trkpt>
      <trkpt lat="45.92411" lon="6.51124">
        <ele>2061.703125</ele>
        <time>2011-02-26T08:53:24Z</time>
      </trkpt>
      <trkpt lat="45.92419" lon="6.51129">
        <ele>2065.74609375</ele>
        <time>2011-02-26T08:53:50Z</time>
      </trkpt>
      <trkpt lat="45.92423" lon="6.51131">
        <ele>2066.78515625</ele>
        <time>2011-02-26T08:53:53Z</time>
      </trkpt>
      <trkpt lat="45.92426" lon="6.5113">
        <ele>2067.0859375</ele>
        <time>2011-02-26T08:53:57Z</time>
      </trkpt>
      <trkpt lat="45.92436" lon="6.51128">
        <ele>2068.36328125</ele>
        <time>2011-02-26T08:54:10Z</time>
      </trkpt>
      <trkpt lat="45.9244" lon="6.51123">
        <ele>2067.1015625</ele>
        <time>2011-02-26T08:54:24Z</time>
      </trkpt>
      <trkpt lat="45.92429" lon="6.51134">
        <ele>2070.7734375</ele>
        <time>2011-02-26T08:55:12Z</time>
      </trkpt>
      <trkpt lat="45.92427" lon="6.51138">
        <ele>2073.53125</ele>
        <time>2011-02-26T08:55:15Z</time>
      </trkpt>
      <trkpt lat="45.92425" lon="6.51143">
        <ele>2076.875</ele>
        <time>2011-02-26T08:55:19Z</time>
      </trkpt>
      <trkpt lat="45.92422" lon="6.51147">
        <ele>2079.92578125</ele>
        <time>2011-02-26T08:55:23Z</time>
      </trkpt>
      <trkpt lat="45.92418" lon="6.51151">
        <ele>2083.3828125</ele>
        <time>2011-02-26T08:55:40Z</time>
      </trkpt>
      <trkpt lat="45.92421" lon="6.51151">
        <ele>2083.49609375</ele>
        <time>2011-02-26T08:55:44Z</time>
      </trkpt>
      <trkpt lat="45.92423" lon="6.51151">
        <ele>2083.59375</ele>
        <time>2011-02-26T08:55:57Z</time>
      </trkpt>
      <trkpt lat="45.92427" lon="6.51154">
        <ele>2086.37890625</ele>
        <time>2011-02-26T08:56:10Z</time>
      </trkpt>
      <trkpt lat="45.92432" lon="6.51154">
        <ele>2086.7265625</ele>
        <time>2011-02-26T08:56:21Z</time>
      </trkpt>
      <trkpt lat="45.92435" lon="6.51153">
        <ele>2086.25390625</ele>
        <time>2011-02-26T08:56:36Z</time>
      </trkpt>
      <trkpt lat="45.92436" lon="6.51153">
        <ele>2086.484375</ele>
        <time>2011-02-26T08:56:51Z</time>
      </trkpt>
      <trkpt lat="45.92435" lon="6.51157">
        <ele>2089.375</ele>
        <time>2011-02-26T08:57:04Z</time>
      </trkpt>
      <trkpt lat="45.92437" lon="6.51157">
        <ele>2089.390625</ele>
        <time>2011-02-26T08:57:22Z</time>
      </trkpt>
      <trkpt lat="45.92449" lon="6.51156">
        <ele>2090.05859375</ele>
        <time>2011-02-26T08:57:34Z</time>
      </trkpt>
      <trkpt lat="45.92449" lon="6.51156">
        <ele>2090.05859375</ele>
        <time>2011-02-26T08:57:51Z</time>
      </trkpt>
      <trkpt lat="45.92449" lon="6.51156">
        <ele>2090.05859375</ele>
        <time>2011-02-26T08:57:54Z</time>
      </trkpt>
      <trkpt lat="45.92447" lon="6.51159">
        <ele>2092.109375</ele>
        <time>2011-02-26T08:57:59Z</time>
      </trkpt>
      <trkpt lat="45.92445" lon="6.51164">
        <ele>2095.734375</ele>
        <time>2011-02-26T08:58:17Z</time>
      </trkpt>
      <trkpt lat="45.92449" lon="6.51165">
        <ele>2096.1171875</ele>
        <time>2011-02-26T08:58:32Z</time>
      </trkpt>
      <trkpt lat="45.9245" lon="6.51165">
        <ele>2096.00390625</ele>
        <time>2011-02-26T08:58:36Z</time>
      </trkpt>
      <trkpt lat="45.92453" lon="6.51164">
        <ele>2096.296875</ele>
        <time>2011-02-26T08:58:39Z</time>
      </trkpt>
      <trkpt lat="45.92454" lon="6.51166">
        <ele>2097.7890625</ele>
        <time>2011-02-26T08:58:55Z</time>
      </trkpt>
      <trkpt lat="45.92453" lon="6.51168">
        <ele>2098.515625</ele>
        <time>2011-02-26T08:58:56Z</time>
      </trkpt>
      <trkpt lat="45.9245" lon="6.5117">
        <ele>2100.03515625</ele>
        <time>2011-02-26T08:58:59Z</time>
      </trkpt>
      <trkpt lat="45.92445" lon="6.51175">
        <ele>2104.1171875</ele>
        <time>2011-02-26T08:59:12Z</time>
      </trkpt>
      <trkpt lat="45.92446" lon="6.51176">
        <ele>2104.328125</ele>
        <time>2011-02-26T08:59:26Z</time>
      </trkpt>
      <trkpt lat="45.92452" lon="6.51175">
        <ele>2104.12109375</ele>
        <time>2011-02-26T08:59:32Z</time>
      </trkpt>
      <trkpt lat="45.92456" lon="6.51175">
        <ele>2104.8515625</ele>
        <time>2011-02-26T08:59:46Z</time>
      </trkpt>
      <trkpt lat="45.92458" lon="6.51173">
        <ele>2104.390625</ele>
        <time>2011-02-26T08:59:48Z</time>
      </trkpt>
      <trkpt lat="45.92459" lon="6.51172">
        <ele>2104.2109375</ele>
        <time>2011-02-26T09:00:00Z</time>
      </trkpt>
      <trkpt lat="45.9245" lon="6.51184">
        <ele>2110.57421875</ele>
        <time>2011-02-26T09:00:15Z</time>
      </trkpt>
      <trkpt lat="45.92448" lon="6.51185">
        <ele>2111.08984375</ele>
        <time>2011-02-26T09:00:29Z</time>
      </trkpt>
      <trkpt lat="45.92448" lon="6.51185">
        <ele>2111.08984375</ele>
        <time>2011-02-26T09:00:45Z</time>
      </trkpt>
      <trkpt lat="45.92449" lon="6.51185">
        <ele>2111.28125</ele>
        <time>2011-02-26T09:00:48Z</time>
      </trkpt>
      <trkpt lat="45.92452" lon="6.51186">
        <ele>2111.61328125</ele>
        <time>2011-02-26T09:01:01Z</time>
      </trkpt>
      <trkpt lat="45.92452" lon="6.51186">
        <ele>2111.61328125</ele>
        <time>2011-02-26T09:01:03Z</time>
      </trkpt>
      <trkpt lat="45.92458" lon="6.51183">
        <ele>2110.76171875</ele>
        <time>2011-02-26T09:01:18Z</time>
      </trkpt>
      <trkpt lat="45.92458" lon="6.51183">
        <ele>2110.6953125</ele>
        <time>2011-02-26T09:01:36Z</time>
      </trkpt>
      <trkpt lat="45.92458" lon="6.51185">
        <ele>2112.37109375</ele>
        <time>2011-02-26T09:01:51Z</time>
      </trkpt>
      <trkpt lat="45.92456" lon="6.51188">
        <ele>2114.15234375</ele>
        <time>2011-02-26T09:01:56Z</time>
      </trkpt>
      <trkpt lat="45.92454" lon="6.51195">
        <ele>2118.9921875</ele>
        <time>2011-02-26T09:02:14Z</time>
      </trkpt>
      <trkpt lat="45.92458" lon="6.51197">
        <ele>2120.3828125</ele>
        <time>2011-02-26T09:02:29Z</time>
      </trkpt>
      <trkpt lat="45.92463" lon="6.51197">
        <ele>2121.16796875</ele>
        <time>2011-02-26T09:02:47Z</time>
      </trkpt>
      <trkpt lat="45.92463" lon="6.51197">
        <ele>2121.16796875</ele>
        <time>2011-02-26T09:03:05Z</time>
      </trkpt>
      <trkpt lat="45.92458" lon="6.51206">
        <ele>2126.8125</ele>
        <time>2011-02-26T09:03:25Z</time>
      </trkpt>
      <trkpt lat="45.92458" lon="6.51206">
        <ele>2126.8125</ele>
        <time>2011-02-26T09:03:42Z</time>
      </trkpt>
      <trkpt lat="45.92458" lon="6.51207">
        <ele>2127.99609375</ele>
        <time>2011-02-26T09:03:58Z</time>
      </trkpt>
      <trkpt lat="45.92459" lon="6.51209">
        <ele>2129.26953125</ele>
        <time>2011-02-26T09:04:08Z</time>
      </trkpt>
      <trkpt lat="45.92466" lon="6.51209">
        <ele>2129.48828125</ele>
        <time>2011-02-26T09:04:22Z</time>
      </trkpt>
      <trkpt lat="45.92465" lon="6.5121">
        <ele>2130.43359375</ele>
        <time>2011-02-26T09:04:39Z</time>
      </trkpt>
      <trkpt lat="45.92464" lon="6.51212">
        <ele>2131.38671875</ele>
        <time>2011-02-26T09:04:44Z</time>
      </trkpt>
      <trkpt lat="45.92459" lon="6.51217">
        <ele>2134.72265625</ele>
        <time>2011-02-26T09:05:00Z</time>
      </trkpt>
      <trkpt lat="45.92459" lon="6.51217">
        <ele>2134.72265625</ele>
        <time>2011-02-26T09:05:15Z</time>
      </trkpt>
      <trkpt lat="45.92461" lon="6.51218">
        <ele>2135.14453125</ele>
        <time>2011-02-26T09:05:31Z</time>
      </trkpt>
      <trkpt lat="45.92461" lon="6.51223">
        <ele>2138.375</ele>
        <time>2011-02-26T09:05:46Z</time>
      </trkpt>
      <trkpt lat="45.92455" lon="6.51227">
        <ele>2141.375</ele>
        <time>2011-02-26T09:06:00Z</time>
      </trkpt>
      <trkpt lat="45.92455" lon="6.51227">
        <ele>2141.375</ele>
        <time>2011-02-26T09:06:18Z</time>
      </trkpt>
      <trkpt lat="45.92455" lon="6.51227">
        <ele>2141.375</ele>
        <time>2011-02-26T09:06:23Z</time>
      </trkpt>
      <trkpt lat="45.92458" lon="6.51226">
        <ele>2140.61328125</ele>
        <time>2011-02-26T09:06:37Z</time>
      </trkpt>
      <trkpt lat="45.92459" lon="6.51229">
        <ele>2142.359375</ele>
        <time>2011-02-26T09:06:49Z</time>
      </trkpt>
      <trkpt lat="45.92459" lon="6.51233">
        <ele>2144.75390625</ele>
        <time>2011-02-26T09:07:04Z</time>
      </trkpt>
      <trkpt lat="45.92459" lon="6.51233">
        <ele>2144.75390625</ele>
        <time>2011-02-26T09:07:21Z</time>
      </trkpt>
      <trkpt lat="45.92459" lon="6.51233">
        <ele>2144.75390625</ele>
        <time>2011-02-26T09:07:35Z</time>
      </trkpt>
      <trkpt lat="45.92464" lon="6.51234">
        <ele>2145.12890625</ele>
        <time>2011-02-26T09:07:40Z</time>
      </trkpt>
      <trkpt lat="45.92467" lon="6.51233">
        <ele>2144.58203125</ele>
        <time>2011-02-26T09:07:42Z</time>
      </trkpt>
      <trkpt lat="45.92471" lon="6.51233">
        <ele>2144.1953125</ele>
        <time>2011-02-26T09:08:01Z</time>
      </trkpt>
      <trkpt lat="45.9247" lon="6.51234">
        <ele>2144.8046875</ele>
        <time>2011-02-26T09:08:14Z</time>
      </trkpt>
      <trkpt lat="45.92464" lon="6.51243">
        <ele>2150.71875</ele>
        <time>2011-02-26T09:08:34Z</time>
      </trkpt>
      <trkpt lat="45.92469" lon="6.51241">
        <ele>2149.23046875</ele>
        <time>2011-02-26T09:08:49Z</time>
      </trkpt>
      <trkpt lat="45.92467" lon="6.51243">
        <ele>2150.07421875</ele>
        <time>2011-02-26T09:09:07Z</time>
      </trkpt>
      <trkpt lat="45.92466" lon="6.51244">
        <ele>2150.87890625</ele>
        <time>2011-02-26T09:09:24Z</time>
      </trkpt>
      <trkpt lat="45.92468" lon="6.51244">
        <ele>2151.15625</ele>
        <time>2011-02-26T09:09:39Z</time>
      </trkpt>
      <trkpt lat="45.92466" lon="6.51251">
        <ele>2155.390625</ele>
        <time>2011-02-26T09:09:53Z</time>
      </trkpt>
      <trkpt lat="45.92465" lon="6.51254">
        <ele>2157.65234375</ele>
        <time>2011-02-26T09:10:05Z</time>
      </trkpt>
      <trkpt lat="45.92465" lon="6.51254">
        <ele>2157.65234375</ele>
        <time>2011-02-26T09:10:20Z</time>
      </trkpt>
      <trkpt lat="45.92465" lon="6.51254">
        <ele>2157.65234375</ele>
        <time>2011-02-26T09:10:21Z</time>
      </trkpt>
      <trkpt lat="45.92468" lon="6.51255">
        <ele>2157.71875</ele>
        <time>2011-02-26T09:10:24Z</time>
      </trkpt>
      <trkpt lat="45.92474" lon="6.51254">
        <ele>2156.04296875</ele>
        <time>2011-02-26T09:10:41Z</time>
      </trkpt>
      <trkpt lat="45.92473" lon="6.51255">
        <ele>2156.87890625</ele>
        <time>2011-02-26T09:10:48Z</time>
      </trkpt>
      <trkpt lat="45.92468" lon="6.51261">
        <ele>2161.54296875</ele>
        <time>2011-02-26T09:11:02Z</time>
      </trkpt>
      <trkpt lat="45.92469" lon="6.51262">
        <ele>2162.1015625</ele>
        <time>2011-02-26T09:11:22Z</time>
      </trkpt>
      <trkpt lat="45.92479" lon="6.5126">
        <ele>2158.453125</ele>
        <time>2011-02-26T09:11:35Z</time>
      </trkpt>
      <trkpt lat="45.92478" lon="6.51262">
        <ele>2159.921875</ele>
        <time>2011-02-26T09:11:53Z</time>
      </trkpt>
      <trkpt lat="45.92471" lon="6.51269">
        <ele>2165.8046875</ele>
        <time>2011-02-26T09:12:06Z</time>
      </trkpt>
      <trkpt lat="45.92471" lon="6.51269">
        <ele>2165.8046875</ele>
        <time>2011-02-26T09:12:21Z</time>
      </trkpt>
      <trkpt lat="45.92477" lon="6.51269">
        <ele>2164.0703125</ele>
        <time>2011-02-26T09:12:27Z</time>
      </trkpt>
      <trkpt lat="45.92482" lon="6.51268">
        <ele>2162.17578125</ele>
        <time>2011-02-26T09:12:44Z</time>
      </trkpt>
      <trkpt lat="45.9248" lon="6.5127">
        <ele>2163.6796875</ele>
        <time>2011-02-26T09:12:51Z</time>
      </trkpt>
      <trkpt lat="45.92476" lon="6.51273">
        <ele>2166.97265625</ele>
        <time>2011-02-26T09:13:04Z</time>
      </trkpt>
      <trkpt lat="45.92478" lon="6.51273">
        <ele>2166.40625</ele>
        <time>2011-02-26T09:13:18Z</time>
      </trkpt>
      <trkpt lat="45.92487" lon="6.5127">
        <ele>2161.20703125</ele>
        <time>2011-02-26T09:13:31Z</time>
      </trkpt>
      <trkpt lat="45.92487" lon="6.5127">
        <ele>2161.20703125</ele>
        <time>2011-02-26T09:13:42Z</time>
      </trkpt>
      <trkpt lat="45.92483" lon="6.51276">
        <ele>2166.4296875</ele>
        <time>2011-02-26T09:13:47Z</time>
      </trkpt>
      <trkpt lat="45.92479" lon="6.51281">
        <ele>2170.765625</ele>
        <time>2011-02-26T09:14:02Z</time>
      </trkpt>
      <trkpt lat="45.92486" lon="6.51281">
        <ele>2167.81640625</ele>
        <time>2011-02-26T09:14:14Z</time>
      </trkpt>
      <trkpt lat="45.92489" lon="6.51281">
        <ele>2166.39453125</ele>
        <time>2011-02-26T09:22:51Z</time>
      </trkpt>
      <trkpt lat="45.92493" lon="6.51285">
        <ele>2167.296875</ele>
        <time>2011-02-26T09:25:21Z</time>
      </trkpt>
      <trkpt lat="45.92497" lon="6.51288">
        <ele>2167.21875</ele>
        <time>2011-02-26T09:25:35Z</time>
      </trkpt>
      <trkpt lat="45.92501" lon="6.5129">
        <ele>2166.23828125</ele>
        <time>2011-02-26T09:25:52Z</time>
      </trkpt>
      <trkpt lat="45.92504" lon="6.51288">
        <ele>2164.27734375</ele>
        <time>2011-02-26T09:25:54Z</time>
      </trkpt>
      <trkpt lat="45.92547" lon="6.51256">
        <ele>2135.45703125</ele>
        <time>2011-02-26T09:26:03Z</time>
      </trkpt>
      <trkpt lat="45.92561" lon="6.51249">
        <ele>2131.98828125</ele>
        <time>2011-02-26T09:26:05Z</time>
      </trkpt>
      <trkpt lat="45.92584" lon="6.51238">
        <ele>2117.5390625</ele>
        <time>2011-02-26T09:26:13Z</time>
      </trkpt>
      <trkpt lat="45.92585" lon="6.51238">
        <ele>2116.484375</ele>
        <time>2011-02-26T09:26:14Z</time>
      </trkpt>
      <trkpt lat="45.92596" lon="6.51236">
        <ele>2106.7109375</ele>
        <time>2011-02-26T09:26:22Z</time>
      </trkpt>
      <trkpt lat="45.92611" lon="6.51233">
        <ele>2095</ele>
        <time>2011-02-26T09:26:41Z</time>
      </trkpt>
      <trkpt lat="45.92613" lon="6.51231">
        <ele>2094.484375</ele>
        <time>2011-02-26T09:26:45Z</time>
      </trkpt>
      <trkpt lat="45.92607" lon="6.5126">
        <ele>2085.7421875</ele>
        <time>2011-02-26T09:26:57Z</time>
      </trkpt>
      <trkpt lat="45.92618" lon="6.51244">
        <ele>2081.75</ele>
        <time>2011-02-26T09:29:01Z</time>
      </trkpt>
      <trkpt lat="45.92625" lon="6.51238">
        <ele>2078.68359375</ele>
        <time>2011-02-26T09:29:12Z</time>
      </trkpt>
      <trkpt lat="45.92624" lon="6.51239">
        <ele>2078.64453125</ele>
        <time>2011-02-26T09:29:17Z</time>
      </trkpt>
      <trkpt lat="45.92628" lon="6.51254">
        <ele>2068.73046875</ele>
        <time>2011-02-26T09:29:27Z</time>
      </trkpt>
      <trkpt lat="45.92629" lon="6.51257">
        <ele>2066.86328125</ele>
        <time>2011-02-26T09:29:28Z</time>
      </trkpt>
      <trkpt lat="45.92633" lon="6.51262">
        <ele>2061.10546875</ele>
        <time>2011-02-26T09:29:39Z</time>
      </trkpt>
      <trkpt lat="45.92635" lon="6.51268">
        <ele>2057.140625</ele>
        <time>2011-02-26T09:29:42Z</time>
      </trkpt>
      <trkpt lat="45.92636" lon="6.51271">
        <ele>2055.3671875</ele>
        <time>2011-02-26T09:29:47Z</time>
      </trkpt>
      <trkpt lat="45.92648" lon="6.51508">
        <ele>2009.80859375</ele>
        <time>2011-02-26T09:31:17Z</time>
      </trkpt>
      <trkpt lat="45.92642" lon="6.51512">
        <ele>2014.2734375</ele>
        <time>2011-02-26T09:31:42Z</time>
      </trkpt>
      <trkpt lat="45.9264" lon="6.51509">
        <ele>2015.63671875</ele>
        <time>2011-02-26T09:32:06Z</time>
      </trkpt>
      <trkpt lat="45.92637" lon="6.5155">
        <ele>2025.171875</ele>
        <time>2011-02-26T09:32:19Z</time>
      </trkpt>
      <trkpt lat="45.92669" lon="6.51607">
        <ele>2024.8671875</ele>
        <time>2011-02-26T09:33:18Z</time>
      </trkpt>
      <trkpt lat="45.92624" lon="6.51562">
        <ele>2037.13671875</ele>
        <time>2011-02-26T09:48:33Z</time>
      </trkpt>
      <trkpt lat="45.92618" lon="6.51555">
        <ele>2038.1875</ele>
        <time>2011-02-26T09:48:45Z</time>
      </trkpt>
      <trkpt lat="45.92607" lon="6.51548">
        <ele>2043.0546875</ele>
        <time>2011-02-26T09:48:59Z</time>
      </trkpt>
      <trkpt lat="45.92602" lon="6.51542">
        <ele>2045.76953125</ele>
        <time>2011-02-26T09:49:11Z</time>
      </trkpt>
      <trkpt lat="45.92598" lon="6.51539">
        <ele>2048.359375</ele>
        <time>2011-02-26T09:49:23Z</time>
      </trkpt>
      <trkpt lat="45.92596" lon="6.51546">
        <ele>2049.609375</ele>
        <time>2011-02-26T09:49:38Z</time>
      </trkpt>
      <trkpt lat="45.92596" lon="6.51555">
        <ele>2051.3125</ele>
        <time>2011-02-26T09:49:52Z</time>
      </trkpt>
      <trkpt lat="45.92587" lon="6.51548">
        <ele>2055.59765625</ele>
        <time>2011-02-26T09:50:04Z</time>
      </trkpt>
      <trkpt lat="45.92582" lon="6.5154">
        <ele>2058.8125</ele>
        <time>2011-02-26T09:50:17Z</time>
      </trkpt>
      <trkpt lat="45.9258" lon="6.51533">
        <ele>2060.94921875</ele>
        <time>2011-02-26T09:50:30Z</time>
      </trkpt>
      <trkpt lat="45.9258" lon="6.51533">
        <ele>2060.94921875</ele>
        <time>2011-02-26T09:50:50Z</time>
      </trkpt>
      <trkpt lat="45.9258" lon="6.51533">
        <ele>2060.94921875</ele>
        <time>2011-02-26T09:50:59Z</time>
      </trkpt>
      <trkpt lat="45.92572" lon="6.51539">
        <ele>2066.18359375</ele>
        <time>2011-02-26T09:51:12Z</time>
      </trkpt>
      <trkpt lat="45.92571" lon="6.51542">
        <ele>2066.7578125</ele>
        <time>2011-02-26T09:51:17Z</time>
      </trkpt>
      <trkpt lat="45.9257" lon="6.51551">
        <ele>2067.41015625</ele>
        <time>2011-02-26T09:51:34Z</time>
      </trkpt>
      <trkpt lat="45.92569" lon="6.51551">
        <ele>2068.09375</ele>
        <time>2011-02-26T09:51:46Z</time>
      </trkpt>
      <trkpt lat="45.92563" lon="6.51537">
        <ele>2072.703125</ele>
        <time>2011-02-26T09:52:04Z</time>
      </trkpt>
      <trkpt lat="45.92563" lon="6.51537">
        <ele>2072.703125</ele>
        <time>2011-02-26T09:52:09Z</time>
      </trkpt>
      <trkpt lat="45.92562" lon="6.51542">
        <ele>2072.328125</ele>
        <time>2011-02-26T09:52:17Z</time>
      </trkpt>
      <trkpt lat="45.92562" lon="6.51552">
        <ele>2072.85546875</ele>
        <time>2011-02-26T09:52:30Z</time>
      </trkpt>
      <trkpt lat="45.92563" lon="6.51555">
        <ele>2072.73828125</ele>
        <time>2011-02-26T09:52:35Z</time>
      </trkpt>
      <trkpt lat="45.92569" lon="6.5157">
        <ele>2072.2734375</ele>
        <time>2011-02-26T09:52:49Z</time>
      </trkpt>
      <trkpt lat="45.92571" lon="6.51581">
        <ele>2073.80859375</ele>
        <time>2011-02-26T09:53:02Z</time>
      </trkpt>
      <trkpt lat="45.92574" lon="6.5159">
        <ele>2074.609375</ele>
        <time>2011-02-26T09:53:16Z</time>
      </trkpt>
      <trkpt lat="45.92574" lon="6.51598">
        <ele>2076.57421875</ele>
        <time>2011-02-26T09:53:29Z</time>
      </trkpt>
      <trkpt lat="45.92574" lon="6.51605">
        <ele>2079.0859375</ele>
        <time>2011-02-26T09:53:44Z</time>
      </trkpt>
      <trkpt lat="45.92568" lon="6.51605">
        <ele>2081.953125</ele>
        <time>2011-02-26T09:53:55Z</time>
      </trkpt>
      <trkpt lat="45.92563" lon="6.51601">
        <ele>2083.4609375</ele>
        <time>2011-02-26T09:54:00Z</time>
      </trkpt>
      <trkpt lat="45.92551" lon="6.51595">
        <ele>2087.69921875</ele>
        <time>2011-02-26T09:54:14Z</time>
      </trkpt>
      <trkpt lat="45.92545" lon="6.51593">
        <ele>2089.97265625</ele>
        <time>2011-02-26T09:54:26Z</time>
      </trkpt>
      <trkpt lat="45.9254" lon="6.51583">
        <ele>2091.25</ele>
        <time>2011-02-26T09:54:40Z</time>
      </trkpt>
      <trkpt lat="45.92538" lon="6.5158">
        <ele>2091.63671875</ele>
        <time>2011-02-26T09:54:56Z</time>
      </trkpt>
      <trkpt lat="45.92536" lon="6.51576">
        <ele>2092.66015625</ele>
        <time>2011-02-26T09:55:09Z</time>
      </trkpt>
      <trkpt lat="45.92532" lon="6.51585">
        <ele>2095.41796875</ele>
        <time>2011-02-26T09:55:22Z</time>
      </trkpt>
      <trkpt lat="45.92532" lon="6.5159">
        <ele>2096.02734375</ele>
        <time>2011-02-26T09:55:34Z</time>
      </trkpt>
      <trkpt lat="45.92533" lon="6.51594">
        <ele>2096.12109375</ele>
        <time>2011-02-26T09:55:41Z</time>
      </trkpt>
      <trkpt lat="45.92527" lon="6.51592">
        <ele>2098.421875</ele>
        <time>2011-02-26T09:55:55Z</time>
      </trkpt>
      <trkpt lat="45.92526" lon="6.51589">
        <ele>2098.80078125</ele>
        <time>2011-02-26T09:56:01Z</time>
      </trkpt>
      <trkpt lat="45.92524" lon="6.51585">
        <ele>2099.59375</ele>
        <time>2011-02-26T09:56:04Z</time>
      </trkpt>
      <trkpt lat="45.92522" lon="6.5158">
        <ele>2100.125</ele>
        <time>2011-02-26T09:56:18Z</time>
      </trkpt>
      <trkpt lat="45.92522" lon="6.5158">
        <ele>2100.125</ele>
        <time>2011-02-26T09:56:29Z</time>
      </trkpt>
      <trkpt lat="45.92519" lon="6.51569">
        <ele>2101.20703125</ele>
        <time>2011-02-26T09:56:45Z</time>
      </trkpt>
      <trkpt lat="45.92519" lon="6.51569">
        <ele>2101.20703125</ele>
        <time>2011-02-26T09:56:49Z</time>
      </trkpt>
      <trkpt lat="45.92518" lon="6.51573">
        <ele>2101.93359375</ele>
        <time>2011-02-26T09:56:52Z</time>
      </trkpt>
      <trkpt lat="45.92515" lon="6.5158">
        <ele>2103.54296875</ele>
        <time>2011-02-26T09:57:05Z</time>
      </trkpt>
      <trkpt lat="45.92514" lon="6.51581">
        <ele>2103.77734375</ele>
        <time>2011-02-26T09:57:19Z</time>
      </trkpt>
      <trkpt lat="45.92514" lon="6.5158">
        <ele>2103.92578125</ele>
        <time>2011-02-26T09:57:28Z</time>
      </trkpt>
      <trkpt lat="45.92512" lon="6.51575">
        <ele>2104.625</ele>
        <time>2011-02-26T09:57:45Z</time>
      </trkpt>
      <trkpt lat="45.92511" lon="6.51571">
        <ele>2105.41015625</ele>
        <time>2011-02-26T09:57:59Z</time>
      </trkpt>
      <trkpt lat="45.92508" lon="6.51573">
        <ele>2106.9140625</ele>
        <time>2011-02-26T09:58:12Z</time>
      </trkpt>
      <trkpt lat="45.92505" lon="6.51577">
        <ele>2108.28125</ele>
        <time>2011-02-26T09:58:22Z</time>
      </trkpt>
      <trkpt lat="45.92502" lon="6.51587">
        <ele>2109.43359375</ele>
        <time>2011-02-26T09:58:37Z</time>
      </trkpt>
      <trkpt lat="45.92501" lon="6.51594">
        <ele>2109.82421875</ele>
        <time>2011-02-26T09:58:55Z</time>
      </trkpt>
      <trkpt lat="45.92501" lon="6.516">
        <ele>2109.99609375</ele>
        <time>2011-02-26T09:59:07Z</time>
      </trkpt>
      <trkpt lat="45.925" lon="6.51599">
        <ele>2110.3984375</ele>
        <time>2011-02-26T09:59:08Z</time>
      </trkpt>
      <trkpt lat="45.92496" lon="6.51597">
        <ele>2111.5625</ele>
        <time>2011-02-26T09:59:11Z</time>
      </trkpt>
      <trkpt lat="45.9249" lon="6.51586">
        <ele>2114.0234375</ele>
        <time>2011-02-26T09:59:24Z</time>
      </trkpt>
      <trkpt lat="45.9249" lon="6.51586">
        <ele>2114.33203125</ele>
        <time>2011-02-26T09:59:38Z</time>
      </trkpt>
      <trkpt lat="45.92488" lon="6.51596">
        <ele>2114.515625</ele>
        <time>2011-02-26T09:59:50Z</time>
      </trkpt>
      <trkpt lat="45.92488" lon="6.51606">
        <ele>2114.28125</ele>
        <time>2011-02-26T10:00:02Z</time>
      </trkpt>
      <trkpt lat="45.9248" lon="6.51601">
        <ele>2116.9453125</ele>
        <time>2011-02-26T10:00:16Z</time>
      </trkpt>
      <trkpt lat="45.92479" lon="6.51598">
        <ele>2117.73828125</ele>
        <time>2011-02-26T10:00:20Z</time>
      </trkpt>
      <trkpt lat="45.92476" lon="6.51592">
        <ele>2119.1953125</ele>
        <time>2011-02-26T10:00:35Z</time>
      </trkpt>
      <trkpt lat="45.92473" lon="6.51588">
        <ele>2120.9375</ele>
        <time>2011-02-26T10:00:48Z</time>
      </trkpt>
      <trkpt lat="45.92471" lon="6.51584">
        <ele>2121.92578125</ele>
        <time>2011-02-26T10:01:02Z</time>
      </trkpt>
      <trkpt lat="45.92465" lon="6.51599">
        <ele>2122.8125</ele>
        <time>2011-02-26T10:01:15Z</time>
      </trkpt>
      <trkpt lat="45.92464" lon="6.51609">
        <ele>2122.46875</ele>
        <time>2011-02-26T10:01:27Z</time>
      </trkpt>
      <trkpt lat="45.9246" lon="6.51619">
        <ele>2123.56640625</ele>
        <time>2011-02-26T10:01:39Z</time>
      </trkpt>
      <trkpt lat="45.92455" lon="6.5163">
        <ele>2125.03515625</ele>
        <time>2011-02-26T10:01:53Z</time>
      </trkpt>
      <trkpt lat="45.92456" lon="6.51632">
        <ele>2124.9140625</ele>
        <time>2011-02-26T10:02:06Z</time>
      </trkpt>
      <trkpt lat="45.92456" lon="6.51632">
        <ele>2124.9140625</ele>
        <time>2011-02-26T10:02:25Z</time>
      </trkpt>
      <trkpt lat="45.92456" lon="6.51632">
        <ele>2124.7734375</ele>
        <time>2011-02-26T10:02:44Z</time>
      </trkpt>
      <trkpt lat="45.92456" lon="6.51632">
        <ele>2124.7734375</ele>
        <time>2011-02-26T10:03:04Z</time>
      </trkpt>
      <trkpt lat="45.92456" lon="6.51632">
        <ele>2124.7734375</ele>
        <time>2011-02-26T10:03:25Z</time>
      </trkpt>
      <trkpt lat="45.92456" lon="6.51632">
        <ele>2124.7734375</ele>
        <time>2011-02-26T10:03:47Z</time>
      </trkpt>
      <trkpt lat="45.92456" lon="6.51632">
        <ele>2124.7734375</ele>
        <time>2011-02-26T10:04:09Z</time>
      </trkpt>
      <trkpt lat="45.92456" lon="6.51632">
        <ele>2124.7734375</ele>
        <time>2011-02-26T10:04:33Z</time>
      </trkpt>
      <trkpt lat="45.92456" lon="6.51632">
        <ele>2124.765625</ele>
        <time>2011-02-26T10:04:58Z</time>
      </trkpt>
      <trkpt lat="45.92456" lon="6.51632">
        <ele>2124.765625</ele>
        <time>2011-02-26T10:05:24Z</time>
      </trkpt>
      <trkpt lat="45.92456" lon="6.51632">
        <ele>2124.765625</ele>
        <time>2011-02-26T10:05:49Z</time>
      </trkpt>
      <trkpt lat="45.92456" lon="6.51632">
        <ele>2124.75390625</ele>
        <time>2011-02-26T10:06:09Z</time>
      </trkpt>
      <trkpt lat="45.92456" lon="6.51632">
        <ele>2124.75390625</ele>
        <time>2011-02-26T10:06:29Z</time>
      </trkpt>
      <trkpt lat="45.92456" lon="6.51632">
        <ele>2124.75390625</ele>
        <time>2011-02-26T10:06:46Z</time>
      </trkpt>
      <trkpt lat="45.92442" lon="6.51632">
        <ele>2130.50390625</ele>
        <time>2011-02-26T10:06:59Z</time>
      </trkpt>
      <trkpt lat="45.92431" lon="6.51634">
        <ele>2135.0546875</ele>
        <time>2011-02-26T10:07:12Z</time>
      </trkpt>
      <trkpt lat="45.92429" lon="6.51634">
        <ele>2136.05859375</ele>
        <time>2011-02-26T10:07:30Z</time>
      </trkpt>
      <trkpt lat="45.92428" lon="6.51637">
        <ele>2136.67578125</ele>
        <time>2011-02-26T10:07:43Z</time>
      </trkpt>
      <trkpt lat="45.92421" lon="6.51648">
        <ele>2139.92578125</ele>
        <time>2011-02-26T10:07:55Z</time>
      </trkpt>
      <trkpt lat="45.92418" lon="6.51651">
        <ele>2141.6171875</ele>
        <time>2011-02-26T10:08:07Z</time>
      </trkpt>
      <trkpt lat="45.9241" lon="6.51652">
        <ele>2145.39453125</ele>
        <time>2011-02-26T10:08:16Z</time>
      </trkpt>
      <trkpt lat="45.92401" lon="6.51657">
        <ele>2149.6953125</ele>
        <time>2011-02-26T10:08:31Z</time>
      </trkpt>
      <trkpt lat="45.92397" lon="6.51659">
        <ele>2151.93359375</ele>
        <time>2011-02-26T10:08:46Z</time>
      </trkpt>
      <trkpt lat="45.92392" lon="6.51658">
        <ele>2154.21484375</ele>
        <time>2011-02-26T10:09:00Z</time>
      </trkpt>
      <trkpt lat="45.92388" lon="6.51662">
        <ele>2156.1953125</ele>
        <time>2011-02-26T10:09:13Z</time>
      </trkpt>
      <trkpt lat="45.92387" lon="6.51665">
        <ele>2156.94140625</ele>
        <time>2011-02-26T10:09:16Z</time>
      </trkpt>
      <trkpt lat="45.92382" lon="6.51673">
        <ele>2159.29296875</ele>
        <time>2011-02-26T10:09:31Z</time>
      </trkpt>
      <trkpt lat="45.92379" lon="6.51683">
        <ele>2161.52734375</ele>
        <time>2011-02-26T10:09:45Z</time>
      </trkpt>
      <trkpt lat="45.92373" lon="6.51691">
        <ele>2164.48046875</ele>
        <time>2011-02-26T10:09:58Z</time>
      </trkpt>
      <trkpt lat="45.9237" lon="6.51695">
        <ele>2166.4375</ele>
        <time>2011-02-26T10:10:10Z</time>
      </trkpt>
      <trkpt lat="45.92368" lon="6.51697">
        <ele>2167.25390625</ele>
        <time>2011-02-26T10:10:12Z</time>
      </trkpt>
      <trkpt lat="45.92363" lon="6.51704">
        <ele>2170.40234375</ele>
        <time>2011-02-26T10:10:25Z</time>
      </trkpt>
      <trkpt lat="45.92358" lon="6.51715">
        <ele>2173.12109375</ele>
        <time>2011-02-26T10:10:39Z</time>
      </trkpt>
      <trkpt lat="45.92357" lon="6.51718">
        <ele>2174.13671875</ele>
        <time>2011-02-26T10:10:51Z</time>
      </trkpt>
      <trkpt lat="45.92355" lon="6.51727">
        <ele>2175.95703125</ele>
        <time>2011-02-26T10:11:04Z</time>
      </trkpt>
      <trkpt lat="45.92356" lon="6.51729">
        <ele>2176.07421875</ele>
        <time>2011-02-26T10:11:19Z</time>
      </trkpt>
      <trkpt lat="45.92353" lon="6.51732">
        <ele>2177.19921875</ele>
        <time>2011-02-26T10:11:33Z</time>
      </trkpt>
      <trkpt lat="45.92344" lon="6.51727">
        <ele>2180.42578125</ele>
        <time>2011-02-26T10:11:47Z</time>
      </trkpt>
      <trkpt lat="45.92342" lon="6.51727">
        <ele>2180.9921875</ele>
        <time>2011-02-26T10:12:03Z</time>
      </trkpt>
      <trkpt lat="45.92342" lon="6.51737">
        <ele>2182.1015625</ele>
        <time>2011-02-26T10:12:17Z</time>
      </trkpt>
      <trkpt lat="45.92342" lon="6.51739">
        <ele>2182.43359375</ele>
        <time>2011-02-26T10:12:33Z</time>
      </trkpt>
      <trkpt lat="45.92341" lon="6.51739">
        <ele>2182.55859375</ele>
        <time>2011-02-26T10:12:54Z</time>
      </trkpt>
      <trkpt lat="45.92337" lon="6.51738">
        <ele>2183.84765625</ele>
        <time>2011-02-26T10:13:01Z</time>
      </trkpt>
      <trkpt lat="45.92332" lon="6.51737">
        <ele>2185.0234375</ele>
        <time>2011-02-26T10:13:05Z</time>
      </trkpt>
      <trkpt lat="45.92328" lon="6.51733">
        <ele>2186.04296875</ele>
        <time>2011-02-26T10:13:19Z</time>
      </trkpt>
      <trkpt lat="45.92327" lon="6.5174">
        <ele>2186.79296875</ele>
        <time>2011-02-26T10:13:33Z</time>
      </trkpt>
      <trkpt lat="45.92327" lon="6.51744">
        <ele>2187.11328125</ele>
        <time>2011-02-26T10:13:47Z</time>
      </trkpt>
      <trkpt lat="45.92327" lon="6.51744">
        <ele>2187.11328125</ele>
        <time>2011-02-26T10:14:05Z</time>
      </trkpt>
      <trkpt lat="45.92326" lon="6.51743">
        <ele>2187.2578125</ele>
        <time>2011-02-26T10:14:13Z</time>
      </trkpt>
      <trkpt lat="45.92321" lon="6.51741">
        <ele>2188.7578125</ele>
        <time>2011-02-26T10:14:20Z</time>
      </trkpt>
      <trkpt lat="45.92314" lon="6.51732">
        <ele>2190.33203125</ele>
        <time>2011-02-26T10:14:34Z</time>
      </trkpt>
      <trkpt lat="45.92313" lon="6.51729">
        <ele>2190.65234375</ele>
        <time>2011-02-26T10:14:48Z</time>
      </trkpt>
      <trkpt lat="45.9231" lon="6.51733">
        <ele>2191.34765625</ele>
        <time>2011-02-26T10:15:04Z</time>
      </trkpt>
      <trkpt lat="45.92309" lon="6.51745">
        <ele>2191.8046875</ele>
        <time>2011-02-26T10:15:20Z</time>
      </trkpt>
      <trkpt lat="45.92309" lon="6.51747">
        <ele>2191.84765625</ele>
        <time>2011-02-26T10:15:36Z</time>
      </trkpt>
      <trkpt lat="45.92306" lon="6.51747">
        <ele>2192.390625</ele>
        <time>2011-02-26T10:15:48Z</time>
      </trkpt>
      <trkpt lat="45.92293" lon="6.51747">
        <ele>2194.57421875</ele>
        <time>2011-02-26T10:16:04Z</time>
      </trkpt>
      <trkpt lat="45.92289" lon="6.51748">
        <ele>2195.29296875</ele>
        <time>2011-02-26T10:16:17Z</time>
      </trkpt>
      <trkpt lat="45.92284" lon="6.51755">
        <ele>2196.3203125</ele>
        <time>2011-02-26T10:16:32Z</time>
      </trkpt>
      <trkpt lat="45.9228" lon="6.51759">
        <ele>2197.78125</ele>
        <time>2011-02-26T10:16:39Z</time>
      </trkpt>
      <trkpt lat="45.92277" lon="6.51767">
        <ele>2198.8125</ele>
        <time>2011-02-26T10:16:46Z</time>
      </trkpt>
      <trkpt lat="45.92275" lon="6.51781">
        <ele>2200.14453125</ele>
        <time>2011-02-26T10:16:58Z</time>
      </trkpt>
      <trkpt lat="45.92269" lon="6.518">
        <ele>2202.74609375</ele>
        <time>2011-02-26T10:17:11Z</time>
      </trkpt>
      <trkpt lat="45.92266" lon="6.51807">
        <ele>2204.18359375</ele>
        <time>2011-02-26T10:17:16Z</time>
      </trkpt>
      <trkpt lat="45.92253" lon="6.51825">
        <ele>2208.26953125</ele>
        <time>2011-02-26T10:17:32Z</time>
      </trkpt>
      <trkpt lat="45.92248" lon="6.51829">
        <ele>2210.25390625</ele>
        <time>2011-02-26T10:17:43Z</time>
      </trkpt>
      <trkpt lat="45.92236" lon="6.51833">
        <ele>2214.22265625</ele>
        <time>2011-02-26T10:17:56Z</time>
      </trkpt>
      <trkpt lat="45.9223" lon="6.51838">
        <ele>2216.78125</ele>
        <time>2011-02-26T10:18:03Z</time>
      </trkpt>
      <trkpt lat="45.92221" lon="6.51842">
        <ele>2221.6640625</ele>
        <time>2011-02-26T10:18:13Z</time>
      </trkpt>
      <trkpt lat="45.92215" lon="6.51847">
        <ele>2224.98046875</ele>
        <time>2011-02-26T10:18:26Z</time>
      </trkpt>
      <trkpt lat="45.92211" lon="6.51852">
        <ele>2227.1484375</ele>
        <time>2011-02-26T10:18:42Z</time>
      </trkpt>
      <trkpt lat="45.92206" lon="6.51859">
        <ele>2229.87890625</ele>
        <time>2011-02-26T10:18:54Z</time>
      </trkpt>
      <trkpt lat="45.92206" lon="6.51863">
        <ele>2230.30859375</ele>
        <time>2011-02-26T10:18:58Z</time>
      </trkpt>
      <trkpt lat="45.92203" lon="6.51881">
        <ele>2233.5703125</ele>
        <time>2011-02-26T10:19:13Z</time>
      </trkpt>
      <trkpt lat="45.92201" lon="6.5189">
        <ele>2235.859375</ele>
        <time>2011-02-26T10:19:26Z</time>
      </trkpt>
      <trkpt lat="45.92201" lon="6.51893">
        <ele>2236.2109375</ele>
        <time>2011-02-26T10:19:39Z</time>
      </trkpt>
      <trkpt lat="45.92201" lon="6.51893">
        <ele>2236.296875</ele>
        <time>2011-02-26T10:19:59Z</time>
      </trkpt>
      <trkpt lat="45.922" lon="6.51892">
        <ele>2236.59375</ele>
        <time>2011-02-26T10:20:06Z</time>
      </trkpt>
      <trkpt lat="45.92197" lon="6.5189">
        <ele>2237.86328125</ele>
        <time>2011-02-26T10:20:13Z</time>
      </trkpt>
      <trkpt lat="45.92189" lon="6.51879">
        <ele>2240.2734375</ele>
        <time>2011-02-26T10:20:26Z</time>
      </trkpt>
      <trkpt lat="45.92185" lon="6.51874">
        <ele>2242.18359375</ele>
        <time>2011-02-26T10:20:37Z</time>
      </trkpt>
      <trkpt lat="45.92183" lon="6.51879">
        <ele>2243.38671875</ele>
        <time>2011-02-26T10:20:56Z</time>
      </trkpt>
      <trkpt lat="45.9218" lon="6.51887">
        <ele>2245.4765625</ele>
        <time>2011-02-26T10:21:08Z</time>
      </trkpt>
      <trkpt lat="45.9218" lon="6.5189">
        <ele>2245.9765625</ele>
        <time>2011-02-26T10:21:11Z</time>
      </trkpt>
      <trkpt lat="45.9218" lon="6.51896">
        <ele>2246.64453125</ele>
        <time>2011-02-26T10:21:15Z</time>
      </trkpt>
      <trkpt lat="45.9218" lon="6.51901">
        <ele>2246.765625</ele>
        <time>2011-02-26T10:21:19Z</time>
      </trkpt>
      <trkpt lat="45.92182" lon="6.51916">
        <ele>2247.55859375</ele>
        <time>2011-02-26T10:21:33Z</time>
      </trkpt>
      <trkpt lat="45.92183" lon="6.51917">
        <ele>2247.5234375</ele>
        <time>2011-02-26T10:21:36Z</time>
      </trkpt>
      <trkpt lat="45.92183" lon="6.51919">
        <ele>2247.43359375</ele>
        <time>2011-02-26T10:21:54Z</time>
      </trkpt>
      <trkpt lat="45.92182" lon="6.51919">
        <ele>2248.14453125</ele>
        <time>2011-02-26T10:22:10Z</time>
      </trkpt>
      <trkpt lat="45.92171" lon="6.51921">
        <ele>2252.890625</ele>
        <time>2011-02-26T10:22:24Z</time>
      </trkpt>
      <trkpt lat="45.9217" lon="6.5192">
        <ele>2253.84375</ele>
        <time>2011-02-26T10:22:26Z</time>
      </trkpt>
      <trkpt lat="45.92168" lon="6.51921">
        <ele>2254.76171875</ele>
        <time>2011-02-26T10:22:42Z</time>
      </trkpt>
      <trkpt lat="45.92169" lon="6.51926">
        <ele>2254.77734375</ele>
        <time>2011-02-26T10:22:56Z</time>
      </trkpt>
      <trkpt lat="45.9217" lon="6.5193">
        <ele>2254.734375</ele>
        <time>2011-02-26T10:23:02Z</time>
      </trkpt>
      <trkpt lat="45.92171" lon="6.51936">
        <ele>2254.57421875</ele>
        <time>2011-02-26T10:23:09Z</time>
      </trkpt>
      <trkpt lat="45.92172" lon="6.51942">
        <ele>2254.99609375</ele>
        <time>2011-02-26T10:23:24Z</time>
      </trkpt>
      <trkpt lat="45.92172" lon="6.51942">
        <ele>2254.99609375</ele>
        <time>2011-02-26T10:23:42Z</time>
      </trkpt>
      <trkpt lat="45.9217" lon="6.51951">
        <ele>2257.0703125</ele>
        <time>2011-02-26T10:23:57Z</time>
      </trkpt>
      <trkpt lat="45.92171" lon="6.51956">
        <ele>2257.2890625</ele>
        <time>2011-02-26T10:24:02Z</time>
      </trkpt>
      <trkpt lat="45.92175" lon="6.51969">
        <ele>2257.90234375</ele>
        <time>2011-02-26T10:24:15Z</time>
      </trkpt>
      <trkpt lat="45.92176" lon="6.51976">
        <ele>2259.28515625</ele>
        <time>2011-02-26T10:24:21Z</time>
      </trkpt>
      <trkpt lat="45.92174" lon="6.51979">
        <ele>2260.27734375</ele>
        <time>2011-02-26T10:24:38Z</time>
      </trkpt>
      <trkpt lat="45.92174" lon="6.51979">
        <ele>2260.27734375</ele>
        <time>2011-02-26T10:24:54Z</time>
      </trkpt>
      <trkpt lat="45.92173" lon="6.51985">
        <ele>2261.90625</ele>
        <time>2011-02-26T10:24:59Z</time>
      </trkpt>
      <trkpt lat="45.92166" lon="6.51997">
        <ele>2267.38671875</ele>
        <time>2011-02-26T10:25:13Z</time>
      </trkpt>
      <trkpt lat="45.92163" lon="6.52005">
        <ele>2270.24609375</ele>
        <time>2011-02-26T10:25:25Z</time>
      </trkpt>
      <trkpt lat="45.92163" lon="6.52005">
        <ele>2270.24609375</ele>
        <time>2011-02-26T10:25:45Z</time>
      </trkpt>
      <trkpt lat="45.92162" lon="6.52008">
        <ele>2271.015625</ele>
        <time>2011-02-26T10:26:00Z</time>
      </trkpt>
      <trkpt lat="45.92162" lon="6.52022">
        <ele>2273.9453125</ele>
        <time>2011-02-26T10:26:15Z</time>
      </trkpt>
      <trkpt lat="45.9216" lon="6.52028">
        <ele>2276.203125</ele>
        <time>2011-02-26T10:26:30Z</time>
      </trkpt>
      <trkpt lat="45.9216" lon="6.52028">
        <ele>2276.203125</ele>
        <time>2011-02-26T10:26:48Z</time>
      </trkpt>
      <trkpt lat="45.9216" lon="6.52029">
        <ele>2276.41015625</ele>
        <time>2011-02-26T10:26:49Z</time>
      </trkpt>
      <trkpt lat="45.92161" lon="6.52041">
        <ele>2278.78125</ele>
        <time>2011-02-26T10:27:06Z</time>
      </trkpt>
      <trkpt lat="45.92165" lon="6.52051">
        <ele>2279.67578125</ele>
        <time>2011-02-26T10:27:18Z</time>
      </trkpt>
      <trkpt lat="45.92167" lon="6.52054">
        <ele>2279.859375</ele>
        <time>2011-02-26T10:27:34Z</time>
      </trkpt>
      <trkpt lat="45.92168" lon="6.52059">
        <ele>2280.51953125</ele>
        <time>2011-02-26T10:27:49Z</time>
      </trkpt>
      <trkpt lat="45.92172" lon="6.52068">
        <ele>2281.1796875</ele>
        <time>2011-02-26T10:28:02Z</time>
      </trkpt>
      <trkpt lat="45.92172" lon="6.52075">
        <ele>2282.6171875</ele>
        <time>2011-02-26T10:28:15Z</time>
      </trkpt>
      <trkpt lat="45.9217" lon="6.52077">
        <ele>2283.79296875</ele>
        <time>2011-02-26T10:28:30Z</time>
      </trkpt>
      <trkpt lat="45.9217" lon="6.52077">
        <ele>2283.81640625</ele>
        <time>2011-02-26T10:30:21Z</time>
      </trkpt>
      <trkpt lat="45.92171" lon="6.52078">
        <ele>2283.53515625</ele>
        <time>2011-02-26T10:30:44Z</time>
      </trkpt>
      <trkpt lat="45.92171" lon="6.52078">
        <ele>2283.53515625</ele>
        <time>2011-02-26T10:31:01Z</time>
      </trkpt>
      <trkpt lat="45.92162" lon="6.52087">
        <ele>2288.5703125</ele>
        <time>2011-02-26T10:32:29Z</time>
      </trkpt>
      <trkpt lat="45.92161" lon="6.52069">
        <ele>2284.97265625</ele>
        <time>2011-02-26T10:32:51Z</time>
      </trkpt>
      <trkpt lat="45.92162" lon="6.52064">
        <ele>2283.51171875</ele>
        <time>2011-02-26T10:33:11Z</time>
      </trkpt>
      <trkpt lat="45.92158" lon="6.52064">
        <ele>2284.80859375</ele>
        <time>2011-02-26T10:33:32Z</time>
      </trkpt>
      <trkpt lat="45.92165" lon="6.52063">
        <ele>2282.3359375</ele>
        <time>2011-02-26T10:43:42Z</time>
      </trkpt>
      <trkpt lat="45.92155" lon="6.52024">
        <ele>2276.96484375</ele>
        <time>2011-02-26T10:43:52Z</time>
      </trkpt>
      <trkpt lat="45.92161" lon="6.51979">
        <ele>2265.89453125</ele>
        <time>2011-02-26T10:44:03Z</time>
      </trkpt>
      <trkpt lat="45.92156" lon="6.51941">
        <ele>2262.546875</ele>
        <time>2011-02-26T10:44:14Z</time>
      </trkpt>
      <trkpt lat="45.92156" lon="6.51939">
        <ele>2262.609375</ele>
        <time>2011-02-26T10:44:21Z</time>
      </trkpt>
      <trkpt lat="45.92153" lon="6.51929">
        <ele>2263.23828125</ele>
        <time>2011-02-26T10:44:26Z</time>
      </trkpt>
      <trkpt lat="45.9216" lon="6.51918">
        <ele>2258.90625</ele>
        <time>2011-02-26T10:44:30Z</time>
      </trkpt>
      <trkpt lat="45.9217" lon="6.51908">
        <ele>2252.6640625</ele>
        <time>2011-02-26T10:44:41Z</time>
      </trkpt>
      <trkpt lat="45.9217" lon="6.51902">
        <ele>2252.08984375</ele>
        <time>2011-02-26T10:44:48Z</time>
      </trkpt>
      <trkpt lat="45.9218" lon="6.51878">
        <ele>2245.08984375</ele>
        <time>2011-02-26T10:44:59Z</time>
      </trkpt>
      <trkpt lat="45.92193" lon="6.51872">
        <ele>2238.19140625</ele>
        <time>2011-02-26T10:45:11Z</time>
      </trkpt>
      <trkpt lat="45.92193" lon="6.51871">
        <ele>2237.92578125</ele>
        <time>2011-02-26T10:45:16Z</time>
      </trkpt>
      <trkpt lat="45.92197" lon="6.5186">
        <ele>2234.89453125</ele>
        <time>2011-02-26T10:45:21Z</time>
      </trkpt>
      <trkpt lat="45.92215" lon="6.51818">
        <ele>2223.31640625</ele>
        <time>2011-02-26T10:45:33Z</time>
      </trkpt>
      <trkpt lat="45.92237" lon="6.51777">
        <ele>2212.81640625</ele>
        <time>2011-02-26T10:45:45Z</time>
      </trkpt>
      <trkpt lat="45.92266" lon="6.51722">
        <ele>2205.875</ele>
        <time>2011-02-26T10:45:54Z</time>
      </trkpt>
      <trkpt lat="45.92281" lon="6.51719">
        <ele>2199.44921875</ele>
        <time>2011-02-26T10:46:00Z</time>
      </trkpt>
      <trkpt lat="45.92285" lon="6.51722">
        <ele>2197.46875</ele>
        <time>2011-02-26T10:46:08Z</time>
      </trkpt>
      <trkpt lat="45.92291" lon="6.51725">
        <ele>2195.73828125</ele>
        <time>2011-02-26T10:46:11Z</time>
      </trkpt>
      <trkpt lat="45.92306" lon="6.51738">
        <ele>2192.21484375</ele>
        <time>2011-02-26T10:46:16Z</time>
      </trkpt>
      <trkpt lat="45.92308" lon="6.51739">
        <ele>2191.8671875</ele>
        <time>2011-02-26T10:46:27Z</time>
      </trkpt>
      <trkpt lat="45.92308" lon="6.51739">
        <ele>2191.8671875</ele>
        <time>2011-02-26T10:46:49Z</time>
      </trkpt>
      <trkpt lat="45.92308" lon="6.51739">
        <ele>2191.78515625</ele>
        <time>2011-02-26T10:47:00Z</time>
      </trkpt>
      <trkpt lat="45.92315" lon="6.51728">
        <ele>2189.89453125</ele>
        <time>2011-02-26T10:47:04Z</time>
      </trkpt>
      <trkpt lat="45.92318" lon="6.51692">
        <ele>2187.9375</ele>
        <time>2011-02-26T10:47:16Z</time>
      </trkpt>
      <trkpt lat="45.92319" lon="6.51668">
        <ele>2188.765625</ele>
        <time>2011-02-26T10:47:26Z</time>
      </trkpt>
      <trkpt lat="45.92318" lon="6.51658">
        <ele>2189.5703125</ele>
        <time>2011-02-26T10:47:33Z</time>
      </trkpt>
      <trkpt lat="45.92329" lon="6.51669">
        <ele>2184.01171875</ele>
        <time>2011-02-26T10:47:39Z</time>
      </trkpt>
      <trkpt lat="45.92329" lon="6.51669">
        <ele>2184.1640625</ele>
        <time>2011-02-26T10:47:51Z</time>
      </trkpt>
      <trkpt lat="45.92329" lon="6.51668">
        <ele>2184.21484375</ele>
        <time>2011-02-26T10:47:57Z</time>
      </trkpt>
      <trkpt lat="45.92335" lon="6.51655">
        <ele>2182.16015625</ele>
        <time>2011-02-26T10:48:08Z</time>
      </trkpt>
      <trkpt lat="45.92335" lon="6.51651">
        <ele>2182.53125</ele>
        <time>2011-02-26T10:48:15Z</time>
      </trkpt>
      <trkpt lat="45.92348" lon="6.51639">
        <ele>2176.36328125</ele>
        <time>2011-02-26T10:48:27Z</time>
      </trkpt>
      <trkpt lat="45.92359" lon="6.51626">
        <ele>2171.0625</ele>
        <time>2011-02-26T10:48:38Z</time>
      </trkpt>
      <trkpt lat="45.92371" lon="6.51614">
        <ele>2164.31640625</ele>
        <time>2011-02-26T10:48:48Z</time>
      </trkpt>
      <trkpt lat="45.92385" lon="6.51605">
        <ele>2157.26171875</ele>
        <time>2011-02-26T10:48:58Z</time>
      </trkpt>
      <trkpt lat="45.92403" lon="6.51612">
        <ele>2147.87890625</ele>
        <time>2011-02-26T10:49:05Z</time>
      </trkpt>
      <trkpt lat="45.9242" lon="6.51639">
        <ele>2140.3203125</ele>
        <time>2011-02-26T10:49:13Z</time>
      </trkpt>
      <trkpt lat="45.92438" lon="6.51619">
        <ele>2132.3203125</ele>
        <time>2011-02-26T10:49:24Z</time>
      </trkpt>
      <trkpt lat="45.92445" lon="6.51617">
        <ele>2129.33203125</ele>
        <time>2011-02-26T10:49:28Z</time>
      </trkpt>
      <trkpt lat="45.92451" lon="6.51614">
        <ele>2126.90234375</ele>
        <time>2011-02-26T10:49:31Z</time>
      </trkpt>
      <trkpt lat="45.92453" lon="6.51612">
        <ele>2126.42578125</ele>
        <time>2011-02-26T10:49:47Z</time>
      </trkpt>
      <trkpt lat="45.92453" lon="6.51612">
        <ele>2126.42578125</ele>
        <time>2011-02-26T10:49:55Z</time>
      </trkpt>
      <trkpt lat="45.92458" lon="6.51601">
        <ele>2124.96875</ele>
        <time>2011-02-26T10:50:00Z</time>
      </trkpt>
      <trkpt lat="45.92473" lon="6.51579">
        <ele>2121.46484375</ele>
        <time>2011-02-26T10:50:09Z</time>
      </trkpt>
      <trkpt lat="45.92475" lon="6.51577">
        <ele>2120.8046875</ele>
        <time>2011-02-26T10:50:27Z</time>
      </trkpt>
      <trkpt lat="45.92476" lon="6.51573">
        <ele>2120.82421875</ele>
        <time>2011-02-26T10:50:30Z</time>
      </trkpt>
      <trkpt lat="45.92495" lon="6.51544">
        <ele>2117.4921875</ele>
        <time>2011-02-26T10:50:44Z</time>
      </trkpt>
      <trkpt lat="45.92506" lon="6.51532">
        <ele>2117.953125</ele>
        <time>2011-02-26T10:50:56Z</time>
      </trkpt>
      <trkpt lat="45.92508" lon="6.51534">
        <ele>2116.2734375</ele>
        <time>2011-02-26T10:51:10Z</time>
      </trkpt>
      <trkpt lat="45.92508" lon="6.51534">
        <ele>2116.2734375</ele>
        <time>2011-02-26T10:51:17Z</time>
      </trkpt>
      <trkpt lat="45.92512" lon="6.51528">
        <ele>2116.37890625</ele>
        <time>2011-02-26T10:51:21Z</time>
      </trkpt>
      <trkpt lat="45.9252" lon="6.5151">
        <ele>2120.68359375</ele>
        <time>2011-02-26T10:51:32Z</time>
      </trkpt>
      <trkpt lat="45.92521" lon="6.51507">
        <ele>2121.3515625</ele>
        <time>2011-02-26T10:51:48Z</time>
      </trkpt>
      <trkpt lat="45.92528" lon="6.51501">
        <ele>2118.38671875</ele>
        <time>2011-02-26T10:51:55Z</time>
      </trkpt>
      <trkpt lat="45.92529" lon="6.515">
        <ele>2117.9609375</ele>
        <time>2011-02-26T10:51:56Z</time>
      </trkpt>
      <trkpt lat="45.92535" lon="6.51495">
        <ele>2115.421875</ele>
        <time>2011-02-26T10:52:01Z</time>
      </trkpt>
      <trkpt lat="45.92536" lon="6.51496">
        <ele>2113.87890625</ele>
        <time>2011-02-26T10:52:02Z</time>
      </trkpt>
      <trkpt lat="45.92538" lon="6.51496">
        <ele>2111.77734375</ele>
        <time>2011-02-26T10:52:03Z</time>
      </trkpt>
      <trkpt lat="45.92538" lon="6.51497">
        <ele>2110.67578125</ele>
        <time>2011-02-26T10:52:16Z</time>
      </trkpt>
      <trkpt lat="45.92538" lon="6.51497">
        <ele>2110.67578125</ele>
        <time>2011-02-26T10:52:28Z</time>
      </trkpt>
      <trkpt lat="45.9254" lon="6.51496">
        <ele>2109.859375</ele>
        <time>2011-02-26T10:52:31Z</time>
      </trkpt>
      <trkpt lat="45.92553" lon="6.51482">
        <ele>2104.125</ele>
        <time>2011-02-26T10:52:43Z</time>
      </trkpt>
      <trkpt lat="45.92583" lon="6.51457">
        <ele>2082.87890625</ele>
        <time>2011-02-26T10:52:56Z</time>
      </trkpt>
      <trkpt lat="45.92597" lon="6.51456">
        <ele>2064.875</ele>
        <time>2011-02-26T10:53:05Z</time>
      </trkpt>
      <trkpt lat="45.92596" lon="6.51458">
        <ele>2065.51953125</ele>
        <time>2011-02-26T10:53:25Z</time>
      </trkpt>
      <trkpt lat="45.92596" lon="6.51458">
        <ele>2065.51953125</ele>
        <time>2011-02-26T10:53:46Z</time>
      </trkpt>
      <trkpt lat="45.92596" lon="6.51458">
        <ele>2065.95703125</ele>
        <time>2011-02-26T10:53:49Z</time>
      </trkpt>
      <trkpt lat="45.92603" lon="6.51456">
        <ele>2058.25</ele>
        <time>2011-02-26T10:54:00Z</time>
      </trkpt>
      <trkpt lat="45.92614" lon="6.5143">
        <ele>2057.29296875</ele>
        <time>2011-02-26T10:54:13Z</time>
      </trkpt>
      <trkpt lat="45.92624" lon="6.51438">
        <ele>2039.3359375</ele>
        <time>2011-02-26T10:54:17Z</time>
      </trkpt>
      <trkpt lat="45.92626" lon="6.51437">
        <ele>2036.77734375</ele>
        <time>2011-02-26T10:54:21Z</time>
      </trkpt>
      <trkpt lat="45.92627" lon="6.51428">
        <ele>2039.640625</ele>
        <time>2011-02-26T10:54:25Z</time>
      </trkpt>
      <trkpt lat="45.92638" lon="6.51423">
        <ele>2024.53125</ele>
        <time>2011-02-26T10:54:34Z</time>
      </trkpt>
      <trkpt lat="45.92658" lon="6.51408">
        <ele>2000.78125</ele>
        <time>2011-02-26T10:54:45Z</time>
      </trkpt>
      <trkpt lat="45.92654" lon="6.51396">
        <ele>2008.52734375</ele>
        <time>2011-02-26T10:54:55Z</time>
      </trkpt>
      <trkpt lat="45.92664" lon="6.51405">
        <ele>1994.7578125</ele>
        <time>2011-02-26T10:55:08Z</time>
      </trkpt>
      <trkpt lat="45.92667" lon="6.51403">
        <ele>1991.5859375</ele>
        <time>2011-02-26T10:55:20Z</time>
      </trkpt>
      <trkpt lat="45.92669" lon="6.51396">
        <ele>1990.50390625</ele>
        <time>2011-02-26T10:55:22Z</time>
      </trkpt>
      <trkpt lat="45.92664" lon="6.51351">
        <ele>2007.3984375</ele>
        <time>2011-02-26T10:55:31Z</time>
      </trkpt>
      <trkpt lat="45.92681" lon="6.5135">
        <ele>1983.31640625</ele>
        <time>2011-02-26T10:55:40Z</time>
      </trkpt>
      <trkpt lat="45.92696" lon="6.51331">
        <ele>1965.3359375</ele>
        <time>2011-02-26T10:55:51Z</time>
      </trkpt>
      <trkpt lat="45.927" lon="6.5133">
        <ele>1959.9921875</ele>
        <time>2011-02-26T10:56:01Z</time>
      </trkpt>
      <trkpt lat="45.92777" lon="6.51395">
        <ele>1924.67578125</ele>
        <time>2011-02-26T10:56:16Z</time>
      </trkpt>
      <trkpt lat="45.92798" lon="6.51409">
        <ele>1919.9765625</ele>
        <time>2011-02-26T10:56:25Z</time>
      </trkpt>
      <trkpt lat="45.92798" lon="6.51409">
        <ele>1919.9765625</ele>
        <time>2011-02-26T10:56:46Z</time>
      </trkpt>
      <trkpt lat="45.928" lon="6.51411">
        <ele>1920.09765625</ele>
        <time>2011-02-26T10:57:06Z</time>
      </trkpt>
      <trkpt lat="45.92818" lon="6.51415">
        <ele>1914.02734375</ele>
        <time>2011-02-26T10:57:12Z</time>
      </trkpt>
      <trkpt lat="45.92853" lon="6.514">
        <ele>1897.828125</ele>
        <time>2011-02-26T10:57:22Z</time>
      </trkpt>
      <trkpt lat="45.9289" lon="6.51372">
        <ele>1879.93359375</ele>
        <time>2011-02-26T10:57:33Z</time>
      </trkpt>
      <trkpt lat="45.92922" lon="6.51311">
        <ele>1858.65234375</ele>
        <time>2011-02-26T10:57:44Z</time>
      </trkpt>
      <trkpt lat="45.92928" lon="6.51305">
        <ele>1856.6796875</ele>
        <time>2011-02-26T10:57:45Z</time>
      </trkpt>
      <trkpt lat="45.92931" lon="6.51299">
        <ele>1854.84375</ele>
        <time>2011-02-26T10:57:46Z</time>
      </trkpt>
      <trkpt lat="45.92936" lon="6.51291">
        <ele>1852.60546875</ele>
        <time>2011-02-26T10:57:47Z</time>
      </trkpt>
      <trkpt lat="45.92941" lon="6.51284">
        <ele>1850.23828125</ele>
        <time>2011-02-26T10:57:48Z</time>
      </trkpt>
      <trkpt lat="45.92947" lon="6.51276">
        <ele>1847.8125</ele>
        <time>2011-02-26T10:57:49Z</time>
      </trkpt>
      <trkpt lat="45.92961" lon="6.51261">
        <ele>1843.046875</ele>
        <time>2011-02-26T10:57:51Z</time>
      </trkpt>
      <trkpt lat="45.92966" lon="6.51253">
        <ele>1840.89453125</ele>
        <time>2011-02-26T10:57:52Z</time>
      </trkpt>
      <trkpt lat="45.92968" lon="6.51244">
        <ele>1839.2109375</ele>
        <time>2011-02-26T10:57:53Z</time>
      </trkpt>
      <trkpt lat="45.92969" lon="6.51234">
        <ele>1837.75390625</ele>
        <time>2011-02-26T10:57:54Z</time>
      </trkpt>
      <trkpt lat="45.92969" lon="6.51215">
        <ele>1835.03125</ele>
        <time>2011-02-26T10:57:56Z</time>
      </trkpt>
      <trkpt lat="45.92975" lon="6.51196">
        <ele>1831.13671875</ele>
        <time>2011-02-26T10:57:58Z</time>
      </trkpt>
      <trkpt lat="45.92978" lon="6.51178">
        <ele>1828.18359375</ele>
        <time>2011-02-26T10:58:00Z</time>
      </trkpt>
      <trkpt lat="45.92976" lon="6.51175">
        <ele>1828</ele>
        <time>2011-02-26T10:58:01Z</time>
      </trkpt>
      <trkpt lat="45.9297" lon="6.51172">
        <ele>1828.734375</ele>
        <time>2011-02-26T10:58:09Z</time>
      </trkpt>
      <trkpt lat="45.9297" lon="6.51171">
        <ele>1828.70703125</ele>
        <time>2011-02-26T10:58:20Z</time>
      </trkpt>
      <trkpt lat="45.92966" lon="6.51144">
        <ele>1825.1015625</ele>
        <time>2011-02-26T10:58:27Z</time>
      </trkpt>
      <trkpt lat="45.92962" lon="6.51135">
        <ele>1824.31640625</ele>
        <time>2011-02-26T10:58:32Z</time>
      </trkpt>
      <trkpt lat="45.92958" lon="6.51132">
        <ele>1824.703125</ele>
        <time>2011-02-26T10:58:46Z</time>
      </trkpt>
      <trkpt lat="45.92956" lon="6.51113">
        <ele>1822.421875</ele>
        <time>2011-02-26T10:58:51Z</time>
      </trkpt>
      <trkpt lat="45.92956" lon="6.51105">
        <ele>1821.37109375</ele>
        <time>2011-02-26T10:58:52Z</time>
      </trkpt>
      <trkpt lat="45.92957" lon="6.51097">
        <ele>1820.12109375</ele>
        <time>2011-02-26T10:58:53Z</time>
      </trkpt>
      <trkpt lat="45.92958" lon="6.51089">
        <ele>1818.765625</ele>
        <time>2011-02-26T10:58:54Z</time>
      </trkpt>
      <trkpt lat="45.9296" lon="6.51079">
        <ele>1817.21875</ele>
        <time>2011-02-26T10:58:55Z</time>
      </trkpt>
      <trkpt lat="45.92961" lon="6.51069">
        <ele>1815.77734375</ele>
        <time>2011-02-26T10:58:56Z</time>
      </trkpt>
      <trkpt lat="45.9296" lon="6.51059">
        <ele>1814.62890625</ele>
        <time>2011-02-26T10:58:57Z</time>
      </trkpt>
      <trkpt lat="45.92956" lon="6.51014">
        <ele>1809.57421875</ele>
        <time>2011-02-26T10:59:04Z</time>
      </trkpt>
      <trkpt lat="45.92969" lon="6.50983">
        <ele>1803.703125</ele>
        <time>2011-02-26T10:59:14Z</time>
      </trkpt>
      <trkpt lat="45.92968" lon="6.50954">
        <ele>1799.77734375</ele>
        <time>2011-02-26T10:59:19Z</time>
      </trkpt>
      <trkpt lat="45.92966" lon="6.50949">
        <ele>1799.0390625</ele>
        <time>2011-02-26T10:59:20Z</time>
      </trkpt>
      <trkpt lat="45.92965" lon="6.50944">
        <ele>1798.484375</ele>
        <time>2011-02-26T10:59:21Z</time>
      </trkpt>
      <trkpt lat="45.92962" lon="6.50941">
        <ele>1798.23828125</ele>
        <time>2011-02-26T10:59:22Z</time>
      </trkpt>
      <trkpt lat="45.92961" lon="6.5094">
        <ele>1798.234375</ele>
        <time>2011-02-26T10:59:23Z</time>
      </trkpt>
      <trkpt lat="45.9296" lon="6.50937">
        <ele>1797.8359375</ele>
        <time>2011-02-26T10:59:29Z</time>
      </trkpt>
      <trkpt lat="45.9296" lon="6.50935">
        <ele>1797.2890625</ele>
        <time>2011-02-26T10:59:30Z</time>
      </trkpt>
      <trkpt lat="45.9296" lon="6.50916">
        <ele>1792.984375</ele>
        <time>2011-02-26T10:59:38Z</time>
      </trkpt>
      <trkpt lat="45.92956" lon="6.509">
        <ele>1790.54296875</ele>
        <time>2011-02-26T10:59:44Z</time>
      </trkpt>
      <trkpt lat="45.92958" lon="6.50897">
        <ele>1789.46875</ele>
        <time>2011-02-26T10:59:45Z</time>
      </trkpt>
      <trkpt lat="45.92959" lon="6.50892">
        <ele>1788.2890625</ele>
        <time>2011-02-26T10:59:46Z</time>
      </trkpt>
      <trkpt lat="45.92957" lon="6.50871">
        <ele>1783.6328125</ele>
        <time>2011-02-26T10:59:51Z</time>
      </trkpt>
      <trkpt lat="45.92965" lon="6.50853">
        <ele>1775.3984375</ele>
        <time>2011-02-26T10:59:55Z</time>
      </trkpt>
      <trkpt lat="45.9296" lon="6.50844">
        <ele>1774.34765625</ele>
        <time>2011-02-26T10:59:59Z</time>
      </trkpt>
      <trkpt lat="45.92955" lon="6.50844">
        <ele>1776.15625</ele>
        <time>2011-02-26T11:00:13Z</time>
      </trkpt>
      <trkpt lat="45.92955" lon="6.50843">
        <ele>1775.94921875</ele>
        <time>2011-02-26T11:00:16Z</time>
      </trkpt>
      <trkpt lat="45.92943" lon="6.50815">
        <ele>1771.76171875</ele>
        <time>2011-02-26T11:00:25Z</time>
      </trkpt>
      <trkpt lat="45.92942" lon="6.50811">
        <ele>1770.9453125</ele>
        <time>2011-02-26T11:00:26Z</time>
      </trkpt>
      <trkpt lat="45.92935" lon="6.50787">
        <ele>1764.82421875</ele>
        <time>2011-02-26T11:00:30Z</time>
      </trkpt>
      <trkpt lat="45.92927" lon="6.50769">
        <ele>1762.20703125</ele>
        <time>2011-02-26T11:00:34Z</time>
      </trkpt>
      <trkpt lat="45.92925" lon="6.5076">
        <ele>1759.99609375</ele>
        <time>2011-02-26T11:00:40Z</time>
      </trkpt>
      <trkpt lat="45.9293" lon="6.5075">
        <ele>1753.41796875</ele>
        <time>2011-02-26T11:00:45Z</time>
      </trkpt>
      <trkpt lat="45.92929" lon="6.50751">
        <ele>1754.75</ele>
        <time>2011-02-26T11:00:56Z</time>
      </trkpt>
      <trkpt lat="45.92928" lon="6.5075">
        <ele>1754.65625</ele>
        <time>2011-02-26T11:01:00Z</time>
      </trkpt>
      <trkpt lat="45.92941" lon="6.50747">
        <ele>1746.9765625</ele>
        <time>2011-02-26T11:01:05Z</time>
      </trkpt>
      <trkpt lat="45.92943" lon="6.50742">
        <ele>1744.1796875</ele>
        <time>2011-02-26T11:01:07Z</time>
      </trkpt>
      <trkpt lat="45.92949" lon="6.50735">
        <ele>1738.828125</ele>
        <time>2011-02-26T11:01:12Z</time>
      </trkpt>
      <trkpt lat="45.92949" lon="6.50736">
        <ele>1739.109375</ele>
        <time>2011-02-26T11:01:18Z</time>
      </trkpt>
      <trkpt lat="45.92949" lon="6.50732">
        <ele>1737.59375</ele>
        <time>2011-02-26T11:01:24Z</time>
      </trkpt>
      <trkpt lat="45.92945" lon="6.50718">
        <ele>1734.51171875</ele>
        <time>2011-02-26T11:01:30Z</time>
      </trkpt>
      <trkpt lat="45.92936" lon="6.50703">
        <ele>1735.28125</ele>
        <time>2011-02-26T11:01:35Z</time>
      </trkpt>
      <trkpt lat="45.92931" lon="6.5069">
        <ele>1733.82421875</ele>
        <time>2011-02-26T11:01:42Z</time>
      </trkpt>
      <trkpt lat="45.92936" lon="6.50688">
        <ele>1730.125</ele>
        <time>2011-02-26T11:01:49Z</time>
      </trkpt>
      <trkpt lat="45.92949" lon="6.50667">
        <ele>1716.15234375</ele>
        <time>2011-02-26T11:01:55Z</time>
      </trkpt>
      <trkpt lat="45.92947" lon="6.50643">
        <ele>1710.28515625</ele>
        <time>2011-02-26T11:02:05Z</time>
      </trkpt>
      <trkpt lat="45.9294" lon="6.50632">
        <ele>1711.32421875</ele>
        <time>2011-02-26T11:02:12Z</time>
      </trkpt>
      <trkpt lat="45.92938" lon="6.50621">
        <ele>1709.671875</ele>
        <time>2011-02-26T11:02:25Z</time>
      </trkpt>
      <trkpt lat="45.92938" lon="6.5062">
        <ele>1709.15625</ele>
        <time>2011-02-26T11:02:27Z</time>
      </trkpt>
      <trkpt lat="45.92934" lon="6.50612">
        <ele>1709.69921875</ele>
        <time>2011-02-26T11:02:45Z</time>
      </trkpt>
      <trkpt lat="45.92934" lon="6.5061">
        <ele>1709.21484375</ele>
        <time>2011-02-26T11:02:59Z</time>
      </trkpt>
      <trkpt lat="45.92934" lon="6.5061">
        <ele>1709.21484375</ele>
        <time>2011-02-26T11:03:15Z</time>
      </trkpt>
      <trkpt lat="45.92934" lon="6.5061">
        <ele>1709.21484375</ele>
        <time>2011-02-26T11:03:27Z</time>
      </trkpt>
      <trkpt lat="45.92933" lon="6.50608">
        <ele>1708.99609375</ele>
        <time>2011-02-26T11:03:29Z</time>
      </trkpt>
      <trkpt lat="45.92934" lon="6.506">
        <ele>1706.4140625</ele>
        <time>2011-02-26T11:03:39Z</time>
      </trkpt>
      <trkpt lat="45.92934" lon="6.50588">
        <ele>1702.6484375</ele>
        <time>2011-02-26T11:03:46Z</time>
      </trkpt>
      <trkpt lat="45.92929" lon="6.50559">
        <ele>1696.78125</ele>
        <time>2011-02-26T11:04:00Z</time>
      </trkpt>
      <trkpt lat="45.92929" lon="6.50558">
        <ele>1696.1015625</ele>
        <time>2011-02-26T11:04:15Z</time>
      </trkpt>
      <trkpt lat="45.92928" lon="6.50553">
        <ele>1695.34765625</ele>
        <time>2011-02-26T11:04:29Z</time>
      </trkpt>
      <trkpt lat="45.92928" lon="6.50553">
        <ele>1695.34765625</ele>
        <time>2011-02-26T11:04:43Z</time>
      </trkpt>
      <trkpt lat="45.92928" lon="6.50553">
        <ele>1695.34765625</ele>
        <time>2011-02-26T11:04:56Z</time>
      </trkpt>
      <trkpt lat="45.92928" lon="6.50553">
        <ele>1695.34765625</ele>
        <time>2011-02-26T11:04:58Z</time>
      </trkpt>
      <trkpt lat="45.92925" lon="6.50535">
        <ele>1690.546875</ele>
        <time>2011-02-26T11:05:06Z</time>
      </trkpt>
      <trkpt lat="45.92918" lon="6.50523">
        <ele>1688.91015625</ele>
        <time>2011-02-26T11:05:10Z</time>
      </trkpt>
      <trkpt lat="45.92895" lon="6.50495">
        <ele>1682.984375</ele>
        <time>2011-02-26T11:05:21Z</time>
      </trkpt>
      <trkpt lat="45.92892" lon="6.50491">
        <ele>1681.62109375</ele>
        <time>2011-02-26T11:05:29Z</time>
      </trkpt>
      <trkpt lat="45.92892" lon="6.50491">
        <ele>1681.62109375</ele>
        <time>2011-02-26T11:05:40Z</time>
      </trkpt>
      <trkpt lat="45.9289" lon="6.50489">
        <ele>1681.05859375</ele>
        <time>2011-02-26T11:05:42Z</time>
      </trkpt>
      <trkpt lat="45.92882" lon="6.50489">
        <ele>1681.6015625</ele>
        <time>2011-02-26T11:05:46Z</time>
      </trkpt>
      <trkpt lat="45.92865" lon="6.50468">
        <ele>1674.6484375</ele>
        <time>2011-02-26T11:05:56Z</time>
      </trkpt>
      <trkpt lat="45.92873" lon="6.50436">
        <ele>1662.29296875</ele>
        <time>2011-02-26T11:06:07Z</time>
      </trkpt>
      <trkpt lat="45.92844" lon="6.50419">
        <ele>1661.28515625</ele>
        <time>2011-02-26T11:06:17Z</time>
      </trkpt>
      <trkpt lat="45.92843" lon="6.50417">
        <ele>1661.03515625</ele>
        <time>2011-02-26T11:06:25Z</time>
      </trkpt>
      <trkpt lat="45.92843" lon="6.50416">
        <ele>1660.67578125</ele>
        <time>2011-02-26T11:06:26Z</time>
      </trkpt>
      <trkpt lat="45.92832" lon="6.50388">
        <ele>1654.6171875</ele>
        <time>2011-02-26T11:06:36Z</time>
      </trkpt>
      <trkpt lat="45.92827" lon="6.50378">
        <ele>1653.0859375</ele>
        <time>2011-02-26T11:06:39Z</time>
      </trkpt>
      <trkpt lat="45.92797" lon="6.5034">
        <ele>1650.19921875</ele>
        <time>2011-02-26T11:06:49Z</time>
      </trkpt>
      <trkpt lat="45.928" lon="6.50312">
        <ele>1640.23046875</ele>
        <time>2011-02-26T11:07:01Z</time>
      </trkpt>
      <trkpt lat="45.92799" lon="6.50311">
        <ele>1640.0078125</ele>
        <time>2011-02-26T11:07:02Z</time>
      </trkpt>
      <trkpt lat="45.9279" lon="6.50299">
        <ele>1638.65234375</ele>
        <time>2011-02-26T11:07:10Z</time>
      </trkpt>
      <trkpt lat="45.92785" lon="6.50279">
        <ele>1632.953125</ele>
        <time>2011-02-26T11:07:22Z</time>
      </trkpt>
      <trkpt lat="45.92772" lon="6.50228">
        <ele>1616.33984375</ele>
        <time>2011-02-26T11:07:33Z</time>
      </trkpt>
      <trkpt lat="45.92755" lon="6.50199">
        <ele>1608.2265625</ele>
        <time>2011-02-26T11:07:43Z</time>
      </trkpt>
      <trkpt lat="45.92739" lon="6.5019">
        <ele>1608.8359375</ele>
        <time>2011-02-26T11:07:52Z</time>
      </trkpt>
      <trkpt lat="45.92715" lon="6.50176">
        <ele>1609.79296875</ele>
        <time>2011-02-26T11:08:02Z</time>
      </trkpt>
      <trkpt lat="45.92691" lon="6.50157">
        <ele>1611.828125</ele>
        <time>2011-02-26T11:08:10Z</time>
      </trkpt>
      <trkpt lat="45.92676" lon="6.50134">
        <ele>1610.7421875</ele>
        <time>2011-02-26T11:08:18Z</time>
      </trkpt>
      <trkpt lat="45.92667" lon="6.50108">
        <ele>1606.8046875</ele>
        <time>2011-02-26T11:08:26Z</time>
      </trkpt>
      <trkpt lat="45.92659" lon="6.50077">
        <ele>1600.796875</ele>
        <time>2011-02-26T11:08:35Z</time>
      </trkpt>
      <trkpt lat="45.92654" lon="6.50057">
        <ele>1596.79296875</ele>
        <time>2011-02-26T11:08:44Z</time>
      </trkpt>
      <trkpt lat="45.92646" lon="6.50026">
        <ele>1591.421875</ele>
        <time>2011-02-26T11:08:53Z</time>
      </trkpt>
      <trkpt lat="45.92644" lon="6.49983">
        <ele>1581.83984375</ele>
        <time>2011-02-26T11:09:02Z</time>
      </trkpt>
      <trkpt lat="45.92635" lon="6.49937">
        <ele>1578.16015625</ele>
        <time>2011-02-26T11:09:10Z</time>
      </trkpt>
      <trkpt lat="45.92633" lon="6.4993">
        <ele>1577.6171875</ele>
        <time>2011-02-26T11:09:31Z</time>
      </trkpt>
      <trkpt lat="45.92634" lon="6.49932">
        <ele>1577.26171875</ele>
        <time>2011-02-26T11:09:32Z</time>
      </trkpt>
      <trkpt lat="45.92643" lon="6.49925">
        <ele>1571.2578125</ele>
        <time>2011-02-26T11:09:36Z</time>
      </trkpt>
      <trkpt lat="45.92644" lon="6.49922">
        <ele>1569.65234375</ele>
        <time>2011-02-26T11:09:37Z</time>
      </trkpt>
      <trkpt lat="45.92646" lon="6.4992">
        <ele>1568.21484375</ele>
        <time>2011-02-26T11:09:38Z</time>
      </trkpt>
      <trkpt lat="45.92648" lon="6.49923">
        <ele>1568.06640625</ele>
        <time>2011-02-26T11:09:39Z</time>
      </trkpt>
      <trkpt lat="45.92656" lon="6.4991">
        <ele>1561.57421875</ele>
        <time>2011-02-26T11:09:45Z</time>
      </trkpt>
      <trkpt lat="45.92667" lon="6.49912">
        <ele>1556.73046875</ele>
        <time>2011-02-26T11:09:49Z</time>
      </trkpt>
      <trkpt lat="45.92669" lon="6.4991">
        <ele>1555.2734375</ele>
        <time>2011-02-26T11:09:50Z</time>
      </trkpt>
      <trkpt lat="45.92674" lon="6.49904">
        <ele>1551.92578125</ele>
        <time>2011-02-26T11:09:53Z</time>
      </trkpt>
      <trkpt lat="45.92676" lon="6.49886">
        <ele>1547.8671875</ele>
        <time>2011-02-26T11:09:58Z</time>
      </trkpt>
      <trkpt lat="45.92673" lon="6.49881">
        <ele>1548.296875</ele>
        <time>2011-02-26T11:10:02Z</time>
      </trkpt>
      <trkpt lat="45.92673" lon="6.49866">
        <ele>1544.87890625</ele>
        <time>2011-02-26T11:10:05Z</time>
      </trkpt>
      <trkpt lat="45.92676" lon="6.49858">
        <ele>1541.91796875</ele>
        <time>2011-02-26T11:10:06Z</time>
      </trkpt>
      <trkpt lat="45.92677" lon="6.4985">
        <ele>1539.8828125</ele>
        <time>2011-02-26T11:10:07Z</time>
      </trkpt>
      <trkpt lat="45.92677" lon="6.49844">
        <ele>1538.7109375</ele>
        <time>2011-02-26T11:10:08Z</time>
      </trkpt>
      <trkpt lat="45.92677" lon="6.49841">
        <ele>1538.26171875</ele>
        <time>2011-02-26T11:10:14Z</time>
      </trkpt>
      <trkpt lat="45.92676" lon="6.4984">
        <ele>1538.6875</ele>
        <time>2011-02-26T11:10:15Z</time>
      </trkpt>
      <trkpt lat="45.92674" lon="6.49835">
        <ele>1538.55078125</ele>
        <time>2011-02-26T11:10:26Z</time>
      </trkpt>
      <trkpt lat="45.92671" lon="6.49832">
        <ele>1539.484375</ele>
        <time>2011-02-26T11:10:40Z</time>
      </trkpt>
      <trkpt lat="45.92671" lon="6.49829">
        <ele>1538.75390625</ele>
        <time>2011-02-26T11:10:44Z</time>
      </trkpt>
      <trkpt lat="45.9267" lon="6.49826">
        <ele>1538.6015625</ele>
        <time>2011-02-26T11:10:45Z</time>
      </trkpt>
      <trkpt lat="45.9267" lon="6.49822">
        <ele>1538.14453125</ele>
        <time>2011-02-26T11:10:46Z</time>
      </trkpt>
      <trkpt lat="45.9267" lon="6.49817">
        <ele>1537.65625</ele>
        <time>2011-02-26T11:10:47Z</time>
      </trkpt>
      <trkpt lat="45.92669" lon="6.49813">
        <ele>1537.1953125</ele>
        <time>2011-02-26T11:10:48Z</time>
      </trkpt>
      <trkpt lat="45.92667" lon="6.49804">
        <ele>1536.82421875</ele>
        <time>2011-02-26T11:10:53Z</time>
      </trkpt>
      <trkpt lat="45.92669" lon="6.49804">
        <ele>1536.1796875</ele>
        <time>2011-02-26T11:10:55Z</time>
      </trkpt>
      <trkpt lat="45.9267" lon="6.49803">
        <ele>1535.53125</ele>
        <time>2011-02-26T11:10:56Z</time>
      </trkpt>
      <trkpt lat="45.9267" lon="6.49801">
        <ele>1534.88671875</ele>
        <time>2011-02-26T11:10:57Z</time>
      </trkpt>
      <trkpt lat="45.92671" lon="6.49798">
        <ele>1533.95703125</ele>
        <time>2011-02-26T11:10:58Z</time>
      </trkpt>
      <trkpt lat="45.92671" lon="6.49795">
        <ele>1533.24609375</ele>
        <time>2011-02-26T11:10:59Z</time>
      </trkpt>
      <trkpt lat="45.9267" lon="6.49788">
        <ele>1532.109375</ele>
        <time>2011-02-26T11:11:05Z</time>
      </trkpt>
      <trkpt lat="45.9266" lon="6.49748">
        <ele>1528.16796875</ele>
        <time>2011-02-26T11:11:15Z</time>
      </trkpt>
      <trkpt lat="45.92649" lon="6.49715">
        <ele>1526.45703125</ele>
        <time>2011-02-26T11:11:21Z</time>
      </trkpt>
      <trkpt lat="45.92658" lon="6.49625">
        <ele>1507.60546875</ele>
        <time>2011-02-26T11:11:33Z</time>
      </trkpt>
      <trkpt lat="45.92658" lon="6.49577">
        <ele>1504.7890625</ele>
        <time>2011-02-26T11:11:39Z</time>
      </trkpt>
      <trkpt lat="45.9266" lon="6.4957">
        <ele>1503.1953125</ele>
        <time>2011-02-26T11:11:40Z</time>
      </trkpt>
      <trkpt lat="45.92664" lon="6.4951">
        <ele>1506.75390625</ele>
        <time>2011-02-26T11:11:50Z</time>
      </trkpt>
      <trkpt lat="45.92663" lon="6.49502">
        <ele>1510.36328125</ele>
        <time>2011-02-26T11:11:53Z</time>
      </trkpt>
      <trkpt lat="45.92664" lon="6.49477">
        <ele>1518.2890625</ele>
        <time>2011-02-26T11:12:03Z</time>
      </trkpt>
      <trkpt lat="45.92664" lon="6.49469">
        <ele>1520.39453125</ele>
        <time>2011-02-26T11:12:15Z</time>
      </trkpt>
      <trkpt lat="45.92665" lon="6.49468">
        <ele>1519.98046875</ele>
        <time>2011-02-26T11:12:16Z</time>
      </trkpt>
      <trkpt lat="45.92676" lon="6.49454">
        <ele>1514.1796875</ele>
        <time>2011-02-26T11:12:23Z</time>
      </trkpt>
      <trkpt lat="45.92708" lon="6.49448">
        <ele>1493.9453125</ele>
        <time>2011-02-26T11:12:36Z</time>
      </trkpt>
      <trkpt lat="45.92713" lon="6.4945">
        <ele>1492.51953125</ele>
        <time>2011-02-26T11:12:49Z</time>
      </trkpt>
      <trkpt lat="45.9272" lon="6.49448">
        <ele>1491.64453125</ele>
        <time>2011-02-26T11:13:03Z</time>
      </trkpt>
      <trkpt lat="45.92721" lon="6.49446">
        <ele>1491.99609375</ele>
        <time>2011-02-26T11:13:16Z</time>
      </trkpt>
      <trkpt lat="45.92721" lon="6.49446">
        <ele>1491.99609375</ele>
        <time>2011-02-26T11:13:35Z</time>
      </trkpt>
      <trkpt lat="45.92721" lon="6.49444">
        <ele>1492.3828125</ele>
        <time>2011-02-26T11:13:51Z</time>
      </trkpt>
      <trkpt lat="45.92729" lon="6.49418">
        <ele>1494.92578125</ele>
        <time>2011-02-26T11:14:01Z</time>
      </trkpt>
      <trkpt lat="45.92721" lon="6.49359">
        <ele>1499.171875</ele>
        <time>2011-02-26T11:14:12Z</time>
      </trkpt>
      <trkpt lat="45.92705" lon="6.49305">
        <ele>1499.65234375</ele>
        <time>2011-02-26T11:14:20Z</time>
      </trkpt>
      <trkpt lat="45.92702" lon="6.49299">
        <ele>1499.93359375</ele>
        <time>2011-02-26T11:14:21Z</time>
      </trkpt>
      <trkpt lat="45.92699" lon="6.49293">
        <ele>1499.796875</ele>
        <time>2011-02-26T11:14:22Z</time>
      </trkpt>
      <trkpt lat="45.92694" lon="6.49287">
        <ele>1500.18359375</ele>
        <time>2011-02-26T11:14:23Z</time>
      </trkpt>
      <trkpt lat="45.92689" lon="6.49282">
        <ele>1500.56640625</ele>
        <time>2011-02-26T11:14:24Z</time>
      </trkpt>
      <trkpt lat="45.92685" lon="6.49278">
        <ele>1500.82421875</ele>
        <time>2011-02-26T11:14:25Z</time>
      </trkpt>
      <trkpt lat="45.92646" lon="6.49259">
        <ele>1508.69921875</ele>
        <time>2011-02-26T11:14:35Z</time>
      </trkpt>
      <trkpt lat="45.92631" lon="6.4925">
        <ele>1509.71875</ele>
        <time>2011-02-26T11:14:44Z</time>
      </trkpt>
      <trkpt lat="45.9263" lon="6.49248">
        <ele>1509.40234375</ele>
        <time>2011-02-26T11:14:46Z</time>
      </trkpt>
      <trkpt lat="45.92629" lon="6.49247">
        <ele>1509.046875</ele>
        <time>2011-02-26T11:14:47Z</time>
      </trkpt>
      <trkpt lat="45.92628" lon="6.49246">
        <ele>1508.82421875</ele>
        <time>2011-02-26T11:14:48Z</time>
      </trkpt>
      <trkpt lat="45.9262" lon="6.49235">
        <ele>1506.80078125</ele>
        <time>2011-02-26T11:14:58Z</time>
      </trkpt>
      <trkpt lat="45.92611" lon="6.4923">
        <ele>1507.12109375</ele>
        <time>2011-02-26T11:15:11Z</time>
      </trkpt>
      <trkpt lat="45.926" lon="6.49227">
        <ele>1509.29296875</ele>
        <time>2011-02-26T11:15:25Z</time>
      </trkpt>
      <trkpt lat="45.92591" lon="6.49227">
        <ele>1511.4375</ele>
        <time>2011-02-26T11:15:36Z</time>
      </trkpt>
      <trkpt lat="45.9258" lon="6.49223">
        <ele>1512.4375</ele>
        <time>2011-02-26T11:15:50Z</time>
      </trkpt>
      <trkpt lat="45.92571" lon="6.49222">
        <ele>1514.67578125</ele>
        <time>2011-02-26T11:16:01Z</time>
      </trkpt>
      <trkpt lat="45.9256" lon="6.4922">
        <ele>1515.609375</ele>
        <time>2011-02-26T11:16:11Z</time>
      </trkpt>
      <trkpt lat="45.92548" lon="6.4922">
        <ele>1514.640625</ele>
        <time>2011-02-26T11:16:25Z</time>
      </trkpt>
      <trkpt lat="45.92539" lon="6.49217">
        <ele>1512.99609375</ele>
        <time>2011-02-26T11:16:37Z</time>
      </trkpt>
      <trkpt lat="45.92534" lon="6.49215">
        <ele>1511.42578125</ele>
        <time>2011-02-26T11:16:48Z</time>
      </trkpt>
      <trkpt lat="45.9252" lon="6.49205">
        <ele>1505.5234375</ele>
        <time>2011-02-26T11:17:02Z</time>
      </trkpt>
      <trkpt lat="45.92501" lon="6.49198">
        <ele>1500.21875</ele>
        <time>2011-02-26T11:17:12Z</time>
      </trkpt>
      <trkpt lat="45.9249" lon="6.4919">
        <ele>1495.9140625</ele>
        <time>2011-02-26T11:17:25Z</time>
      </trkpt>
      <trkpt lat="45.92483" lon="6.49177">
        <ele>1492.7734375</ele>
        <time>2011-02-26T11:17:38Z</time>
      </trkpt>
      <trkpt lat="45.92475" lon="6.49169">
        <ele>1491.0625</ele>
        <time>2011-02-26T11:17:50Z</time>
      </trkpt>
      <trkpt lat="45.92471" lon="6.49168">
        <ele>1490.796875</ele>
        <time>2011-02-26T11:17:55Z</time>
      </trkpt>
      <trkpt lat="45.9247" lon="6.49169">
        <ele>1490.7578125</ele>
        <time>2011-02-26T11:17:56Z</time>
      </trkpt>
      <trkpt lat="45.92456" lon="6.4917">
        <ele>1490.33984375</ele>
        <time>2011-02-26T11:18:12Z</time>
      </trkpt>
      <trkpt lat="45.92454" lon="6.49178">
        <ele>1491.14453125</ele>
        <time>2011-02-26T11:18:17Z</time>
      </trkpt>
      <trkpt lat="45.92446" lon="6.49168">
        <ele>1489.89453125</ele>
        <time>2011-02-26T11:18:21Z</time>
      </trkpt>
      <trkpt lat="45.92439" lon="6.49158">
        <ele>1488.91796875</ele>
        <time>2011-02-26T11:18:27Z</time>
      </trkpt>
      <trkpt lat="45.92427" lon="6.49155">
        <ele>1488.8125</ele>
        <time>2011-02-26T11:18:30Z</time>
      </trkpt>
      <trkpt lat="45.92397" lon="6.49148">
        <ele>1488.69921875</ele>
        <time>2011-02-26T11:18:34Z</time>
      </trkpt>
      <trkpt lat="45.92391" lon="6.49144">
        <ele>1488.40234375</ele>
        <time>2011-02-26T11:18:35Z</time>
      </trkpt>
      <trkpt lat="45.92386" lon="6.49138">
        <ele>1487.6484375</ele>
        <time>2011-02-26T11:18:36Z</time>
      </trkpt>
      <trkpt lat="45.92375" lon="6.49126">
        <ele>1485.98046875</ele>
        <time>2011-02-26T11:18:38Z</time>
      </trkpt>
      <trkpt lat="45.92369" lon="6.49121">
        <ele>1485.0234375</ele>
        <time>2011-02-26T11:18:39Z</time>
      </trkpt>
      <trkpt lat="45.92337" lon="6.49093">
        <ele>1480</ele>
        <time>2011-02-26T11:18:45Z</time>
      </trkpt>
      <trkpt lat="45.92332" lon="6.49088">
        <ele>1479.1015625</ele>
        <time>2011-02-26T11:18:46Z</time>
      </trkpt>
      <trkpt lat="45.92327" lon="6.49085">
        <ele>1478.4140625</ele>
        <time>2011-02-26T11:18:47Z</time>
      </trkpt>
      <trkpt lat="45.92317" lon="6.49078">
        <ele>1477.171875</ele>
        <time>2011-02-26T11:18:49Z</time>
      </trkpt>
      <trkpt lat="45.9228" lon="6.49038">
        <ele>1471.375</ele>
        <time>2011-02-26T11:18:55Z</time>
      </trkpt>
      <trkpt lat="45.92273" lon="6.49028">
        <ele>1470.01953125</ele>
        <time>2011-02-26T11:18:56Z</time>
      </trkpt>
      <trkpt lat="45.92234" lon="6.48971">
        <ele>1460.77734375</ele>
        <time>2011-02-26T11:19:02Z</time>
      </trkpt>
      <trkpt lat="45.92228" lon="6.4896">
        <ele>1459.54296875</ele>
        <time>2011-02-26T11:19:03Z</time>
      </trkpt>
      <trkpt lat="45.92223" lon="6.4895">
        <ele>1458.79296875</ele>
        <time>2011-02-26T11:19:04Z</time>
      </trkpt>
      <trkpt lat="45.92216" lon="6.4894">
        <ele>1458.23046875</ele>
        <time>2011-02-26T11:19:05Z</time>
      </trkpt>
      <trkpt lat="45.92209" lon="6.48931">
        <ele>1457.69140625</ele>
        <time>2011-02-26T11:19:06Z</time>
      </trkpt>
      <trkpt lat="45.92168" lon="6.4888">
        <ele>1460.28125</ele>
        <time>2011-02-26T11:19:13Z</time>
      </trkpt>
      <trkpt lat="45.92164" lon="6.48872">
        <ele>1460.44140625</ele>
        <time>2011-02-26T11:19:14Z</time>
      </trkpt>
      <trkpt lat="45.92162" lon="6.48864">
        <ele>1460.14453125</ele>
        <time>2011-02-26T11:19:15Z</time>
      </trkpt>
      <trkpt lat="45.92162" lon="6.48857">
        <ele>1459.3671875</ele>
        <time>2011-02-26T11:19:16Z</time>
      </trkpt>
      <trkpt lat="45.92163" lon="6.48851">
        <ele>1458.8359375</ele>
        <time>2011-02-26T11:19:17Z</time>
      </trkpt>
      <trkpt lat="45.92165" lon="6.48847">
        <ele>1458.421875</ele>
        <time>2011-02-26T11:19:18Z</time>
      </trkpt>
      <trkpt lat="45.92167" lon="6.48843">
        <ele>1458.140625</ele>
        <time>2011-02-26T11:19:19Z</time>
      </trkpt>
      <trkpt lat="45.92173" lon="6.4883">
        <ele>1457.13671875</ele>
        <time>2011-02-26T11:19:26Z</time>
      </trkpt>
      <trkpt lat="45.92178" lon="6.48815">
        <ele>1456.1875</ele>
        <time>2011-02-26T11:19:40Z</time>
      </trkpt>
      <trkpt lat="45.92179" lon="6.48796">
        <ele>1456.0234375</ele>
        <time>2011-02-26T11:19:56Z</time>
      </trkpt>
      <trkpt lat="45.92178" lon="6.48791">
        <ele>1456.15234375</ele>
        <time>2011-02-26T11:20:00Z</time>
      </trkpt>
      <trkpt lat="45.92177" lon="6.4879">
        <ele>1456.328125</ele>
        <time>2011-02-26T11:20:01Z</time>
      </trkpt>
      <trkpt lat="45.92172" lon="6.48767">
        <ele>1457.3515625</ele>
        <time>2011-02-26T11:20:17Z</time>
      </trkpt>
      <trkpt lat="45.92167" lon="6.48751">
        <ele>1458.25390625</ele>
        <time>2011-02-26T11:20:31Z</time>
      </trkpt>
      <trkpt lat="45.92162" lon="6.48734">
        <ele>1459.6015625</ele>
        <time>2011-02-26T11:20:46Z</time>
      </trkpt>
      <trkpt lat="45.92156" lon="6.48714">
        <ele>1461.6015625</ele>
        <time>2011-02-26T11:21:01Z</time>
      </trkpt>
      <trkpt lat="45.92149" lon="6.48693">
        <ele>1464.93359375</ele>
        <time>2011-02-26T11:21:15Z</time>
      </trkpt>
      <trkpt lat="45.9213" lon="6.48662">
        <ele>1472.8125</ele>
        <time>2011-02-26T11:21:23Z</time>
      </trkpt>
      <trkpt lat="45.92127" lon="6.4864">
        <ele>1473.453125</ele>
        <time>2011-02-26T11:21:31Z</time>
      </trkpt>
      <trkpt lat="45.92144" lon="6.48605">
        <ele>1466.15625</ele>
        <time>2011-02-26T11:21:40Z</time>
      </trkpt>
      <trkpt lat="45.92167" lon="6.48553">
        <ele>1457.4765625</ele>
        <time>2011-02-26T11:21:52Z</time>
      </trkpt>
      <trkpt lat="45.92196" lon="6.48492">
        <ele>1449.875</ele>
        <time>2011-02-26T11:22:02Z</time>
      </trkpt>
      <trkpt lat="45.92228" lon="6.48444">
        <ele>1443.796875</ele>
        <time>2011-02-26T11:22:11Z</time>
      </trkpt>
      <trkpt lat="45.92257" lon="6.48416">
        <ele>1439.359375</ele>
        <time>2011-02-26T11:22:23Z</time>
      </trkpt>
      <trkpt lat="45.92279" lon="6.48394">
        <ele>1437.41015625</ele>
        <time>2011-02-26T11:22:36Z</time>
      </trkpt>
      <trkpt lat="45.92283" lon="6.48388">
        <ele>1437.546875</ele>
        <time>2011-02-26T11:22:46Z</time>
      </trkpt>
      <trkpt lat="45.92283" lon="6.48388">
        <ele>1437.546875</ele>
        <time>2011-02-26T11:23:03Z</time>
      </trkpt>
      <trkpt lat="45.92282" lon="6.48388">
        <ele>1437.625</ele>
        <time>2011-02-26T11:23:18Z</time>
      </trkpt>
      <trkpt lat="45.92282" lon="6.48388">
        <ele>1437.625</ele>
        <time>2011-02-26T11:23:35Z</time>
      </trkpt>
      <trkpt lat="45.92282" lon="6.48388">
        <ele>1437.71875</ele>
        <time>2011-02-26T11:23:51Z</time>
      </trkpt>
    </trkseg>
  </trk>
</gpx>